Date	Time of Day	Time of Run (sec)	Data PointGroup	Data Point Number	N1 Frequency (Hz)	N1 Percent	N1 RPM (51,120)	N2 Frequency (Hz)	N2 Percent	N2 RPM (35,000)	Engine TOT (F)	Air Plenum Temperature (F)	Ambient Temperature (F)	Ambient Pressure (psia)	Ambient Relative Humidity	Compressor Bleed Temperature (F)	Compressor Bleed Pressure (psig)	Bleed Temperature (F)	Bleed Pressure (in H2O)	Bleed Pressure (psia)	Bleed DP Pressure (in H2O)	Bleed Air SV	Sample	Orifice Plate	Sonic Orifice Plate Dia.	Dyno RPM	Dyno Torque (lbf*ft)	Dyno HorsePower (Hp)	Compressor Bleed Pressure (psia)	Compressor Pressure Ratio	Compressor Bleed Temperature (C)	Comp Simple Isentropic Temp Expected (C)	Bleed Air Mass Flow (lbm/min)	Bleed Air Volumetric Flow (SCFM)	Bleed Air Volumetric Flow (LPM)
11/10/2014 3:10:36 PM	15:10:36	0	A	1	0	0	0	0	0	0	72.60437	65.01486	62.97217	13.99388	37.265	74.4007	-0.2599945	68.87698	-0.5370007	13.96724	7.799911E-02	0	1	1	0.25	-1	2	-4.189165E-04	13.73887	0.9817774	23.55595	16.84138	0.2284392	2.986609	84.5712
11/10/2014 3:10:46 PM	15:10:46	0	A	1	0	0	0	-1	0	0	72.69419	65.14959	62.85245	13.99537	37.42	74.3558	-0.2599945	68.83208	-0.7310009	13.97311	8.099937E-02	0	1	1	0.25	-1	2	-3.807993E-04	13.73538	0.9814228	23.531	16.88644	0.2328855	3.044739	86.21726
11/10/2014 3:10:56 PM	15:10:56	0	A	1	0	0	0	0	0	0	72.42474	65.23941	62.74985	13.99537	37.52	74.17616	-0.2649994	68.78716	-0.6149998	13.97243	7.699966E-02	0	1	1	0.25	-1	2	-3.426822E-04	13.73038	0.9810652	23.4312	16.90642	0.2285341	2.987849	84.60632
11/10/2014 3:11:06 PM	15:11:06	0	A	1	0	0	0	-1	0	0	72.2002	65.59867	62.74985	13.99537	37.52	73.95162	-0.2799988	68.56262	-0.6450005	13.97478	8.300018E-02	0	1	1	0.25	-2	1.600098	-6.093162E-04	13.71037	0.9796359	23.30646	16.91181	0.2358223	3.083134	87.30449
11/10/2014 3:11:16 PM	15:11:16	0	A	1	0	0	0	-1	0	0	72.33492	65.59867	62.64725	13.99688	37.845	73.86181	-0.2850037	68.60753	-0.7129993	13.97255	8.099937E-02	0	1	1	0.25	-1	1.799805	-3.426822E-04	13.70688	0.9792815	23.25656	16.95677	0.2329285	3.0453	86.23316
11/10/2014 3:11:26 PM	15:11:26	0	A	1	0	0	0	0	0	0	72.15529	65.50886	62.56177	13.99688	38.02	73.68217	-0.2899933	68.56262	-0.6170006	13.97219	8.200073E-02	0	1	1	0.25	-2	1.799805	-7.615987E-04	13.70688	0.9792815	23.15676	16.9072	0.2342996	3.063226	86.74077
11/10/2014 3:11:36 PM	15:11:36	0	A	1	0	0	0	0	0	0	71.97565	65.64359	62.56177	13.99688	38.02	73.68217	-0.3000031	68.56262	-0.6630001	13.97317	7.900047E-02	0	1	1	0.25	-1	1.600098	-3.426822E-04	13.69687	0.9785664	23.15676	16.92212	0.2315065	3.02671	85.70673
11/10/2014 3:11:46 PM	15:11:46	0	A	1	0	0	0	-1	0	0	71.79602	65.50886	62.49335	13.99537	38.12	73.45763	-0.2949982	68.47281	-0.5459995	13.97528	7.999992E-02	0	1	1	0.25	-1	1.799805	-3.807993E-04	13.69537	0.9785641	23.03201	16.84755	0.23146	3.026102	85.68951
11/10/2014 3:11:56 PM	15:11:56	0	A	1	0	0	0	-1	0	0	71.93075	65.86813	62.41641	13.99425	38.325	73.278	-0.3099976	68.42789	-0.6329994	13.97437	8.300018E-02	0	1	1	0.25	-1	2	-3.807993E-04	13.68926	0.9782059	22.93222	17.01611	0.2329818	3.045997	86.2529
11/10/2014 3:12:06 PM	15:12:06	0	A	1	0	0	0	-1	0	0	71.70621	65.37413	62.41641	13.99425	38.325	73.09837	-0.3049927	68.38299	-0.7019997	13.9692	7.999992E-02	0	1	1	0.25	-1	2.200195	-4.189165E-04	13.69425	0.9785624	22.83243	16.77299	0.2285582	2.988163	84.61522
11/10/2014 3:12:16 PM	15:12:16	0	A	1	0	0	0	-1	0	0	71.84093	65.23941	62.32236	13.99612	38.41499	73.05346	-0.2949982	68.33808	-0.5389996	13.96794	8.399963E-02	0	1	1	0.25	-1	2.200195	-4.189165E-04	13.70113	0.9789228	22.80748	16.72857	0.2372393	3.10166	87.82909
11/10/2014 3:12:26 PM	15:12:26	0	A	1	0	0	0	-1	0	0	71.70621	64.88014	62.2796	13.99612	38.48	72.96364	-0.2899933	68.24826	-0.625	13.96992	8.099937E-02	0	1	1	0.25	-1	2	-4.189165E-04	13.70613	0.9792805	22.75758	16.55987	0.2329497	3.045578	86.24101
11/10/2014 3:12:36 PM	15:12:36	0	A	1	0	0	0	-1	0	0	71.75111	64.88014	62.2796	13.99612	38.48	72.784	-0.2850037	68.20335	-0.6079998	13.97263	7.999992E-02	0	1	1	0.25	-1	2.200195	-4.189165E-04	13.71112	0.979637	22.65778	16.58944	0.2300819	3.008085	85.17933
11/10/2014 3:12:46 PM	15:12:46	0	A	1	0	0	0	-1	0	0	71.79602	64.43106	62.20264	13.99725	38.47501	72.7391	-0.2799988	68.29317	-0.7980003	13.97383	8.099937E-02	0	1	1	0.25	-1	2.200195	-4.189165E-04	13.71725	0.9799961	22.55799	16.37117	0.2330059	3.046313	86.26183
11/10/2014 3:12:56 PM	15:12:56	0	A	1	0	0	0	-1	0	0	71.75111	64.16161	62.10004	14.00025	38.515	72.55946	-0.2799988	68.11354	-0.5249996	13.97604	8.300018E-02	0	1	1	0.25	-2	2.200195	-8.378329E-04	13.72025	0.9800004	22.53304	16.22265	0.235848	3.08347	87.31401
11/10/2014 3:13:06 PM	15:13:06	0	A	1	0	0	0	-1	0	0	71.6613	63.48798	62.10004	14.00025	38.515	72.33492	-0.2749939	68.15845	-0.6879997	13.97513	8.600044E-02	0	1	1	0.25	-1	2.399902	-4.569406E-04	13.72025	0.9800004	22.40829	15.85054	0.2387419	3.121306	88.38539
11/10/2014 3:13:16 PM	15:13:16	0	A	1	0	0	0	0	0	0	71.48167	63.80234	62.03165	13.99725	38.575	72.24511	-0.2850037	68.06863	-0.618	13.97163	7.999992E-02	0	1	1	0.25	-1	2.399902	-4.189165E-04	13.71725	0.9799961	22.35839	16.02385	0.231598	3.027907	85.74062
11/10/2014 3:13:26 PM	15:13:26	0	A	1	0	0	0	-1	0	0	71.25713	63.89216	61.96323	14.00438	38.75999	72.06548	-0.2949982	68.02373	-0.6970005	13.98009	8.399963E-02	0	1	1	0.25	-1	2.200195	-4.189165E-04	13.70938	0.9789353	22.2586	15.9856	0.2373946	3.103691	87.8866
11/10/2014 3:13:36 PM	15:13:36	0	A	1	0	0	0	0	0	0	71.1673	63.93707	61.96323	14.00438	38.75999	72.15529	-0.3000031	67.97882	-0.698	13.98016	8.300018E-02	0	1	1	0.25	-1	2.200195	-4.569406E-04	13.70437	0.9785779	22.30849	15.98075	0.2359446	3.084733	87.34976
11/10/2014 3:13:46 PM	15:13:46	0	A	1	0	0	0	-1	0	0	71.1673	63.48798	61.88629	14.00287	38.925	71.88584	-0.2949982	67.84409	-0.6860008	13.98018	7.999992E-02	0	1	1	0.25	-1	2.399902	-4.569406E-04	13.70287	0.9785756	22.1588	15.73261	0.2316667	3.028804	85.76604
11/10/2014 3:13:56 PM	15:13:56	0	A	1	0	0	0	-1	0	0	71.30203	63.62271	61.80936	13.99688	38.89	71.70621	-0.2949982	67.93391	-0.6359997	13.9727	8.099937E-02	0	1	1	0.25	-1	2.600098	-4.569406E-04	13.70188	0.978924	22.05901	15.83586	0.2330728	3.047188	86.2866
11/10/2014 3:14:06 PM	15:14:06	0	A	1	0	0	0	-1	0	0	71.1224	63.48798	61.80936	13.99688	38.89	71.61639	-0.3000031	67.84409	-0.7560005	13.97956	8.300018E-02	0	1	1	0.25	-1	2.399902	-4.569406E-04	13.69687	0.9785664	22.00911	15.73186	0.2359685	3.085046	87.35862
11/10/2014 3:14:16 PM	15:14:16	0	A	1	0	0	0	-1	0	0	71.21222	63.26344	61.73239	13.99837	39.07001	71.43676	-0.2899933	67.93391	-0.7380009	13.9734	8.600044E-02	0	1	1	0.25	-1	2.200195	-4.950577E-04	13.70838	0.9792838	21.90931	15.66723	0.240109	3.139179	88.89149
11/10/2014 3:14:26 PM	15:14:26	0	A	1	0	0	0	0	0	0	70.94276	63.30835	61.64691	13.99912	39.005	71.25713	-0.2949982	67.889	-0.6620007	13.97524	8.600044E-02	0	1	1	0.25	-1	2.200195	-4.569406E-04	13.70413	0.9789274	21.80951	15.66252	0.2401668	3.139935	88.9129
11/10/2014 3:14:36 PM	15:14:36	0	A	1	0	0	0	-1	0	0	70.98767	63.80234	61.64691	13.99912	39.005	71.21222	-0.3049927	67.70937	-0.6849995	13.97444	8.300018E-02	0	1	1	0.25	-2	2.399902	-8.378329E-04	13.69413	0.9782134	21.78457	15.87614	0.236003	3.085497	87.37141
11/10/2014 3:14:46 PM	15:14:46	0	A	1	0	0	0	-1	0	0	70.76313	63.75743	61.58704	14.00138	39.215	71.03259	-0.3150024	67.66446	-0.6879997	13.97875	8.499908E-02	0	1	1	0.25	-1	2.200195	-4.189165E-04	13.69138	0.9778595	21.68477	15.82203	0.2402785	3.141394	88.95422
11/10/2014 3:14:56 PM	15:14:56	0	A	1	0	0	0	0	0	0	70.67332	64.07179	61.5101	13.998	39.48	70.98767	-0.3150024	67.61955	-0.6650009	13.97389	8.799934E-02	0	1	1	0.25	-1	2.399902	-4.569406E-04	13.688	0.9778541	21.65982	15.99513	0.2429964	3.176928	89.96043
11/10/2014 3:15:06 PM	15:15:06	0	A	1	0	0	0	-1	0	0	70.67332	64.16161	61.5101	13.998	39.48	70.76313	-0.3150024	67.52973	-0.6329994	13.97509	8.600044E-02	0	1	1	0.25	-1	2.399902	-4.189165E-04	13.688	0.9778541	21.53507	16.0447	0.2430267	3.177324	89.97166
11/10/2014 3:15:16 PM	15:15:16	0	A	1	0	0	0	-1	0	0	70.53859	64.16161	61.46735	13.9995	39.52	70.71822	-0.3200073	67.48483	-0.6079998	13.97576	8.399963E-02	0	1	1	0.25	-1	2.600098	-4.950577E-04	13.6745	0.9767851	21.51013	15.95596	0.2402599	3.141151	88.94735
11/10/2014 3:15:26 PM	15:15:26	0	A	1	0	0	0	0	0	0	70.71822	63.66762	61.39896	13.99875	39.60001	70.71822	-0.3099976	67.48483	-0.7029991	13.97331	8.399963E-02	0	1	1	0.25	-1	2.399902	-4.950577E-04	13.68375	0.9774978	21.51013	15.74244	0.2373886	3.103612	87.88437
11/10/2014 3:15:36 PM	15:15:36	0	A	1	0	0	0	-1	0	0	70.49368	63.62271	61.39896	13.99875	39.60001	70.67332	-0.3099976	67.57464	-0.6830006	13.97602	8.200073E-02	0	1	1	0.25	-1	2.799805	-4.950577E-04	13.68875	0.9778553	21.48518	15.74729	0.2359638	3.084985	87.3569
11/10/2014 3:15:46 PM	15:15:46	0	A	1	0	0	0	-1	0	0	70.5835	63.30835	61.33057	14.00363	39.745	70.44878	-0.3150024	67.3501	-0.5869999	13.981	8.699989E-02	0	1	1	0.25	-2	2.600098	-9.901155E-04	13.68862	0.9775056	21.36043	15.54479	0.2417225	3.160273	89.48882
11/10/2014 3:15:56 PM	15:15:56	0	A	1	0	0	0	0	0	0	70.53859	62.99399	61.29636	14.001	39.645	70.40386	-0.3099976	67.30519	-0.6620007	13.97707	8.699989E-02	0	1	1	0.25	-1	2.600098	-4.950577E-04	13.691	0.9778589	21.33548	15.47487	0.2416664	3.15954	89.46805
11/10/2014 3:16:06 PM	15:16:06	0	A	1	0	0	0	0	0	0	70.26914	62.76945	61.29636	14.001	39.645	70.17932	-0.3099976	67.21537	-0.6620007	13.97812	8.499908E-02	0	1	1	0.25	-1	2.600098	-4.950577E-04	13.691	0.9778589	21.21074	15.27651	0.2375531	3.105763	87.94527
11/10/2014 3:16:16 PM	15:16:16	0	A	1	0	0	0	0	0	0	70.13441	62.90417	61.23651	13.99912	39.72	70.13441	-0.3099976	67.17046	-0.6630001	13.97477	8.300018E-02	0	1	1	0.25	-1	2.799805	-4.950577E-04	13.68913	0.9778559	21.18579	15.35067	0.236122	3.087053	87.41545
11/10/2014 3:16:26 PM	15:16:26	0	A	1	0	0	0	-1	0	0	70.17932	63.08381	61.17664	14.00063	39.88	70.08951	-0.3150024	67.12556	-0.6439991	13.97565	8.499908E-02	0	1	1	0.25	-1	2.399902	-4.569406E-04	13.68562	0.9775009	21.16084	15.42045	0.2388909	3.123254	88.44056
11/10/2014 3:16:36 PM	15:16:36	0	A	1	0	0	0	-1	0	0	70.04459	63.26344	61.17664	14.00063	39.88	70.04459	-0.3200073	67.08065	-0.691	13.97403	8.499908E-02	0	1	1	0.25	-1	2.600098	-4.950577E-04	13.68062	0.9771433	21.13589	15.48996	0.2389675	3.124254	88.46889
11/10/2014 3:16:46 PM	15:16:46	0	A	1	0	0	0	-1	0	0	70.26914	62.54491	61.13391	14.001	40.105	69.95478	-0.3150024	67.12556	-0.7140007	13.97007	8.499908E-02	0	1	1	0.25	-1	2.600098	-4.950577E-04	13.691	0.9778589	21.08599	15.15254	0.2374389	3.10427	87.903
11/10/2014 3:16:56 PM	15:16:56	0	A	1	0	0	0	-1	0	0	70.08951	62.09583	61.09116	13.99988	40.02499	69.82005	-0.3049927	67.12556	-0.6229992	13.97877	8.799934E-02	0	1	1	0.25	-1	2.799805	-5.330819E-04	13.69488	0.9782146	21.01114	14.93403	0.2417207	3.16025	89.48817
11/10/2014 3:17:06 PM	15:17:06	0	A	1	0	0	0	0	0	0	70.13441	61.64674	61.09116	13.99988	40.02499	69.55061	-0.2949982	66.99083	-0.6529999	13.97852	8.399963E-02	0	1	1	0.25	-1	2.399902	-4.950577E-04	13.70488	0.9789285	20.86145	14.74503	0.2376052	3.106444	87.96456
11/10/2014 3:17:16 PM	15:17:16	0	A	1	0	0	0	-1	0	0	70.04459	61.91619	61.02277	14.001	39.96001	69.55061	-0.3000031	66.99083	-0.6329994	13.97646	8.399963E-02	0	1	1	0.25	-1	2.399902	-5.330819E-04	13.701	0.9785727	20.86145	14.86442	0.2389272	3.123728	88.45398
11/10/2014 3:17:26 PM	15:17:26	0	A	1	0	0	0	-1	0	0	69.86496	62.18564	60.98001	14.00025	40.08	69.5057	-0.3049927	66.94592	-0.6580009	13.97629	8.399963E-02	0	1	1	0.25	-1	2.600098	-5.330819E-04	13.69526	0.9782152	20.8365	14.98367	0.2375634	3.105897	87.94907
11/10/2014 3:17:36 PM	15:17:36	0	A	1	0	0	0	-1	0	0	69.73024	62.41018	60.98001	14.00025	40.08	69.41589	-0.3099976	66.85611	-0.6709995	13.97452	8.399963E-02	0	1	1	0.25	-1	2.600098	-4.950577E-04	13.68525	0.9775002	20.7866	15.04851	0.2375679	3.105956	87.95074
11/10/2014 3:17:46 PM	15:17:46	0	A	1	0	0	0	-1	0	0	69.68533	62.5	60.93723	14.001	40.17999	69.37097	-0.3150024	66.8112	-0.6630001	13.97617	8.399963E-02	0	1	1	0.25	-1	2.600098	-5.330819E-04	13.686	0.9775015	20.76165	14.94946	0.238964	3.124209	88.4676
11/10/2014 3:17:56 PM	15:17:56	0	A	1	0	0	0	-1	0	0	69.64043	62.58982	60.8945	14.00063	40.375	69.32607	-0.3200073	66.90102	-0.7010002	13.97638	8.699989E-02	0	1	1	0.25	-1	2.799805	-5.330819E-04	13.68062	0.9771433	20.7367	15.11815	0.2417496	3.160627	89.49885
11/10/2014 3:18:06 PM	15:18:06	0	A	1	0	0	0	-1	0	0	69.73024	62.18564	60.8945	14.00063	40.375	69.28116	-0.3150024	66.85611	-0.7169991	13.972	8.699989E-02	0	1	1	0.25	-1	3	-4.950577E-04	13.68562	0.9775009	20.71176	14.92461	0.2418014	3.161305	89.51804
11/10/2014 3:18:16 PM	15:18:16	0	A	1	0	0	0	-1	0	0	69.77515	62.00601	60.83463	14.001	40.295	69.05662	-0.3150024	66.90102	-0.7460003	13.97581	8.699989E-02	0	1	1	0.25	-1	2.799805	-5.330819E-04	13.686	0.9775015	20.58701	14.82553	0.2417447	3.160563	89.49704
11/10/2014 3:18:26 PM	15:18:26	0	A	1	0	0	0	-1	0	0	69.64043	61.46711	60.80045	14.001	40.33501	69.0117	-0.3150024	66.85611	-0.6679993	13.97867	8.300018E-02	0	1	1	0.25	-2	2.799805	-1.066164E-03	13.686	0.9775015	20.56206	14.52805	0.2362556	3.088799	87.46491
11/10/2014 3:18:36 PM	15:18:36	0	A	1	0	0	0	-1	0	0	69.64043	61.55692	60.80045	14.001	40.33501	68.83208	-0.3049927	66.8112	-0.6560001	13.97863	8.499908E-02	0	1	1	0.25	-1	3	-5.330819E-04	13.69601	0.9782164	20.46227	14.63662	0.238985	3.124484	88.47538
11/10/2014 3:18:46 PM	15:18:46	0	A	1	0	0	0	-1	0	0	69.59552	61.24257	60.75769	14.001	40.39	68.78716	-0.3049927	66.76629	-0.6609993	13.97689	8.300018E-02	0	1	1	0.25	-1	2.799805	-5.71199E-04	13.69601	0.9782164	20.43731	14.46308	0.2347565	3.069201	86.90993
11/10/2014 3:18:56 PM	15:18:56	0	A	1	0	0	0	-1	0	0	69.41589	61.46711	60.70639	14.00063	40.46001	68.74226	-0.3049927	66.72138	-0.6369991	13.97786	8.499908E-02	0	1	1	0.25	-1	2.799805	-5.71199E-04	13.69563	0.9782158	20.41236	14.58701	0.238998	3.124654	88.4802
11/10/2014 3:19:06 PM	15:19:06	0	A	1	0	0	0	-1	0	0	69.41589	61.51202	60.70639	14.00063	40.46001	68.51772	-0.3099976	66.49684	-0.6030006	13.97359	8.399963E-02	0	1	1	0.25	-1	2.799805	-5.330819E-04	13.69063	0.9778583	20.28762	14.58227	0.237638	3.106874	87.97672
11/10/2014 3:19:16 PM	15:19:16	0	A	1	0	0	0	-1	0	0	69.41589	61.4222	60.65509	14.00212	40.63499	68.38299	-0.3099976	66.49684	-0.6340008	13.97842	8.600044E-02	0	1	1	0.25	-1	3	-5.71199E-04	13.69213	0.9778607	20.21277	14.5329	0.2405321	3.14471	89.04812
11/10/2014 3:19:26 PM	15:19:26	0	A	1	0	0	0	0	0	0	69.5057	61.37729	60.62091	14.00063	40.605	68.33808	-0.3150024	66.58665	-0.6599998	13.97453	8.699989E-02	0	1	1	0.25	-1	2.799805	-5.330819E-04	13.68562	0.9775009	20.18782	14.4784	0.2418829	3.162371	89.54823
11/10/2014 3:19:36 PM	15:19:36	0	A	1	0	0	0	-1	0	0	69.37097	61.33238	60.62091	14.00063	40.605	68.29317	-0.3249969	66.54175	-0.7159996	13.97677	8.200073E-02	0	1	1	0.25	-1	2.799805	-5.330819E-04	13.68062	0.9771433	20.16288	14.42408	0.2348037	3.069817	86.92739
11/10/2014 3:19:46 PM	15:19:46	0	A	1	0	0	0	-1	0	0	69.32607	61.37729	60.57816	14.00138	40.77	68.06863	-0.3300018	66.45193	-0.6879997	13.97723	8.300018E-02	0	1	1	0.25	-1	2.799805	-5.71199E-04	13.67638	0.9767882	20.03813	14.41954	0.2363308	3.089783	87.49276
11/10/2014 3:19:56 PM	15:19:56	0	A	1	0	0	0	-1	0	0	69.28116	61.37729	60.5354	14.00138	41.02499	68.02373	-0.3249969	66.40702	-0.6889992	13.97774	8.699989E-02	0	1	1	0.25	-1	3	-5.71199E-04	13.67137	0.9764308	20.01318	14.39001	0.2418706	3.16221	89.54367
11/10/2014 3:20:06 PM	15:20:06	0	A	1	0	0	0	-1	0	0	69.19134	61.19766	60.5354	14.00138	41.02499	67.97882	-0.3249969	66.36211	-0.7019997	13.97778	8.399963E-02	0	1	1	0.25	-1	3	-5.71199E-04	13.68137	0.9771446	19.98824	14.34982	0.2377356	3.108149	88.01282
11/10/2014 3:20:16 PM	15:20:16	0	A	1	0	0	0	0	0	0	69.05662	61.24257	60.50119	14.00138	41.23	67.84409	-0.3200073	66.36211	-0.6749992	13.97698	8.799934E-02	0	1	1	0.25	-1	3.200195	-5.330819E-04	13.67638	0.9767882	19.91339	14.34518	0.2433027	3.180933	90.07384
11/10/2014 3:20:26 PM	15:20:26	0	A	1	0	0	0	0	0	0	69.05662	61.01802	60.44135	14.00175	41.395	67.79919	-0.3249969	66.31721	-0.6560001	13.97884	8.499908E-02	0	1	1	0.25	-1	3	-5.71199E-04	13.68174	0.9771452	19.88844	14.32507	0.239208	3.127399	88.55792
11/10/2014 3:20:36 PM	15:20:36	0	A	1	0	0	0	-1	0	0	69.19134	61.24257	60.44135	14.00175	41.395	67.66446	-0.3200073	66.31721	-0.6760006	13.97757	8.799934E-02	0	1	1	0.25	-1	3	-5.71199E-04	13.68174	0.9771452	19.81359	14.37468	0.2418891	3.162451	89.5505
11/10/2014 3:20:46 PM	15:20:46	0	A	1	0	0	0	-1	0	0	69.0117	60.92821	60.44135	14.00175	41.62	67.61955	-0.3150024	66.40702	-0.6860008	13.97797	8.600044E-02	0	1	1	0.25	-1	3	-6.093162E-04	13.68174	0.9771452	19.78864	14.20114	0.240548	3.144918	89.05402
11/10/2014 3:20:56 PM	15:20:56	0	A	1	0	0	0	-1	0	0	69.05662	60.83839	60.42422	14.00175	41.78	67.48483	-0.3150024	66.40702	-0.6560001	13.97736	0.0890007	0	1	1	0.25	-1	2.799805	-5.330819E-04	13.68174	0.9771452	19.71379	14.1516	0.2460055	3.216269	91.07446
11/10/2014 3:21:06 PM	15:21:06	0	A	1	0	0	0	-1	0	0	68.92189	60.65876	60.42422	14.00175	41.78	67.26028	-0.3150024	66.31721	-0.6760006	13.97728	8.699989E-02	0	1	1	0.25	-1	2.799805	-5.71199E-04	13.68174	0.9771452	19.58905	14.05245	0.2418866	3.162419	89.54958
11/10/2014 3:21:16 PM	15:21:16	0	A	1	0	0	0	-1	0	0	68.92189	60.97312	60.35583	14.00287	41.875	67.26028	-0.3249969	66.18248	-0.6599998	13.98054	8.499908E-02	0	1	1	0.25	-1	2.600098	-5.330819E-04	13.67287	0.9764333	19.58905	14.16719	0.2391713	3.126919	88.54433
11/10/2014 3:21:26 PM	15:21:26	0	A	1	0	0	0	-1	0	0	68.87698	60.79348	60.34729	14.0025	42.07001	67.26028	-0.3300018	66.18248	-0.6539993	13.97879	8.600044E-02	0	1	1	0.25	-1	2.799805	-5.330819E-04	13.6775	0.9767901	19.58905	14.09748	0.2406045	3.145656	89.07492
11/10/2014 3:21:36 PM	15:21:36	0	A	1	0	0	0	0	0	0	68.69735	60.97312	60.34729	14.0025	42.07001	67.21537	-0.3300018	66.13757	-0.6720009	13.97857	8.600044E-02	0	1	1	0.25	-1	2.799805	-5.330819E-04	13.6775	0.9767901	19.56409	14.19663	0.2392451	3.127883	88.57165
11/10/2014 3:21:46 PM	15:21:46	0	A	1	0	0	0	0	0	0	68.74226	60.92821	60.29599	14.00587	42.215	67.08065	-0.3300018	66.00285	-0.6760006	13.9813	0.0890007	0	1	1	0.25	-1	2.799805	-4.950577E-04	13.67587	0.9764383	19.48925	14.14281	0.2447967	3.200466	90.62695
11/10/2014 3:21:56 PM	15:21:56	0	A	1	0	0	0	0	0	0	68.65244	60.79348	60.24469	14.00363	42.35001	67.03574	-0.3300018	65.95794	-0.6889992	13.97847	8.799934E-02	0	1	1	0.25	-1	2.399902	-5.330819E-04	13.67362	0.9764345	19.4643	14.06815	0.2434375	3.182696	90.12376
11/10/2014 3:22:06 PM	15:22:06	0	A	1	0	0	0	-1	0	0	68.74226	60.70367	60.24469	14.00363	42.35001	67.03574	-0.3350067	66.09267	-0.7010002	13.97847	8.499908E-02	0	1	1	0.25	-2	2.600098	-9.901155E-04	13.66862	0.9760771	19.38945	13.98907	0.239254	3.128	88.57496
11/10/2014 3:22:16 PM	15:22:16	0	A	1	0	0	0	-1	0	0	68.78716	60.74857	60.21906	14.004	42.515	66.85611	-0.3350067	66.04776	-0.6690006	13.97896	0.0890007	0	1	1	0.25	-1	2.600098	-4.950577E-04	13.66401	0.9757215	19.36451	13.98449	0.2447344	3.199651	90.60389
11/10/2014 3:22:26 PM	15:22:26	0	A	1	0	0	0	-1	0	0	68.56262	60.61385	60.18484	14.00438	42.39	66.72138	-0.3450012	65.91303	-0.6389999	13.98013	8.699989E-02	0	1	1	0.25	-1	2.600098	-4.950577E-04	13.65937	0.9753647	19.28966	13.88073	0.2420328	3.16433	89.6037
11/10/2014 3:22:36 PM	15:22:36	0	A	1	0	0	0	0	0	0	68.65244	61.10784	60.18484	14.00438	42.39	66.72138	-0.3500061	65.91303	-0.6280003	13.97637	8.600044E-02	0	1	1	0.25	-1	2.399902	-4.189165E-04	13.64938	0.9746511	19.28966	14.09426	0.2406107	3.145738	89.07723
11/10/2014 3:22:46 PM	15:22:46	0	A	1	0	0	0	-1	0	0	68.42789	60.65876	60.14209	14.00738	42.27499	66.72138	-0.3500061	65.91303	-0.7040005	13.9815	8.799934E-02	0	1	1	0.25	-1	2.600098	-4.950577E-04	13.65737	0.9750127	19.28966	13.87643	0.2435059	3.183589	90.14906
11/10/2014 3:22:56 PM	15:22:56	0	A	1	0	0	0	-1	0	0	68.56262	60.52403	60.09937	14.00438	42	66.63156	-0.3450012	65.86813	-0.7180004	13.97601	8.799934E-02	0	1	1	0.25	-1	2.600098	-4.950577E-04	13.66438	0.9757221	19.23976	13.86066	0.2434042	3.18226	90.11143
11/10/2014 3:23:06 PM	15:23:06	0	A	1	0	0	0	-1	0	0	68.47281	60.65876	60.09937	14.00438	42	66.76629	-0.3399963	65.82322	-0.6679993	13.97987	8.399963E-02	0	1	1	0.25	-1	2.399902	-4.950577E-04	13.66438	0.9757221	19.31461	13.93502	0.2378707	3.109916	88.06286
11/10/2014 3:23:16 PM	15:23:16	0	A	1	0	0	0	-1	0	0	68.47281	61.28748	60.03094	14.00775	41.49001	66.72138	-0.3450012	65.77831	-0.7490005	13.98148	8.699989E-02	0	1	1	0.25	-1	2.600098	-4.950577E-04	13.66275	0.9753707	19.28966	14.25285	0.2420743	3.164873	89.61908
11/10/2014 3:23:26 PM	15:23:26	0	A	1	0	0	0	-1	0	0	68.42789	61.10784	59.98819	14.00887	41.395	66.72138	-0.3549957	65.77831	-0.677	13.98159	0.0890007	0	1	1	0.25	-1	2.799805	-4.569406E-04	13.65887	0.9750154	19.28966	14.12437	0.2448496	3.201157	90.64652
11/10/2014 3:23:36 PM	15:23:36	0	A	1	0	0	0	-1	0	0	68.33808	60.97312	59.98819	14.00887	41.395	66.63156	-0.3549957	65.82322	-0.7290001	13.98347	8.799934E-02	0	1	1	0.25	-1	2.399902	-4.569406E-04	13.65388	0.9746592	19.23976	14.02061	0.243543	3.184075	90.16281
11/10/2014 3:23:46 PM	15:23:46	0	A	1	0	0	0	-1	0	0	68.33808	60.38931	59.92838	14.00587	41.485	66.45193	-0.3500061	65.77831	-0.8500004	13.98217	8.699989E-02	0	1	1	0.25	-1	2.399902	-4.950577E-04	13.66087	0.9753674	19.13996	13.75707	0.2420803	3.164952	89.6213
11/10/2014 3:23:56 PM	15:23:56	0	A	1	0	0	0	-1	0	0	68.33808	60.61385	59.87704	14.0055	41.125	66.58665	-0.3500061	65.64359	-0.7150002	13.98205	0.0909996	0	1	1	0.25	-1	2.399902	-4.950577E-04	13.65549	0.9750094	19.21481	13.85137	0.2502921	3.272312	92.6614
11/10/2014 3:24:06 PM	15:24:06	0	A	1	0	0	0	-1	0	0	68.33808	60.61385	59.87704	14.0055	41.125	66.54175	-0.3549957	65.7334	-0.7460003	13.97471	9.000015E-02	0	1	1	0.25	-1	2.399902	-4.569406E-04	13.65051	0.9746531	19.18986	13.82194	0.2462125	3.218975	91.15107
11/10/2014 3:24:16 PM	15:24:16	0	A	1	0	0	0	-1	0	0	68.20335	60.79348	59.8172	14.00438	41.14	66.63156	-0.3549957	65.68849	-0.7290001	13.97948	0.0890007	0	1	1	0.25	-1	2.399902	-4.569406E-04	13.64938	0.9746511	19.23976	13.92088	0.2448512	3.201178	90.64711
11/10/2014 3:24:26 PM	15:24:26	0	A	1	0	0	0	-1	0	0	68.15845	60.79348	59.79156	14.00625	41.3	66.67648	-0.3500061	65.59867	-0.6630001	13.97896	8.600044E-02	0	1	1	0.25	-1	2.399902	-4.569406E-04	13.65125	0.9746545	19.26471	13.92115	0.2407347	3.147359	89.12312
11/10/2014 3:24:36 PM	15:24:36	0	A	1	0	0	0	-1	0	0	68.11354	60.70367	59.79156	14.00625	41.3	66.63156	-0.3549957	65.55376	-0.6900005	13.97885	8.499908E-02	0	1	1	0.25	-1	2.399902	-4.189165E-04	13.65125	0.9746545	19.23976	13.87158	0.246211	3.218956	91.15054
11/10/2014 3:24:46 PM	15:24:46	0	A	1	0	0	0	-1	0	0	68.38299	60.56894	59.75735	14.007	41.465	66.63156	-0.3450012	65.68849	-0.6970005	13.97852	9.000015E-02	0	1	1	0.25	-1	2.600098	-4.950577E-04	13.65699	0.9750121	19.23976	13.82682	0.2461777	3.21852	91.13819
11/10/2014 3:24:56 PM	15:24:56	0	A	1	0	0	0	-1	0	0	68.20335	60.52403	59.69751	14.00587	41.60001	66.58665	-0.3399963	65.64359	-0.7549992	13.98217	9.000015E-02	0	1	1	0.25	-1	2.399902	-4.569406E-04	13.667	0.9757267	19.21481	13.86103	0.2462515	3.219486	91.16553
11/10/2014 3:25:06 PM	15:25:06	0	A	1	0	0	0	-1	0	0	68.24826	60.03004	59.69751	14.00587	41.60001	66.63156	-0.3399963	65.68849	-0.7240009	13.98206	8.799934E-02	0	1	1	0.25	-1	2.399902	-4.950577E-04	13.66588	0.9757248	19.23976	13.58834	0.2392925	3.128504	88.58923
11/10/2014 3:25:16 PM	15:25:16	0	A	1	0	0	0	-1	0	0	68.24826	60.3444	59.6633	14.00587	41.69	66.72138	-0.3350067	65.50886	-0.698	13.97657	8.799934E-02	0	1	1	0.25	-1	2.399902	-4.569406E-04	13.67087	0.976081	19.28966	13.79115	0.2434892	3.183372	90.14289
11/10/2014 3:25:26 PM	15:25:26	0	A	1	0	0	0	-1	0	0	68.15845	59.98513	59.612	14.00813	41.64	66.63156	-0.3300018	65.55376	-0.8999996	13.98304	9.000015E-02	0	1	1	0.25	-1	2.600098	-4.950577E-04	13.68313	0.9767994	19.23976	13.65212	0.2477168	3.238643	91.70801
11/10/2014 3:25:36 PM	15:25:36	0	A	1	0	0	0	-1	0	0	68.11354	59.85041	59.612	14.00813	41.64	66.72138	-0.3200073	65.64359	-0.8320007	13.98919	9.000015E-02	0	1	1	0.25	-1	2.399902	-4.569406E-04	13.68313	0.9767994	19.28966	13.57776	0.2463764	3.221119	91.21178
11/10/2014 3:25:46 PM	15:25:46	0	A	1	0	0	0	-1	0	0	67.84409	59.62587	59.56924	14.0085	41.23	66.63156	-0.3200073	65.55376	-0.6560001	13.98457	9.000015E-02	0	1	1	0.25	-1	2.600098	-4.569406E-04	13.68849	0.9771562	19.23976	13.48323	0.242183	3.166295	89.65933
11/10/2014 3:25:56 PM	15:25:56	0	A	1	0	0	0	0	0	0	68.06863	59.53605	59.47519	14.01075	40.92999	66.72138	-0.3200073	65.50886	-0.7360001	13.98585	8.600044E-02	0	1	1	0.25	-1	2.799805	-4.950577E-04	13.69575	0.9775171	19.28966	13.46332	0.2407656	3.147764	89.13459
11/10/2014 3:26:06 PM	15:26:06	0	A	1	0	0	0	-1	0	0	68.11354	59.35641	59.47519	14.01075	40.92999	66.63156	-0.3200073	65.55376	-0.6749992	13.9814	8.600044E-02	0	1	1	0.25	-1	2.600098	-4.950577E-04	13.69575	0.9775171	19.23976	13.36417	0.2407978	3.148185	89.14651
11/10/2014 3:26:16 PM	15:26:16	0	A	1	0	0	0	0	0	0	67.93391	59.40133	59.41537	14.00887	40.94501	66.63156	-0.3150024	65.55376	-0.4619999	13.98094	9.000015E-02	0	1	1	0.25	-1	2.600098	-4.950577E-04	13.68887	0.9771568	19.23976	13.35932	0.2476668	3.237989	91.68948
11/10/2014 3:26:26 PM	15:26:26	0	A	1	0	0	0	0	0	0	67.97882	58.86242	59.34695	14.01075	40.77499	66.54175	-0.3150024	65.46395	-0.7329998	13.9891	9.199905E-02	0	1	1	0.25	-1	2.600098	-4.950577E-04	13.69575	0.9775171	19.18986	13.09145	0.2491426	3.257284	92.23586
11/10/2014 3:26:36 PM	15:26:36	0	A	1	0	0	0	-1	0	0	67.889	59.04206	59.34695	14.01075	40.77499	66.63156	-0.3049927	65.41904	-0.7119999	13.98365	9.199905E-02	0	1	1	0.25	-1	2.799805	-4.950577E-04	13.70075	0.9778743	19.23976	13.22	0.2490418	3.255965	92.19852
11/10/2014 3:26:46 PM	15:26:46	0	A	1	0	0	0	-1	0	0	67.61955	58.81752	59.24435	14.00887	40.535	66.40702	-0.3049927	65.32922	-0.6730003	13.98264	9.600067E-02	0	1	1	0.25	-1	2.600098	-4.569406E-04	13.69888	0.9778714	19.11501	13.09579	0.2544241	3.326334	94.19112
11/10/2014 3:26:56 PM	15:26:56	0	A	1	10	14.28572	7302.857	11	14.28572	5000	67.889	59.08696	59.15884	14.00775	40.69501	66.49684	0.6450043	65.28432	-0.7040005	13.98047	0.0890007	0	1	1	0.25	-1	3	-5.71199E-04	14.64275	1.045332	19.16491	18.65562	0.2449506	3.202478	90.68393
11/10/2014 3:27:06 PM	15:27:06	0	A	1	26	38.57143	19717.71	26	37.14286	13000	1135.81	58.95224	59.15884	14.00775	40.69501	66.45193	6.320007	65.23941	-0.6389999	13.97823	0.0909996	0	1	1	0.25	344	6	0.3929849	20.01775	1.429048	19.13996	45.32914	0.2476827	3.238197	91.69537
11/10/2014 3:27:16 PM	15:27:16	0	A	1	39	55.71429	28481.14	38	54.28572	19000	1050.379	58.7277	59.06479	14.0085	40.88499	66.27229	15.61501	65.1945	-0.7269993	13.98093	0.0890007	0	1	1	0.25	1355	22.6001	5.778986	29.3685	2.096477	19.04016	81.33089	0.2449748	3.202795	90.69289
11/10/2014 3:27:26 PM	15:27:26	0	A	1	42	60	30672	25	37.14286	13000	972.1298	58.54807	58.9964	14.01037	40.71001	65.95794	17.27	65.28432	-0.6380005	13.98909	0.0890007	0	1	1	0.25	2248	37.7998	16.17901	31.03537	2.215171	18.86552	86.72596	0.2450897	3.204297	90.73543
11/10/2014 3:27:36 PM	15:27:36	0	A	1	42	60	30672	29	41.42857	14500	968.2427	58.50316	58.9964	14.01037	40.71001	65.91303	17.23	65.23941	-0.6900005	13.98388	8.600044E-02	0	1	1	0.25	2521	38.7998	18.52795	31.13037	2.221951	18.84057	87.0035	0.2408887	3.149372	89.18014
11/10/2014 3:27:46 PM	15:27:46	0	A	1	42	60	30672	31	44.28571	15500	965.1161	58.32352	58.91089	14.01225	40.8	65.95794	17.66499	65.14959	-0.7660007	13.98507	0.0890007	0	1	1	0.25	2640	42	21.11152	31.55725	2.252119	18.86552	88.24346	0.2408384	3.148715	89.16151
11/10/2014 3:27:56 PM	15:27:56	0	A	1	45	64.28571	32862.86	32	47.14286	16500	980.4954	58.68279	58.79977	14.01563	40.89	66.49684	20.64999	65.14959	-0.6539993	13.99177	8.600044E-02	0	1	1	0.25	2802	44.7998	23.79415	34.73062	2.477993	19.16491	98.32346	0.2464322	3.221848	91.23241
11/10/2014 3:28:06 PM	15:28:06	0	A	1	49	70	35784	39	55.71429	19500	986.7063	58.23371	58.79977	14.01563	40.89	67.12556	25.31	65.10468	-0.7900009	13.98773	9.300041E-02	0	1	1	0.25	3425	52.3999	34.30151	39.51062	2.819041	19.5142	111.6756	0.2395342	3.131663	88.67868
11/10/2014 3:28:16 PM	15:28:16	0	A	1	49	70	35784	43	61.42857	21500	980.1575	58.27861	58.72281	14.01375	41.02	68.06863	25.66	65.05978	-0.8069992	13.99004	0.0890007	0	1	1	0.25	3817	56.3999	41.13444	39.87375	2.845331	20.03813	112.7126	0.2450694	3.204031	90.72791
11/10/2014 3:28:26 PM	15:28:26	0	A	1	49	70	35784	45	64.28571	22500	970.6087	57.91935	58.62021	14.01075	40.92999	68.69735	25.48	64.92505	-0.6520004	13.98625	8.399963E-02	0	1	1	0.25	3908	57.7998	43.00779	39.73075	2.835733	20.38742	112.0796	0.2380722	3.11255	88.13745
11/10/2014 3:28:36 PM	15:28:36	0	A	1	51	72.85714	37244.57	47	67.14285	23500	975.0451	57.91935	58.62021	14.01075	40.92999	69.32607	30.075	65.01486	-0.7590008	13.98227	8.499908E-02	0	1	1	0.25	4076	61	47.34021	43.92075	3.13479	20.7367	123.0703	0.2394422	3.130461	88.64463
11/10/2014 3:28:46 PM	15:28:46	0	A	1	53	75.71429	38705.14	52	75.71429	26500	1002.762	57.78462	58.50903	14.01375	41.00999	71.1673	31.13	64.96996	-0.8150005	13.99044	8.799934E-02	0	1	1	0.25	4557	68.2002	58.65332	45.17375	3.223531	21.75961	126.0819	0.2437468	3.18674	90.23827
11/10/2014 3:28:56 PM	15:28:56	0	A	1	54	75.71429	38705.14	56	80	28000	999.4239	57.87444	58.38937	14.01225	41.065	72.7391	31.85001	65.05978	-0.6550007	13.98374	8.600044E-02	0	1	1	0.25	4858	66.7998	61.60254	46.34225	3.307267	22.63283	129.0347	0.240927	3.149873	89.19433
11/10/2014 3:29:06 PM	15:29:06	0	A	1	54	77.14286	39435.43	58	82.85715	29000	995.0298	57.87444	58.38937	14.01225	41.065	74.62525	32.96001	64.79032	-0.5319996	13.99183	0.0909996	0	1	1	0.25	5027	67.3999	64.7027	47.23225	3.370783	23.45616	131.187	0.2492431	3.258598	92.27306
11/10/2014 3:29:16 PM	15:29:16	0	A	1	54	77.14286	39435.43	60	87.14285	30500	992.4947	58.05407	58.3295	14.01525	41.405	76.4934	33.92	64.79032	-0.5909996	13.99414	0.0890007	0	1	1	0.25	5210	70.7998	69.63735	48.21525	3.440199	24.71856	133.6473	0.2451978	3.20571	90.77544
11/10/2014 3:29:26 PM	15:29:26	0	A	1	55	77.14286	39435.43	61	87.14285	30500	983.6643	57.87444	58.23544	14.01037	41.60001	78.3003	33.58501	64.74541	-0.8129997	13.97814	8.799934E-02	0	1	1	0.25	5337	68	68.28635	47.62538	3.399294	25.72239	132.1437	0.2491154	3.256928	92.22579
11/10/2014 3:29:36 PM	15:29:36	0	A	1	54	77.14286	39435.43	62	90	31500	974.2	58.14389	58.23544	14.01037	41.60001	80.23941	34.345	64.70051	-0.7740002	13.9875	8.699989E-02	0	1	1	0.25	5388	73.2002	74.27314	48.46037	3.458892	26.79967	134.337	0.2409585	3.150285	89.20599
11/10/2014 3:29:46 PM	15:29:46	0	A	1	55	78.57143	40165.71	63	90	31500	987.3823	57.96426	58.1243	14.01525	41.71001	82.17851	34.89999	64.65559	-0.7199993	13.98511	8.799934E-02	0	1	1	0.25	5431	70.7998	73.62532	49.47526	3.530101	27.87695	136.5314	0.2367379	3.095106	87.64349
11/10/2014 3:29:56 PM	15:29:56	0	A	1	55	78.57143	40165.71	63	90	31500	966.7639	57.82953	58.04736	14.01262	41.71001	83.58878	34.8	64.61069	-0.8050003	13.98999	9.600067E-02	0	1	1	0.25	5457	70	73.97778	48.81525	3.48301	28.66043	134.8844	0.246617	3.224265	91.30086
11/10/2014 3:30:06 PM	15:30:06	0	A	1	55	78.57143	40165.71	63	90	31500	978.0449	57.87444	58.04736	14.01262	41.71001	85.6601	34.355	64.70051	-0.7000008	13.98863	8.499908E-02	0	1	1	0.25	5463	72	74.26685	47.95263	3.422102	29.81116	132.7639	0.247882	3.240803	91.76918
11/10/2014 3:30:16 PM	15:30:16	0	A	1	56	80	40896	64	91.42857	32000	970.2285	57.60499	57.95331	14.013	41.96001	86.89407	35.73	64.61069	-0.7259998	13.98738	0.0909996	0	1	1	0.25	5497	74.7998	77.86893	50.203	3.582602	30.49671	137.9463	0.2546962	3.329892	94.29189
11/10/2014 3:30:26 PM	15:30:26	0	A	1	54	77.14286	39435.43	63	90	31500	957.9756	57.20082	57.8678	14.01075	42.09	87.86362	34.86	64.52087	-0.809	13.99033	0.0909996	0	1	1	0.25	5488	73.6001	76.90573	48.77074	3.480952	31.03535	134.321	0.2479695	3.241946	91.80154
11/10/2014 3:30:36 PM	15:30:36	0	A	1	55	78.57143	40165.71	65	92.85714	32500	966.9329	57.33554	57.8678	14.01075	42.09	88.74504	35.13499	64.61069	-0.8330002	13.97479	8.600044E-02	0	1	1	0.25	5653	74.3999	80.72469	48.96575	3.49487	31.52502	134.8838	0.2558217	3.344607	94.70856
11/10/2014 3:30:46 PM	15:30:46	0	A	1	56	80	40896	65	92.85714	32500	966.4259	57.20082	57.79083	14.01075	42.12	89.22981	35.66	64.56578	-0.7399998	13.9848	8.200073E-02	0	1	1	0.25	5626	74.2002	79.48241	49.59576	3.539836	31.79434	136.2433	0.2353631	3.077131	87.13449
11/10/2014 3:30:56 PM	15:30:56	0	A	1	55	80	40896	64	91.42857	32000	964.8626	57.38045	57.7139	14.01563	42.14999	89.93494	35.825	64.34124	-0.6889992	13.98527	8.499908E-02	0	1	1	0.25	5614	75	80.16779	50.30074	3.590153	32.18608	138.0107	0.2520361	3.295113	93.30706
11/10/2014 3:31:06 PM	15:31:06	0	A	1	56	80	40896	65	92.85714	32500	971.9608	57.111	57.7139	14.01563	42.14999	91.38927	37.16499	64.34124	-0.7129993	13.98765	8.399963E-02	0	1	1	0.25	5605	82	87.08281	51.13562	3.648472	32.99404	139.6585	0.2382119	3.114376	88.18916
11/10/2014 3:31:16 PM	15:31:16	0	A	1	57	81.42857	41626.28	65	92.85714	32500	989.7061	57.29063	57.62839	14.01225	42.33	92.84361	38.23	64.20652	8.536999	14.3194	10.205	1	1	1	0.25	5594	90.7998	95.43269	52.33725	3.735107	33.80201	142.5301	2.620561	34.26115	970.166
11/10/2014 3:31:26 PM	15:31:26	0	A	1	57	81.42857	41626.28	65	92.85714	32500	1020.761	57.15591	57.55145	14.0145	42.605	294.3735	38.52	64.34124	7.797001	14.30058	9.487	1	1	1	0.25	5592	89.7998	95.6112	52.2345	3.727175	145.7631	142.174	2.527199	33.04053	935.6022
11/10/2014 3:31:36 PM	15:31:36	0	A	1	57	81.42857	41626.28	64	91.42857	32000	1017.465	57.02118	57.55145	14.0145	42.605	316.0891	38.5	64.16161	7.693001	14.29415	9.248001	1	1	1	0.25	5587	90.6001	96.80244	52.70951	3.76107	157.8273	143.1217	2.495855	32.63074	923.9982
11/10/2014 3:31:46 PM	15:31:46	0	A	1	57	81.42857	41626.28	64	91.42857	32000	1019.324	56.48228	57.4574	14.013	42.605	322.7157	38.435	64.07179	7.463001	14.28434	8.980999	1	1	1	0.25	5584	90	96.53761	52.763	3.765289	161.5087	142.8183	2.464626	32.22246	912.4369
11/10/2014 3:31:56 PM	15:31:56	0	A	1	57	81.42857	41626.28	64	91.42857	32000	1018.564	56.88646	57.38901	14.01412	42.625	327.3275	38.78999	63.71252	7.476002	14.28658	9.009998	1	1	1	0.25	5583	88.7998	95.67013	52.72301	3.762435	164.0708	143.0555	2.464743	32.22398	912.4801
11/10/2014 3:32:06 PM	15:32:06	0	A	1	57	81.42857	41626.28	64	91.42857	32000	1020.338	56.79664	57.38901	14.01412	42.625	330.7751	38.52499	63.66762	7.383999	14.28055	8.833	1	1	1	0.25	5587	91	95.95164	52.34412	3.735098	165.9862	142.1326	2.440589	31.9082	903.5382
11/10/2014 3:32:16 PM	15:32:16	0	A	1	57	81.42857	41626.28	64	91.42857	32000	1020.254	56.97627	57.29495	14.01188	42.84	334.0437	38.185	63.53289	7.183998	14.26854	8.668999	1	1	1	0.25	5585	91	96.12964	52.63187	3.756233	167.8021	142.9352	2.41534	31.57809	894.1906
11/10/2014 3:32:26 PM	15:32:26	0	A	1	57	81.42857	41626.28	64	91.42857	32000	1014.55	56.84155	57.20944	14.01375	43.02	336.3272	38.345	63.44307	7.463001	14.27858	8.738998	1	1	1	0.25	5584	89.3999	95.9001	52.75375	3.764429	169.0707	143.0812	2.428246	31.74683	898.9685
11/10/2014 3:32:36 PM	15:32:36	0	A	1	57	81.42857	41626.28	64	91.42857	32000	1014.972	56.66191	57.20944	14.01375	43.02	338.3476	38.705	63.44307	7.256001	14.26958	8.708	1	1	1	0.25	5577	89.2002	95.5673	52.46375	3.743734	170.1931	142.2934	2.423248	31.68148	897.1182
11/10/2014 3:32:46 PM	15:32:46	0	A	1	57	81.42857	41626.28	64	91.42857	32000	1016.789	56.61701	57.11539	14.01563	43.105	340.6437	38.535	63.5778	7.141998	14.27232	8.685001	1	1	1	0.25	5579	89	94.32669	52.27063	3.729454	171.4688	141.8121	2.420867	31.65034	896.2365
11/10/2014 3:32:56 PM	15:32:56	0	A	1	57	81.42857	41626.28	64	91.42857	32000	1016.029	56.97627	57.11539	14.01563	43.105	342.0845	38.52	63.53289	7.087002	14.27467	8.626999	1	1	1	0.25	5581	92.7998	97.12341	52.68562	3.759063	172.2692	143.0232	2.412467	31.54053	893.1267
11/10/2014 3:33:06 PM	15:33:06	0	A	1	57	81.42857	41626.28	64	91.42857	32000	1017.127	56.52719	57.00424	14.016	43.16499	343.3902	38.55	63.48798	7.077	14.27234	8.563999	1	1	1	0.25	5578	91.3999	97.28383	52.01099	3.71083	173.0696	141.1575	2.404027	31.43018	890.0022
11/10/2014 3:33:16 PM	15:33:16	0	A	1	57	81.42857	41626.28	64	91.42857	32000	1016.324	56.66191	56.92731	14.01488	43.34	344.6958	38.58	63.5778	6.945	14.2642	8.438	1	1	1	0.25	5577	91.3999	96.62916	52.31488	3.732811	173.7199	141.9529	2.38552	31.18822	883.1506
11/10/2014 3:33:26 PM	15:33:26	0	A	1	57	81.42857	41626.28	64	92.85714	32500	1017.423	56.61701	56.88455	14.01225	43.46001	345.056	38.44501	63.53289	7.075001	14.26497	8.567001	1	1	1	0.25	5575	91	96.38202	52.56225	3.751165	173.92	142.4884	2.404797	31.44025	890.2874
11/10/2014 3:33:36 PM	15:33:36	0	A	1	57	81.42857	41626.28	64	91.42857	32000	1015.099	56.61701	56.88455	14.01225	43.46001	345.9565	38.435	63.48798	6.936001	14.26548	8.436001	1	1	1	0.25	5574	90.7998	96.57719	52.32725	3.734394	174.4203	141.9662	2.385566	31.18883	883.1678
11/10/2014 3:33:46 PM	15:33:46	0	A	1	57	81.42857	41626.28	65	92.85714	32500	1015.015	56.70683	56.79904	14.0145	43.64999	347.5773	38.85001	63.48798	7.028999	14.26831	8.431	1	1	1	0.25	5612	90.3999	97.4495	52.7695	3.765351	175.3208	143.0012	2.381653	31.13767	881.7192
11/10/2014 3:33:56 PM	15:33:56	0	A	1	58	82.85715	42356.57	64	91.42857	32000	1030.69	56.79664	56.7392	14.01713	43.83	353.0702	39.95	63.30835	7.263	14.28666	8.827	1	1	1	0.25	5605	100.7998	107.7862	54.23212	3.86899	178.3723	146.2567	2.443587	31.94739	904.6478
11/10/2014 3:34:06 PM	15:34:06	0	A	1	59	84.28571	43086.86	64	91.42857	32000	1051.562	56.88646	56.7392	14.01713	43.83	364.6862	42.19	63.30835	7.973999	14.30693	9.623001	1	1	1	0.25	5586	109.2002	116.3547	56.15713	4.006322	184.8257	150.3077	2.542189	33.23652	941.1519
11/10/2014 3:34:16 PM	15:34:16	0	A	1	59	84.28571	43086.86	65	92.85714	32500	1054.435	56.75173	56.69644	14.013	43.96001	367.7478	41.92	63.39816	7.814999	14.29312	9.380001	1	1	1	0.25	5592	112.3999	118.3965	55.77299	3.980089	186.5266	149.5646	2.507034	32.77689	928.1366
11/10/2014 3:34:26 PM	15:34:26	0	A	1	59	84.28571	43086.86	64	91.42857	32000	1055.238	56.52719	56.64517	14.01375	44.16499	370.134	42.38	63.35326	8.084999	14.30312	9.464001	1	1	1	0.25	5587	110	116.1631	56.42874	4.02667	187.8522	150.7625	2.526839	33.03584	935.4691
11/10/2014 3:34:36 PM	15:34:36	0	A	1	59	84.28571	43086.86	65	92.85714	32500	1053.167	56.66191	56.64517	14.01375	44.16499	371.4397	42.33501	63.30835	8.012001	14.30229	9.471001	1	1	1	0.25	5582	111.3999	118.397	56.33376	4.019892	188.5776	150.6727	2.534783	33.13968	938.4097
11/10/2014 3:34:46 PM	15:34:46	0	A	1	58	84.28571	43086.86	65	92.85714	32500	1056.632	56.39246	56.57675	14.01337	44.27	372.1151	42.185	63.30835	7.817001	14.29707	9.451	1	1	1	0.25	5583	112.7998	119.0562	56.45338	4.028535	188.9528	150.7069	2.52392	32.99766	934.3882
11/10/2014 3:34:56 PM	15:34:56	0	A	1	59	84.28571	43086.86	64	91.42857	32000	1054.604	56.48228	56.49979	14.0145	44.27499	373.5108	41.87	63.26344	7.75	14.29917	9.368	1	1	1	0.25	5585	112.3999	118.8859	55.66449	3.971922	189.7282	149.1006	2.514188	32.87042	930.7852
11/10/2014 3:35:06 PM	15:35:06	0	A	1	60	85.71429	43817.14	65	91.42857	32000	1083.461	56.25774	56.49979	14.0145	44.27499	378.5084	43.97	63.21853	8.27	14.31298	9.860001	1	1	1	0.25	5586	121.2002	128.267	58.1695	4.150665	192.5047	154.162	2.578974	33.71745	954.7701
11/10/2014 3:35:16 PM	15:35:16	0	A	1	61	87.14285	44547.43	64	91.42857	32000	1100.911	56.34756	56.45703	14.01488	44.38	384.3164	45.61	63.35326	8.839001	14.33207	10.428	1	1	1	0.25	5573	131	139.4281	59.67987	4.258323	195.7313	157.3181	2.651582	34.66672	981.6505
11/10/2014 3:35:26 PM	15:35:26	0	A	1	62	87.14285	44547.43	65	91.42857	32000	1106.826	56.12302	56.39719	14.013	44.5	388.3685	47.325	63.35326	9.126999	14.34183	10.765	1	1	1	0.25	5559	135.6001	144.5819	60.51488	4.317904	197.9825	158.8115	2.693758	35.21813	997.2646
11/10/2014 3:35:36 PM	15:35:36	0	A	1	61	87.14285	44547.43	64	91.42857	32000	1118.698	56.16792	56.39719	14.013	44.5	392.5107	46.58501	63.44307	8.924	14.32792	10.574	1	1	1	0.25	5560	136.2002	145.0312	60.86301	4.343324	200.2837	159.5612	2.668903	34.89317	988.063
11/10/2014 3:35:46 PM	15:35:46	0	A	1	61	87.14285	44547.43	64	91.42857	32000	1112.023	55.89848	56.37155	14.01488	44.505	394.6267	46.34	63.39816	8.882999	14.32853	10.571	1	1	1	0.25	5560	136.3999	144.8193	60.41487	4.310768	201.4593	158.4231	2.667968	34.88094	987.7166
11/10/2014 3:35:56 PM	15:35:56	0	A	1	61	87.14285	44547.43	64	91.42857	32000	1116.333	56.16792	56.32025	14.0145	44.64	395.8423	46.215	63.53289	8.801998	14.33343	10.552	1	1	1	0.25	5561	137.7998	146.3281	59.8545	4.270898	202.1346	157.5244	2.666504	34.86181	987.1749
11/10/2014 3:36:06 PM	15:36:06	0	A	1	61	87.14285	44547.43	64	91.42857	32000	1126.092	56.07811	56.32025	14.0145	44.64	398.3637	46.92999	63.48798	9.097	14.33423	10.795	1	1	1	0.25	5552	139	146.7251	60.8745	4.34368	203.5354	159.4958	2.696302	35.25138	998.2063
11/10/2014 3:36:16 PM	15:36:16	0	A	1	62	88.57143	45277.71	64	91.42857	32000	1138.403	56.07811	56.26895	14.01937	44.83501	400.4798	47.99001	63.5778	9.275002	14.35602	11.002	1	1	1	0.25	5548	145.7998	153.8028	62.06437	4.427043	204.2608	161.8095	2.720261	35.56462	1007.076
11/10/2014 3:36:26 PM	15:36:26	0	A	1	62	88.57143	45277.71	64	91.42857	32000	1138.999	56.16792	56.26895	14.01937	44.83501	403.2712	48.09	63.53289	9.221001	14.35374	10.977	1	1	1	0.25	5545	145.3999	153.5083	62.06437	4.427043	206.2618	161.8853	2.7186	35.5429	1006.461
11/10/2014 3:36:36 PM	15:36:36	0	A	1	62	88.57143	45277.71	63	91.42857	32000	1136.108	56.25774	56.21765	14.01675	44.94501	404.3518	47.72	63.66762	9.214001	14.35195	10.982	1	1	1	0.25	5544	146.6001	153.9027	62.57174	4.464069	206.8621	162.979	2.720109	35.56263	1007.02
11/10/2014 3:36:46 PM	15:36:46	0	A	1	62	88.57143	45277.71	64	91.42857	32000	1148.564	56.07811	56.16635	14.01375	45.07001	407.2783	48.53999	63.62271	9.292999	14.3557	11.195	1	1	1	0.25	5535	150.7998	158.2903	62.96375	4.492998	208.4879	163.618	2.751375	35.97141	1018.595
11/10/2014 3:36:56 PM	15:36:56	0	A	1	63	88.57143	45277.71	63	90	31500	1150.137	55.94338	56.1236	14.01563	45.205	408.4489	48.965	63.71252	9.365002	14.35523	11.163	1	1	1	0.25	5533	154.6001	162.2361	62.38562	4.451148	209.1383	162.359	2.742894	35.86052	1015.455
11/10/2014 3:37:06 PM	15:37:06	0	A	1	62	88.57143	45277.71	64	91.42857	32000	1163.486	55.76375	56.1236	14.01563	45.205	410.8802	49.11501	63.71252	9.640999	14.36466	11.421	1	1	1	0.25	5526	157.2002	165.6081	64.40562	4.595273	210.489	166.1172	2.773386	36.25917	1026.744
11/10/2014 3:37:16 PM	15:37:16	0	A	1	63	90	46008	63	90	31500	1164.082	55.98829	56.06375	14.01412	45.315	412.7711	49.61501	63.71252	9.633999	14.36652	11.364	1	1	1	0.25	5524	156.2002	163.6552	63.37913	4.522518	211.5395	164.3451	2.772982	36.2539	1026.594
11/10/2014 3:37:26 PM	15:37:26	0	A	1	62	90	46008	64	91.42857	32000	1161.488	55.80866	56.06375	14.01412	45.315	413.0413	48.535	63.71252	9.560001	14.36251	11.298	1	1	1	0.25	5525	155.3999	163.0535	63.87412	4.557839	211.6896	165.1484	2.758672	36.0668	1021.296
11/10/2014 3:37:36 PM	15:37:36	0	A	1	62	88.57143	45277.71	64	91.42857	32000	1162.211	55.85357	56.04663	14.01488	45.39	413.4465	49.42999	63.84725	9.438	14.36102	11.332	1	3	1	0.25	5528	157.6001	164.4053	63.35487	4.520545	211.9147	164.1772	2.762186	36.11274	1022.597
11/10/2014 3:37:46 PM	15:37:46	0	A	1	63	90	46008	63	91.42857	32000	1162.764	55.85357	56.021	14.01375	45.45	413.7166	49.87	63.84725	9.543999	14.36196	11.346	1	3	1	0.25	5524	155.6001	162.8134	63.73875	4.548301	212.0648	164.929	2.762401	36.11556	1022.677
11/10/2014 3:37:56 PM	15:37:56	0	A	1	63	90	46008	63	90	31500	1163.699	55.85357	55.97824	14.01488	45.52499	413.9868	49.72501	63.98197	9.365002	14.36319	11.269	1	3	1	0.25	5522	155	161.7031	63.28987	4.515907	212.2149	164.0513	2.754605	36.01363	1019.791
11/10/2014 3:38:06 PM	15:38:06	0	A	1	63	90	46008	63	90	31500	1161.531	55.80866	55.97824	14.01488	45.52499	414.2569	49.655	63.98197	9.561001	14.36333	11.376	1	3	1	0.25	5518	157.2002	164.7379	63.31488	4.517691	212.365	164.0617	2.76725	36.17895	1024.472
11/10/2014 3:38:16 PM	15:38:16	0	A	1	63	90	46008	64	91.42857	32000	1167.015	56.48228	55.9184	14.01788	45.66	416.0128	49.32001	64.1167	9.436001	14.36203	11.289	1	3	1	0.25	5522	155.3999	163.3854	63.60787	4.537626	213.3405	165.1741	2.757677	36.0538	1020.928
11/10/2014 3:38:26 PM	15:38:26	0	A	1	63	90	46008	64	91.42857	32000	1174.54	56.07811	55.9184	14.01788	45.66	416.418	50.11501	64.38615	9.799999	14.3715	11.511	1	3	1	0.25	5509	161.2002	169.0848	64.29287	4.586492	213.5656	166.1492	2.78283	36.38265	1030.24
11/10/2014 3:38:36 PM	15:38:36	0	A	1	63	90	46008	64	91.42857	32000	1175.008	55.98829	55.90985	14.02538	45.745	418.309	50.24001	64.38615	9.907001	14.37651	11.704	1	3	1	0.25	5511	161.2002	168.3064	63.68538	4.540725	214.6161	164.8386	2.802559	36.64059	1037.544
11/10/2014 3:38:46 PM	15:38:46	0	A	1	63	90	46008	64	91.42857	32000	1174.71	55.80866	55.88419	14.01675	45.86501	418.4441	50.075	64.65559	9.800999	14.37522	11.591	1	3	1	0.25	5511	162	169.7754	64.75676	4.619955	214.6912	166.8162	2.791827	36.50027	1033.571
11/10/2014 3:38:56 PM	15:38:56	0	A	1	63	90	46008	63	90	31500	1175.773	55.89848	55.85001	14.01525	45.785	417.8588	50.425	64.61069	9.786999	14.36702	11.538	1	3	1	0.25	5509	159	166.777	64.82675	4.624949	214.366	167.0263	2.786816	36.43475	1031.716
11/10/2014 3:39:06 PM	15:39:06	0	A	1	63	90	46008	63	90	31500	1187.634	55.80866	55.85001	14.01525	45.785	420.0199	51.16499	64.61069	10.096	14.37296	11.877	1	3	1	0.25	5495	164.6001	173.2585	65.70025	4.687769	215.5666	168.6187	2.822288	36.89853	1044.848
11/10/2014 3:39:16 PM	15:39:16	0	A	1	63	90	46008	64	91.42857	32000	1188.017	55.71884	55.82437	14.01825	45.92999	421.3256	50.64	64.56578	9.933998	14.37958	11.816	1	3	1	0.25	5498	164.6001	172.0967	64.97325	4.634904	216.292	167.1384	2.817321	36.83358	1043.009
11/10/2014 3:39:26 PM	15:39:26	0	A	1	64	91.42857	46738.29	63	90	31500	1198.56	55.80866	55.79016	14.0175	45.845	423.6218	51.95	64.70051	10.256	14.39281	12.097	1	3	1	0.25	5487	171.2002	178.4385	65.8325	4.696451	217.5677	168.8481	2.851773	37.284	1055.764
11/10/2014 3:39:36 PM	15:39:36	0	A	1	64	91.42857	46738.29	63	90	31500	1202.301	55.85357	55.79016	14.0175	45.845	424.7023	52.245	64.70051	10.005	14.37796	11.779	1	3	1	0.25	5482	170.3999	177.8585	65.2175	4.652577	218.168	167.724	2.813793	36.78746	1041.703
11/10/2014 3:39:46 PM	15:39:46	0	A	1	64	91.42857	46738.29	63	90	31500	1202.046	55.4943	55.75595	14.01788	45.95	424.3871	51.965	64.79032	10.241	14.38773	12.015	1	3	1	0.25	5485	171.6001	178.5825	65.62788	4.681728	217.9929	168.1895	2.838686	37.1129	1050.919
11/10/2014 3:39:56 PM	15:39:56	0	A	1	64	91.42857	46738.29	63	90	31500	1200.983	55.71884	55.73883	14.01788	45.95	424.6573	51.13	64.65559	10.09	14.38354	11.952	1	3	1	0.25	5481	169.6001	178.0349	65.53288	4.674951	218.1429	168.2025	2.832438	37.03122	1048.606
11/10/2014 3:40:06 PM	15:40:06	0	A	1	64	91.42857	46738.29	63	90	31500	1200.601	55.44939	55.73883	14.01975	45.96001	424.6123	51.37	64.61069	10.05	14.38931	12.048	1	3	1	0.25	5480	170.6001	178.2108	65.45474	4.668753	218.1179	167.8075	2.8463	37.21246	1053.738
11/10/2014 3:40:16 PM	15:40:16	0	A	1	64	91.42857	46738.29	63	90	31500	1197.072	55.67393	55.73029	14.01638	45.97	424.8824	50.825	64.74541	10.041	14.37839	11.861	1	3	1	0.25	5476	170.7998	177.4556	64.77637	4.621478	218.268	166.7418	2.825008	36.93409	1045.855
11/10/2014 3:40:26 PM	15:40:26	0	A	1	64	91.42857	46738.29	63	90	31500	1204.512	55.71884	55.73029	14.01638	45.97	426.4582	51.855	64.70051	10.168	14.37998	12.043	1	3	1	0.25	5470	175	181.0101	65.81638	4.695677	219.1435	168.7506	2.844303	37.18635	1052.998
11/10/2014 3:40:36 PM	15:40:36	0	A	1	64	91.42857	46738.29	63	90	31500	1209.996	55.94338	55.68756	14.01937	46.00999	427.0886	52.245	64.65559	10.14	14.388	12.002	1	3	1	0.25	5463	174	180.9867	65.75938	4.690608	219.4937	168.8092	2.840565	37.13747	1051.614
11/10/2014 3:40:46 PM	15:40:46	0	A	1	64	91.42857	46738.29	64	91.42857	32000	1206.51	55.89848	55.67899	14.019	45.99001	428.0341	52.155	64.79032	10.091	14.38311	11.993	1	3	1	0.25	5466	171.7998	177.7556	64.94899	4.632926	220.0189	167.2007	2.835688	37.07371	1049.809
11/10/2014 3:40:56 PM	15:40:56	0	A	1	64	91.42857	46738.29	63	90	31500	1203.662	55.80866	55.6619	14.019	45.99001	428.0341	51.715	64.79032	10.092	14.37656	11.716	1	3	1	0.25	5472	171.6001	177.534	65.40399	4.665382	220.0189	168.0257	2.806122	36.68717	1038.863
11/10/2014 3:41:06 PM	15:41:06	0	A	1	64	91.42857	46738.29	63	90	31500	1202.471	55.53921	55.6619	14.019	46.07001	427.6739	51.89	64.83523	10.32	14.38802	12.008	1	3	1	0.25	5475	173.2002	180.9674	66.099	4.714958	219.8188	169.1048	2.838014	37.10412	1050.67
11/10/2014 3:41:16 PM	15:41:16	0	A	1	64	91.42857	46738.29	63	90	31500	1204.64	55.67393	55.62769	14.01788	45.91	428.3492	51.75999	64.96996	10.096	14.39376	12.053	1	3	1	0.25	5458	174.2002	181.2366	67.23788	4.796581	220.194	171.3559	2.846121	37.21011	1053.671
11/10/2014 3:41:26 PM	15:41:26	0	A	1	64	91.42857	46738.29	63	90	31500	1204.64	55.40448	55.59351	14.01788	45.78	428.4393	52.56	64.92505	10.207	14.39044	12.102	1	3	1	0.25	5466	172.6001	179.213	66.35787	4.733804	220.244	169.4843	2.853306	37.30405	1056.331
11/10/2014 3:41:36 PM	15:41:36	0	A	1	64	91.42857	46738.29	63	90	31500	1205.32	55.58411	55.59351	14.01788	45.78	429.2047	51.91	64.88014	10.141	14.38957	11.913	1	3	1	0.25	5453	172.6001	180.0323	65.89788	4.700989	220.6693	168.7753	2.829917	36.99826	1047.672
11/10/2014 3:41:46 PM	15:41:46	0	A	1	64	91.42857	46738.29	62	88.57143	31000	1205.915	55.62902	55.58496	14.01975	45.78	428.8895	51.75999	64.96996	10.36	14.39119	11.923	1	3	1	0.25	5444	174.7998	182.0158	65.45475	4.668753	220.4942	167.9613	2.83099	37.01228	1048.069
11/10/2014 3:41:56 PM	15:41:56	0	A	1	64	91.42857	46738.29	62	88.57143	31000	1202.386	55.35957	55.58496	14.01975	45.78	428.2141	51.92	65.10468	10.15	14.39907	12.055	1	3	1	0.25	5444	174.6001	181.1863	65.93475	4.70299	220.119	168.6355	2.846531	37.21548	1053.823
11/10/2014 3:42:06 PM	15:42:06	1	A	1	64	91.42857	46738.29	63	90	31500	1200.813	55.09012	55.57639	14.019	45.94	428.2141	52.89	65.23941	10.177	14.39503	12.088	1	3	1	0.25	5444	173	179.5282	65.90399	4.701048	220.119	168.3531	2.851789	37.28421	1055.77
11/10/2014 3:42:16 PM	15:42:16	11	A	1	64	91.42857	46738.29	62	88.57143	31000	1213.482	54.82067	55.55075	14.019	45.89	426.9535	49.69501	65.05978	10.431	14.40259	12.172	1	3	1	0.25	5435	174.6001	180.8867	65.399	4.665027	219.4186	167.1707	2.860316	37.3957	1058.927
11/10/2014 3:42:26 PM	15:42:26	21	A	1	64	91.42857	46738.29	63	90	31500	1202.046	54.68595	55.55075	14.019	45.89	426.8184	52.13	65.05978	10.599	14.39919	12.181	1	3	1	0.25	5462	173	180.3295	66.849	4.768457	219.4186	169.7723	2.857361	37.35706	1057.833
11/10/2014 3:42:36 PM	15:42:36	31	A	1	64	91.42857	46738.29	63	90	31500	1196.477	54.23687	55.52509	14.01825	45.69	426.008	51.67	64.92505	10.611	14.39663	12.279	1	3	1	0.25	5461	172.7998	178.8409	66.31325	4.730494	218.8934	168.3941	2.872186	37.55089	1063.321
11/10/2014 3:42:46 PM	15:42:46	41	A	1	64	91.42857	46738.29	63	90	31500	1201.664	54.14705	55.43961	14.02312	45.5	425.6928	51.87	64.88014	10.148	14.39269	12.142	1	3	1	0.25	5463	173.6001	181.4027	66.96313	4.775193	218.7183	169.4835	2.856384	37.34429	1057.471
11/10/2014 3:42:56 PM	15:42:56	51	A	1	64	91.42857	46738.29	63	90	31500	1199.24	54.73086	55.43961	14.02312	45.5	427.0435	52.075	64.88014	10.52	14.40263	12.171	1	3	1	0.25	5459	174.3999	181.6855	66.38813	4.73419	219.4686	168.9155	2.860704	37.40078	1059.07
11/10/2014 3:43:06 PM	15:43:06	61	A	1	64	91.42857	46738.29	63	90	31500	1203.322	54.37159	55.4054	14.02275	45.495	426.5933	52.215	65.01486	10.368	14.39213	12.124	1	3	1	0.25	5461	174.7998	182.1684	66.37775	4.733576	219.2185	168.5907	2.852096	37.28823	1055.883
11/10/2014 3:43:16 PM	15:43:16	71	A	1	64	91.42857	46738.29	63	88.57143	31000	1202.556	54.4165	55.33701	14.019	45.47501	427.1336	51.7	64.83523	10.266	14.40024	12.263	1	3	1	0.25	5453	175.3999	182.7319	66.414	4.737428	219.5187	168.7301	2.873601	37.56939	1063.845
11/10/2014 3:43:26 PM	15:43:26	81	A	1	64	91.42857	46738.29	63	90	31500	1202.386	54.28177	55.33701	14.019	45.47501	427.899	51.465	64.79032	10.255	14.3955	12.171	1	3	1	0.25	5464	175.7998	182.2684	66.554	4.747415	219.9439	168.8754	2.860217	37.3944	1058.89
11/10/2014 3:43:36 PM	15:43:36	91	A	1	64	91.42857	46738.29	63	90	31500	1202.344	54.10214	55.28571	14.022	45.505	426.9535	52.89999	64.92505	10.61	14.3984	12.193	1	3	1	0.25	5460	176	182.7583	65.927	4.701683	219.4186	167.5224	2.862644	37.42614	1059.788
11/10/2014 3:43:46 PM	15:43:46	0	A	1	64	91.42857	46738.29	63	90	31500	1203.067	53.69796	55.19165	14.01937	45.595	426.1431	52.50999	64.92505	10.33	14.39635	12.191	1	3	1	0.25	5462	173.2002	180.5377	66.53938	4.746244	218.9684	168.3428	2.859707	37.38774	1058.701
11/10/2014 3:43:56 PM	15:43:56	2	A	1	64	91.42857	46738.29	63	90	31500	1201.579	53.78778	55.19165	14.01937	45.595	426.9535	51.53999	64.79032	10.177	14.39056	12.093	1	3	1	0.25	5463	175.3999	183.067	66.75938	4.761937	219.4186	168.8291	2.850843	37.27185	1055.419
11/10/2014 3:44:06 PM	15:44:06	12	A	1	64	91.42857	46738.29	63	90	31500	1198.135	53.83269	55.13181	14.022	45.64	425.8729	52.19	64.79032	10.262	14.39373	12.116	1	3	1	0.25	5462	175.2002	181.3694	66.097	4.713807	218.8183	167.6097	2.853788	37.31035	1056.51
11/10/2014 3:44:16 PM	15:44:16	22	A	1	64	91.42857	46738.29	63	90	31500	1198.645	53.56324	55.0463	14.02163	45.74001	425.3777	52.38	64.70051	10.369	14.40315	12.257	1	3	1	0.25	5465	175.7998	182.7179	66.71663	4.758124	218.5432	168.5366	2.870994	37.53529	1062.879
11/10/2014 3:44:26 PM	15:44:26	32	A	1	64	91.42857	46738.29	63	90	31500	1203.874	54.10214	54.98645	14.02612	45.88499	425.7829	52.28	64.56578	10.324	14.39643	12.319	1	3	1	0.25	5460	173.7998	180.2634	66.55162	4.746356	218.7683	168.6932	2.87767	37.62259	1065.351
11/10/2014 3:44:36 PM	15:44:36	42	A	1	64	91.42857	46738.29	63	90	31500	1201.366	53.83269	54.98645	14.02612	45.88499	425.7829	52.64	64.70051	10.509	14.398	12.181	1	3	1	0.25	5464	173.2002	179.9795	66.27612	4.725191	218.7683	167.9081	2.861399	37.40985	1059.327
11/10/2014 3:44:46 PM	15:44:46	52	A	1	64	91.42857	46738.29	63	90	31500	1200.176	53.83269	54.90097	14.0235	45.98	425.5128	52.91	64.70051	10.506	14.40336	12.24	1	3	1	0.25	5461	174	181.9602	66.6635	4.753699	218.6182	168.6531	2.869092	37.51043	1062.175
11/10/2014 3:44:56 PM	15:44:56	62	A	1	64	91.42857	46738.29	62	90	31500	1200.218	53.96741	54.90097	14.0235	45.98	426.2781	52.02499	64.65559	10.275	14.40022	12.133	1	3	1	0.25	5464	174.3999	180.8116	67.0435	4.780797	219.0434	169.4744	2.856748	37.34905	1057.605
11/10/2014 3:45:06 PM	15:45:06	72	A	1	64	91.42857	46738.29	63	90	31500	1202.471	53.92251	54.80688	14.02425	46.08	426.6833	52.33	64.79032	10.29	14.40184	12.086	1	3	1	0.25	5464	174	181.4359	67.08925	4.783803	219.2685	169.5137	2.850518	37.2676	1055.299
11/10/2014 3:45:16 PM	15:45:16	82	A	1	64	91.42857	46738.29	63	90	31500	1198.858	54.05723	54.72995	14.02163	46.3	426.9535	52.095	64.79032	10.346	14.3982	12.147	1	3	1	0.25	5459	175.2002	183.3486	66.90662	4.771673	219.4186	169.3145	2.857769	37.3624	1057.984
11/10/2014 3:45:26 PM	15:45:26	0	A	1	64	91.42857	46738.29	63	90	31500	1199.283	53.83269	54.72995	14.02163	46.3	427.0886	52.69	64.79032	10.122	14.39708	11.997	1	3	1	0.25	5464	174.7998	181.4359	66.72662	4.758837	219.4937	168.787	2.85231	37.29103	1055.963
11/10/2014 3:45:36 PM	15:45:36	4	A	1	64	91.42857	46738.29	63	90	31500	1200.516	53.92251	54.66156	14.02163	46.485	426.9535	52.34	64.65559	10.229	14.39104	12.152	1	3	1	0.25	5465	174.7998	181.4691	66.37163	4.733519	219.4186	168.2032	2.857964	37.36494	1058.056
11/10/2014 3:45:46 PM	15:45:46	14	A	1	64	91.42857	46738.29	63	90	31500	1201.324	53.92251	54.61023	14.02312	46.64999	426.9535	52.97501	64.65559	10.613	14.39121	12.113	1	3	1	0.25	5466	174.3999	182.1268	66.29313	4.727415	219.4186	168.0435	2.853546	37.30718	1056.42
11/10/2014 3:45:56 PM	15:45:56	24	A	1	64	91.42857	46738.29	63	90	31500	1201.196	53.56324	54.61023	14.02312	46.64999	425.7379	52.52499	64.52087	10.41	14.38004	12.053	1	3	1	0.25	5466	176.3999	183.1675	65.41813	4.665018	218.7433	166.0944	2.845939	37.20773	1053.604
11/10/2014 3:46:06 PM	15:46:06	34	A	1	64	91.42857	46738.29	63	90	31500	1201.876	53.92251	54.49911	14.02463	46.8	426.3232	52.755	64.56578	10.457	14.39853	12.191	1	3	1	0.25	5462	177	184.2816	66.49463	4.741277	219.0684	168.4061	2.863412	37.43618	1060.073
11/10/2014 3:46:16 PM	15:46:16	44	A	1	64	91.42857	46738.29	63	90	31500	1202.046	53.74287	54.45636	14.0235	46.82001	426.2781	52.5	64.52087	10.638	14.39541	12.227	1	3	1	0.25	5462	176.2002	182.4094	66.6335	4.75156	219.0434	168.5201	2.867294	37.48692	1061.51
11/10/2014 3:46:26 PM	15:46:26	54	A	1	64	91.42857	46738.29	63	90	31500	1200.261	53.51833	54.45636	14.0235	46.82001	426.4132	51.645	64.38615	10.217	14.40405	12.265	1	3	1	0.25	5457	174	181.2034	66.86349	4.767961	219.1185	168.7539	2.875451	37.59357	1064.53
11/10/2014 3:46:36 PM	15:46:36	64	A	1	64	91.42857	46738.29	63	90	31500	1201.834	53.56324	54.37939	14.025	47.065	426.1431	52.99001	64.1167	10.382	14.39869	12.178	1	3	1	0.25	5464	177.3999	183.9326	66.25001	4.723708	218.9684	167.6379	2.863177	37.4331	1059.986
11/10/2014 3:46:46 PM	15:46:46	74	A	1	64	91.42857	46738.29	63	90	31500	1203.237	53.78778	54.33664	14.02275	47.25	426.2781	52.50999	63.98197	10.373	14.39137	12.219	1	3	1	0.25	5459	176.6001	183.3486	66.19775	4.72074	219.0434	167.7529	2.867444	37.48888	1061.565
11/10/2014 3:46:56 PM	15:46:56	84	A	1	64	91.42857	46738.29	63	90	31500	1201.409	53.42852	54.33664	14.02275	47.25	426.1431	52.41499	64.1167	10.512	14.39802	12.258	1	3	1	0.25	5461	174	181.1286	66.69275	4.75604	218.9684	168.3663	2.872174	37.55073	1063.316
11/10/2014 3:47:06 PM	15:47:06	94	A	1	64	91.42857	46738.29	63	90	31500	1200.643	53.60815	54.2597	14.0235	47.41	426.1431	53.295	63.98197	10.362	14.39469	12.222	1	3	1	0.25	5462	175.7998	183.2417	66.3385	4.730525	218.9684	167.8548	2.868121	37.49774	1061.816
11/10/2014 3:47:16 PM	15:47:16	104	A	1	64	91.42857	46738.29	63	90	31500	1197.795	53.42852	54.19131	14.02425	47.505	425.8729	52.52	63.84725	10.433	14.39642	12.184	1	3	1	0.25	5457	174	182.0349	66.97925	4.775959	218.8183	168.8844	2.864365	37.44863	1060.425
11/10/2014 3:47:26 PM	15:47:26	114	A	1	64	91.42857	46738.29	63	90	31500	1201.706	53.74287	54.19131	14.02425	47.505	425.2426	51.905	63.89216	10.178	14.39501	12.124	1	3	1	0.25	5447	175.2002	182.3232	66.15425	4.717133	218.4681	167.6199	2.85727	37.35588	1057.799
11/10/2014 3:47:36 PM	15:47:36	124	A	1	64	91.42857	46738.29	62	88.57143	31000	1201.876	53.78778	54.11435	14.02538	47.5	424.7023	48.77	63.89216	9.958	14.38811	11.881	1	3	1	0.25	5431	175.7998	181.7877	65.02037	4.63591	218.168	165.5154	2.831637	37.02075	1048.309
11/10/2014 3:47:46 PM	15:47:46	134	A	1	64	91.42857	46738.29	61	87.14285	30500	1231.083	53.74287	54.07159	14.028	47.405	423.5768	48.965	63.71252	8.932999	14.34563	11.272	1	3	1	0.25	5339	176	178.0987	63.73801	4.543628	217.5426	163.0096	2.753929	36.0048	1019.541
11/10/2014 3:51:58 PM	15:51:58	0	A	1	0	0	0	-1	0	0	653.8269	53.60815	53.25079	14.02725	47.55499	269.0155	-0.2250061	62.67963	-0.6879997	14.0073	8.499908E-02	0	1	1	0.25	-1	4.399902	-8.3774E-04	13.80224	0.9839594	131.6753	10.71367	0.2416592	3.159446	89.46539
11/10/2014 4:32:39 PM	16:32:39	0	A	2	65	91.42857	46738.29	66	94.28571	33000	1216.161	46.91681	47.03497	14.05725	54.41	428.3492	54.575	56.48228	10.839	14.43751	12.777	1	3	1	0.25	5765	182.6001	199.773	69.27225	4.927866	220.194	167.1255	2.952327	38.59864	1092.99
11/10/2014 4:32:49 PM	16:32:49	0	A	2	64	91.42857	46738.29	66	95.71428	33500	1214.758	46.37791	47.0264	14.05688	54.50999	428.5743	55.22	56.5721	10.865	14.44595	12.832	1	3	1	0.25	5779	184.2002	201.5788	69.37688	4.935441	220.3191	166.8467	2.961996	38.72506	1096.57
11/10/2014 4:32:59 PM	16:32:59	0	A	2	64	92.85714	47468.57	67	95.71428	33500	1216.586	46.73717	46.98364	14.05688	54.545	428.9345	55.535	56.52719	10.748	14.44064	12.82	1	3	1	0.25	5779	184.6001	203.5592	69.15688	4.919791	220.5192	166.7669	2.960997	38.712	1096.2
11/10/2014 4:33:09 PM	16:33:09	2	A	2	64	92.85714	47468.57	67	95.71428	33500	1217.351	46.64736	46.98364	14.05688	54.545	428.4393	55.11	56.5721	10.657	14.4422	12.774	1	3	1	0.25	5774	181.3999	198.9855	69.58187	4.950024	220.244	167.4456	2.956242	38.64983	1094.439
11/10/2014 4:33:19 PM	16:33:19	12	A	2	65	92.85714	47468.57	66	94.28571	33000	1217.564	46.60245	46.95801	14.05725	54.63499	428.9796	55.05	56.5721	10.834	14.43878	12.775	1	3	1	0.25	5772	184.2002	202.2136	69.05225	4.912216	220.5442	166.4598	2.95566	38.64222	1094.224
11/10/2014 4:33:29 PM	16:33:29	22	A	2	64	91.42857	46738.29	66	95.71428	33500	1217.564	46.64736	46.94089	14.05725	54.7	429.6549	54.97	56.70683	10.544	14.43516	12.684	1	3	1	0.25	5770	184	201.7042	68.81226	4.895144	220.9194	166.0696	2.940126	38.43913	1088.473
11/10/2014 4:33:39 PM	16:33:39	32	A	2	64	91.42857	46738.29	67	95.71428	33500	1217.351	46.19827	46.94089	14.05725	54.7	429.3397	54.89999	56.79664	10.905	14.45226	12.762	1	3	1	0.25	5767	184.6001	202.4776	68.89725	4.90119	220.7443	165.832	2.954996	38.63354	1093.978
11/10/2014 4:33:49 PM	16:33:49	42	A	2	65	92.85714	47468.57	67	95.71428	33500	1218.372	46.55754	46.93237	14.05875	54.78999	429.5648	55.25	56.75173	10.632	14.44353	12.702	1	3	1	0.25	5773	184.3999	202.9082	68.99374	4.90753	220.8694	166.3031	2.947492	38.53544	1091.2
11/10/2014 4:33:59 PM	16:33:59	52	A	2	65	92.85714	47468.57	67	95.71428	33500	1216.331	46.37791	46.93237	14.05875	54.78999	429.6999	55.08501	56.88646	10.549	14.4466	12.576	1	3	1	0.25	5770	184.3999	203.0222	68.60374	4.87979	220.9444	165.449	2.9388	38.42179	1087.982
11/10/2014 4:34:09 PM	16:34:09	62	A	2	64	91.42857	46738.29	67	95.71428	33500	1215.438	46.37791	46.90671	14.058	54.88	429.9701	54.89999	56.88646	11.031	14.45073	12.894	1	3	1	0.25	5767	183.7998	201.3795	69.063	4.912719	221.0945	166.2774	2.965602	38.77221	1097.905
11/10/2014 4:34:19 PM	16:34:19	72	A	2	65	91.42857	46738.29	66	94.28571	33000	1216.501	46.28809	46.8725	14.05837	54.765	428.8445	54.735	56.97627	10.689	14.45136	12.846	1	3	1	0.25	5774	184.7998	201.844	69.63837	4.953516	220.4691	167.22	2.963748	38.74796	1097.218
11/10/2014 4:34:29 PM	16:34:29	82	A	2	65	92.85714	47468.57	66	94.28571	33000	1219.094	46.19827	46.85541	14.05838	54.67999	428.9345	55.175	56.93137	11.02	14.45197	12.912	1	3	1	0.25	5779	186.3999	203.9992	69.40839	4.937155	220.5192	166.7334	2.971601	38.85064	1100.126
11/10/2014 4:34:39 PM	16:34:39	92	A	2	65	92.85714	47468.57	67	94.28571	33000	1216.969	46.19827	46.85541	14.05838	54.67999	428.5743	55.14	56.84155	10.735	14.44883	12.866	1	3	1	0.25	5776	184.7998	202.5739	69.37338	4.934665	220.3191	166.6711	2.965752	38.77416	1097.96
11/10/2014 4:34:49 PM	16:34:49	102	A	2	65	92.85714	47468.57	66	94.28571	33000	1214.46	46.24318	46.8212	14.05875	54.685	428.7994	55.12	56.93137	10.852	14.44787	12.871	1	3	1	0.25	5775	185.7998	204.0781	69.02875	4.91002	220.4441	166.0927	2.966837	38.78835	1098.362
11/10/2014 4:34:59 PM	16:34:59	112	A	2	64	91.42857	46738.29	66	95.71428	33500	1215.523	45.7941	46.8212	14.05875	54.685	428.3042	55.08	56.97627	10.937	14.45835	12.913	1	3	1	0.25	5778	184.2002	202.644	69.49374	4.943096	220.169	166.5302	2.973478	38.87518	1100.821
11/10/2014 4:35:09 PM	16:35:09	122	A	2	65	92.85714	47468.57	66	94.28571	33000	1217.819	46.19827	46.77844	14.05838	54.61501	428.0791	55.36	56.88646	10.971	14.45931	12.996	1	3	1	0.25	5777	183.6001	201.9489	68.98338	4.906924	220.119	165.976	2.981475	38.97973	1103.781
11/10/2014 4:35:19 PM	16:35:19	132	A	2	65	92.85714	47468.57	67	94.28571	33000	1214.885	46.15337	46.75281	14.05912	54.575	427.6739	55.185	56.88646	10.878	14.45471	12.978	1	3	1	0.25	5775	183.2002	201.879	69.39912	4.936234	219.8188	166.6713	2.978997	38.94733	1102.864
11/10/2014 4:35:37 PM	16:35:37	0	A	2	64	91.42857	46738.29	67	95.71428	33500	1212.292	45.92883	46.7186	14.06025	54.505	427.3587	55.095	56.84155	10.852	14.45554	12.973	1	3	1	0.25	5775	183.2002	201.879	69.10525	4.914937	219.6437	165.9431	2.978668	38.94302	1102.742
11/10/2014 4:35:47 PM	16:35:47	0	A	2	65	92.85714	47468.57	67	95.71428	33500	1214.035	45.7941	46.6673	14.05875	54.435	427.4938	55.02499	56.84155	10.864	14.44743	12.988	1	3	1	0.25	5779	184.2002	203.1191	69.15375	4.918911	219.7188	165.9256	2.976466	38.91423	1101.927
11/10/2014 4:35:57 PM	16:35:57	0	A	2	64	91.42857	46738.29	67	95.71428	33500	1214.205	45.83901	46.6673	14.05875	54.435	427.4938	55.42	56.84155	10.675	14.4432	12.651	1	3	1	0.25	5776	183.2002	201.9139	69.18875	4.921402	219.7188	166.027	2.941494	38.45702	1088.98
11/10/2014 4:36:07 PM	16:36:07	0	A	2	65	92.85714	47468.57	66	94.28571	33000	1214.63	45.83901	46.60745	14.06063	54.355	426.9535	55.24001	56.84155	10.801	14.45108	12.899	1	3	1	0.25	5778	182.7998	201.9839	69.20062	4.921589	219.4186	166.0317	2.973649	38.87741	1100.884
11/10/2014 4:36:17 PM	16:36:17	0	A	2	65	92.85714	47468.57	67	94.28571	33000	1212.59	45.61446	46.55615	14.06212	54.38	426.5483	54.785	56.84155	10.824	14.45579	12.884	1	3	1	0.25	5779	183.7998	202.2386	68.72712	4.887393	219.1935	164.9787	2.968823	38.81432	1099.097
11/10/2014 4:36:27 PM	16:36:27	0	A	2	65	92.85714	47468.57	67	95.71428	33500	1212.972	45.88391	46.55615	14.06212	54.38	425.8729	55.22	56.70683	10.999	14.46443	12.989	1	3	1	0.25	5780	184.6001	202.2735	69.00713	4.907305	218.8183	165.7127	2.981774	38.98363	1103.892
11/10/2014 4:36:37 PM	16:36:37	0	A	2	65	92.85714	47468.57	66	94.28571	33000	1213.653	45.61446	46.5134	14.06175	54.47	425.8729	55.53	56.5721	10.894	14.4505	12.917	1	3	1	0.25	5777	182.3999	200.1889	69.54175	4.945455	218.8183	166.4328	2.972034	38.8563	1100.286
11/10/2014 4:36:47 PM	16:36:47	0	A	2	65	92.85714	47468.57	67	95.71428	33500	1214.715	45.61446	46.4621	14.0625	54.36501	425.918	55.295	56.61701	10.88	14.45834	12.956	1	3	1	0.25	5781	183.7998	202.7492	68.7775	4.890844	218.8433	165.0655	2.977729	38.93076	1102.394
11/10/2014 4:36:57 PM	16:36:57	0	A	2	65	92.85714	47468.57	66	94.28571	33000	1210.592	45.56956	46.4621	14.0625	54.36501	425.4227	55.14999	56.66191	11.131	14.4707	13.088	1	3	1	0.25	5780	184.3999	202.0538	69.78751	4.962667	218.5682	166.8225	2.989095	39.07935	1106.602
11/10/2014 4:37:07 PM	16:37:07	0	A	2	65	91.42857	46738.29	66	94.28571	33000	1215.821	45.56956	46.40225	14.0625	54.235	425.3326	55.83501	56.5721	11.286	14.45924	13.195	1	3	1	0.25	5767	186.6001	203.5756	68.8875	4.898666	218.5181	165.223	3.004292	39.27804	1112.228
11/10/2014 4:37:17 PM	16:37:17	0	A	2	64	91.42857	46738.29	66	94.28571	33000	1215.438	45.43483	46.3595	14.061	54.155	425.4677	55.295	56.70683	11.125	14.46157	13.157	1	3	1	0.25	5765	187	204.6026	69.696	4.956688	218.5932	166.5564	2.998987	39.20869	1110.265
11/10/2014 4:37:27 PM	16:37:27	3	A	3	64	91.42857	46738.29	66	94.28571	33000	1218.669	45.61446	46.3595	14.061	54.155	425.4227	55.25	56.66191	11.176	14.46009	13.226	1	3	1	0.25	5764	186.6001	203.6894	69.666	4.954555	218.5682	166.6597	3.007521	39.32025	1113.424
11/10/2014 4:37:37 PM	16:37:37	13	A	3	65	92.85714	47468.57	67	94.28571	33000	1215.736	45.2552	46.29965	14.06138	54.215	425.2426	55.74001	56.48228	10.938	14.46209	12.967	1	3	1	0.25	5761	185.3999	202.7055	69.44637	4.938803	218.4681	165.9545	2.979732	38.95694	1103.136
11/10/2014 4:37:47 PM	16:37:47	23	A	3	65	92.85714	47468.57	66	95.71428	33500	1216.629	45.52465	46.23123	14.06287	54.22	425.963	55.55	56.39246	10.811	14.4569	12.982	1	3	1	0.25	5761	186.7998	203.1447	69.48287	4.940873	218.8683	166.2405	2.985857	39.03701	1105.403
11/10/2014 4:37:57 PM	16:37:57	33	A	3	65	91.42857	46738.29	66	94.28571	33000	1219.307	45.52465	46.23123	14.06287	54.22	425.4227	55.14999	56.39246	10.783	14.45889	13.02	1	3	1	0.25	5757	187	204.3187	69.21287	4.921673	218.5682	165.7607	2.985512	39.0325	1105.276
11/10/2014 4:38:07 PM	16:38:07	43	A	3	65	92.85714	47468.57	66	94.28571	33000	1219.434	45.52465	46.17996	14.064	54.345	425.1976	54.75999	56.30265	10.933	14.45561	12.987	1	3	1	0.25	5746	185.2002	202.8343	69.584	4.947668	218.4431	166.4099	2.980445	38.96626	1103.4
11/10/2014 4:38:17 PM	16:38:17	53	A	3	65	92.85714	47468.57	66	94.28571	33000	1218.414	45.52465	46.11157	14.06362	54.435	425.7829	55.67	56.34756	10.917	14.45632	13.046	1	3	1	0.25	5735	186.2002	203.9746	69.04362	4.909376	218.7683	165.4527	2.988236	39.06813	1106.284
11/10/2014 4:38:27 PM	16:38:27	63	A	3	64	91.42857	46738.29	66	94.28571	33000	1215.268	45.16538	46.11157	14.06362	54.435	425.7829	55.30499	56.21283	10.978	14.46	13.047	1	3	1	0.25	5733	189	206.5236	69.59863	4.94884	218.7683	166.361	2.989131	39.07983	1106.616
11/10/2014 4:38:37 PM	16:38:37	73	A	3	65	91.42857	46738.29	66	94.28571	33000	1217.054	45.52465	46.06024	14.064	54.55	425.3777	55.28	56.34756	10.929	14.46016	13.022	1	3	1	0.25	5725	187.2002	204.273	68.76399	4.889363	218.5432	164.9503	2.986001	39.0389	1105.457
11/10/2014 4:38:47 PM	16:38:47	83	A	3	65	92.85714	47468.57	66	94.28571	33000	1217.054	45.47974	46.0004	14.06288	54.67	425.6478	55.19501	56.34756	10.832	14.45539	13.044	1	3	1	0.25	5733	186.6001	203.0304	69.52288	4.943717	218.6933	166.1551	2.987919	39.06398	1106.167
11/10/2014 4:38:57 PM	16:38:57	93	A	3	64	92.85714	47468.57	66	94.28571	33000	1218.287	45.03066	46.0004	14.06288	54.67	425.7379	55.53999	56.30265	10.826	14.45683	12.867	1	3	1	0.25	5731	186.3999	202.5232	69.32287	4.929494	218.7433	165.5269	2.968599	38.81139	1099.014
11/10/2014 4:39:07 PM	16:39:07	103	A	3	64	91.42857	46738.29	66	94.28571	33000	1218.457	45.47974	45.94055	14.06437	54.795	425.5128	55.59	56.21283	10.925	14.45501	13.03	1	3	1	0.25	5722	185.6001	202.6409	69.89438	4.969604	218.6182	166.9167	2.98075	38.97025	1103.513
11/10/2014 4:39:17 PM	16:39:17	113	A	3	65	91.42857	46738.29	66	94.28571	33000	1216.118	45.30011	45.8978	14.06625	54.85001	425.3777	55.25	56.21283	10.994	14.46006	13.092	1	3	1	0.25	5727	188	203.9084	69.64626	4.951303	218.5432	166.3051	2.9941	39.14478	1108.455
11/10/2014 4:39:27 PM	16:39:27	123	A	3	65	92.85714	47468.57	66	94.28571	33000	1220.072	45.21029	45.8978	14.06625	54.85001	425.3326	54.91499	56.16792	11.062	14.46202	13.044	1	3	1	0.25	5723	188.2002	204.6375	69.92125	4.970852	218.5181	166.713	2.985171	39.02805	1105.149
11/10/2014 4:39:37 PM	16:39:37	133	A	3	64	91.42857	46738.29	66	94.28571	33000	1215.013	45.21029	45.86359	14.06287	54.925	425.2426	55.89	56.21283	10.997	14.46012	13.041	1	3	1	0.25	5719	186.6001	204.2769	69.82787	4.965405	218.4681	166.5777	2.988379	39.06999	1106.337
11/10/2014 4:41:20 PM	16:41:20	0	A	3	65	92.85714	47468.57	66	94.28571	33000	1218.712	44.7163	45.56436	14.06738	55.315	425.8279	55.53999	56.12302	10.93	14.46318	13.082	1	3	1	0.25	5744	187.2002	205.8262	69.68238	4.953474	218.7933	165.851	2.993593	39.13816	1108.267
11/10/2014 4:41:30 PM	16:41:30	5	A	4	64	91.42857	46738.29	66	94.28571	33000	1218.839	45.07557	45.54724	14.06662	55.48	425.7829	55.72501	56.25774	10.9	14.46727	13.085	1	3	1	0.25	5741	187.3999	205.0628	69.25162	4.923116	218.7683	165.4066	2.997391	39.18781	1109.673
11/10/2014 4:41:40 PM	16:41:40	15	A	4	64	92.85714	47468.57	66	94.28571	33000	1216.799	45.03066	45.54724	14.06662	55.48	425.8729	55.605	56.0332	11.043	14.46297	13.065	1	3	1	0.25	5739	188.3999	204.9913	69.64662	4.951197	218.8183	166.0679	2.991964	39.11685	1107.664
11/10/2014 4:41:50 PM	16:41:50	25	A	4	65	92.85714	47468.57	66	94.28571	33000	1217.479	44.85102	45.50449	14.06775	55.53	426.008	55.33	56.0332	10.711	14.45658	12.902	1	3	1	0.25	5738	187	203.8631	69.14275	4.914983	218.8934	165.0082	2.973233	38.87196	1100.73
11/10/2014 4:42:00 PM	16:42:00	35	A	4	64	92.85714	47468.57	66	94.28571	33000	1215.906	45.16538	45.45319	14.06738	55.55499	426.5032	55.32001	55.98829	10.939	14.4601	12.856	1	3	1	0.25	5725	187.6001	204.273	69.01737	4.906201	219.1685	165.0613	2.968628	38.81177	1099.025
11/10/2014 4:42:10 PM	16:42:10	45	A	4	64	91.42857	46738.29	66	94.28571	33000	1216.926	44.94084	45.45319	14.06738	55.55499	427.0435	55.905	55.98829	10.815	14.45837	12.863	1	3	1	0.25	5729	186	203.1071	69.30738	4.926817	219.4686	165.382	2.964994	38.76425	1097.68
11/10/2014 4:42:20 PM	16:42:20	55	A	4	64	92.85714	47468.57	66	94.28571	33000	1216.543	45.21029	45.41901	14.06775	55.58501	427.0435	55.13	55.98829	10.854	14.45932	12.958	1	3	1	0.25	5728	186.7998	203.0717	69.42775	4.935242	219.4686	165.8266	2.979873	38.95879	1103.188
11/10/2014 4:42:30 PM	16:42:30	65	A	4	65	92.85714	47468.57	66	94.28571	33000	1219.477	45.34502	45.39337	14.0685	55.7	427.4938	55.16499	55.89848	11.16	14.46217	12.96	1	3	1	0.25	5719	187	204.059	69.51849	4.941429	219.5687	166.0981	2.980656	38.96902	1103.478
11/10/2014 4:42:40 PM	16:42:40	75	A	4	64	91.42857	46738.29	66	94.28571	33000	1215.396	45.16538	45.39337	14.0685	55.7	427.0435	55.355	56.12302	11.077	14.46474	13.038	1	3	1	0.25	5732	186.6001	202.995	69.5585	4.944273	219.4686	166.0127	2.988913	39.07697	1106.535
11/10/2014 4:42:50 PM	16:42:50	85	A	4	65	92.85714	47468.57	66	92.85714	32500	1219.945	45.21029	45.34204	14.06775	55.625	426.8184	55.66	56.30265	11.132	14.46652	13.055	1	3	1	0.25	5726	187.7998	203.8727	69.26775	4.923868	219.3436	165.5425	2.99046	39.09719	1107.107
11/10/2014 4:43:00 PM	16:43:00	95	A	4	64	92.85714	47468.57	66	94.28571	33000	1217.819	44.94084	45.31641	14.0685	55.535	426.6833	55.11	56.16792	11.002	14.46249	12.994	1	3	1	0.25	5731	185.6001	202.0869	69.1985	4.918684	219.1935	165.1788	2.985664	39.0345	1105.332
11/10/2014 4:43:10 PM	16:43:10	105	A	4	65	91.42857	46738.29	66	94.28571	33000	1215.608	44.76121	45.31641	14.0685	55.535	426.8184	55.265	56.16792	10.912	14.46961	13.012	1	3	1	0.25	5731	186.7998	203.8323	69.48849	4.939296	219.3436	165.5371	2.986433	39.04454	1105.616
11/10/2014 4:43:20 PM	16:43:20	115	A	4	65	92.85714	47468.57	66	94.28571	33000	1217.691	44.89593	45.29929	14.06812	55.535	427.3587	55.10001	56.16792	11.026	14.46169	13.106	1	3	1	0.25	5729	188	204.4158	69.70812	4.95504	219.6437	166.0463	2.994188	39.14593	1108.487
11/10/2014 4:43:30 PM	16:43:30	125	A	4	64	91.42857	46738.29	66	94.28571	33000	1216.033	44.76121	45.2822	14.06963	55.60001	427.0886	55.28	56.30265	10.935	14.46702	13.043	1	3	1	0.25	5733	187.6001	203.9034	69.53462	4.94218	219.4937	165.609	2.989185	39.08053	1106.635
11/10/2014 4:43:47 PM	16:43:47	0	A	4	65	92.85714	47468.57	66	94.28571	33000	1219.052	44.7163	45.2309	14.06925	55.71001	426.6383	55.42	55.98829	10.925	14.46675	13.063	1	3	1	0.25	5735	186	203.7565	69.71925	4.955434	219.2435	165.8997	2.992278	39.12096	1107.78
11/10/2014 4:43:57 PM	16:43:57	0	A	4	64	92.85714	47468.57	66	94.28571	33000	1216.246	44.7163	45.2309	14.06925	55.71001	426.9084	55.08	55.98829	10.867	14.46346	13.02	1	3	1	0.25	5730	186.2002	202.7057	69.13926	4.914211	219.3936	164.8719	2.987174	39.05423	1105.891
11/10/2014 4:44:07 PM	16:44:07	0	A	4	65	92.85714	47468.57	66	94.28571	33000	1217.776	44.62648	45.19669	14.07	55.78999	426.5933	55.355	56.07811	10.822	14.4619	12.848	1	3	1	0.25	5734	186.6001	203.939	69.68999	4.953091	219.2185	165.7633	2.963767	38.74821	1097.225
11/10/2014 4:44:17 PM	16:44:17	0	A	4	64	91.42857	46738.29	66	94.28571	33000	1216.629	44.35703	45.1796	14.07038	55.92999	426.6383	55.74001	55.98829	10.899	14.45653	12.881	1	3	1	0.25	5733	188.3999	206.0866	69.31537	4.926334	219.2435	164.8626	2.971029	38.84315	1099.914
11/10/2014 4:44:27 PM	16:44:27	0	A	4	64	91.42857	46738.29	66	94.28571	33000	1216.033	44.53667	45.13684	14.06963	56.02499	426.7284	55.605	55.80866	11.105	14.45921	13.012	1	3	1	0.25	5729	185.3999	202.8887	69.63463	4.949288	219.2936	165.5905	2.982484	38.99292	1104.155
11/10/2014 4:44:37 PM	16:44:37	0	A	4	65	92.85714	47468.57	66	94.28571	33000	1215.396	44.58157	45.13684	14.06963	56.02499	427.0886	55.785	55.89848	10.765	14.46348	12.977	1	3	1	0.25	5731	185.3999	201.65	70.05463	4.979139	219.4937	166.3706	2.982679	38.99548	1104.227
11/10/2014 4:44:47 PM	16:44:47	0	A	4	64	91.42857	46738.29	66	94.28571	33000	1214.758	44.53667	45.09409	14.07038	56.06	426.5483	55.315	55.85357	10.832	14.46112	12.832	1	3	1	0.25	5738	188	204.7369	69.39537	4.93202	219.1935	165.1605	2.967336	38.79487	1098.547
11/10/2014 4:44:57 PM	16:44:57	0	A	4	65	92.85714	47468.57	66	94.28571	33000	1214.503	44.40194	45.09409	14.07038	56.06	426.4582	55.815	55.94338	11.001	14.4708	13.099	1	3	1	0.25	5734	184.6001	202.1926	69.56038	4.943747	219.1435	165.3355	2.99681	39.18022	1109.458
11/10/2014 4:45:07 PM	16:45:07	0	A	4	64	91.42857	46738.29	66	94.28571	33000	1219.264	44.44685	45.06845	14.07187	56.075	425.5128	55.66	55.94338	10.984	14.47765	13.069	1	3	1	0.25	5732	185.6001	202.5585	69.35188	4.928403	218.6182	164.9923	2.994236	39.14656	1108.505
11/10/2014 4:45:17 PM	16:45:17	0	A	4	65	92.85714	47468.57	66	94.28571	33000	1215.821	44.44685	45.03424	14.07187	55.96001	425.6028	55.185	55.89848	11.001	14.47219	13.12	1	3	1	0.25	5736	186.3999	202.4813	69.93688	4.969976	218.6682	166.0261	2.999294	39.21269	1110.378
11/10/2014 4:45:27 PM	16:45:27	0	A	4	65	92.85714	47468.57	66	94.28571	33000	1216.331	44.40194	45.03424	14.07187	55.96001	425.4227	55.94501	55.85357	11.054	14.47447	12.992	1	3	1	0.25	5738	186.7998	205.1738	69.52688	4.94084	218.5682	165.2632	2.985643	39.03421	1105.324
11/10/2014 4:45:37 PM	16:45:37	0	A	4	64	91.42857	46738.29	66	94.28571	33000	1216.543	44.22231	44.98297	14.07075	55.895	425.3326	55.47501	55.76375	10.844	14.4672	13.071	1	3	1	0.25	5735	186.3999	203.7565	69.66576	4.951104	218.5181	165.3622	2.994079	39.14451	1108.447
11/10/2014 4:45:47 PM	16:45:47	0	A	4	65	92.85714	47468.57	66	94.28571	33000	1212.76	44.49176	44.95731	14.07187	55.845	425.4227	55.55499	55.85357	10.94	14.46565	13.043	1	3	1	0.25	5731	187	203.6144	69.21188	4.918455	218.5682	164.7829	2.990339	39.09561	1107.063
11/10/2014 4:45:57 PM	16:45:57	0	A	4	65	91.42857	46738.29	66	94.28571	33000	1214.928	44.35703	44.95731	14.07187	55.845	425.0175	55.545	55.85357	10.955	14.46793	13.12	1	3	1	0.25	5731	187.7998	203.6144	69.89188	4.966778	218.3431	165.8686	2.999081	39.20991	1110.299
11/10/2014 4:46:07 PM	16:46:07	0	A	4	64	91.42857	46738.29	66	94.28571	33000	1214.12	44.35703	44.91455	14.07187	55.86501	425.1526	55.13	55.71884	10.942	14.46323	12.989	1	3	1	0.25	5726	187.2002	206.0532	69.38187	4.930535	218.4181	164.9674	2.984502	39.0193	1104.902
11/10/2014 4:46:17 PM	16:46:17	0	A	4	65	92.85714	47468.57	66	94.28571	33000	1215.693	44.49176	44.89743	14.07262	55.94	425.6928	55.39999	55.85357	10.466	14.45773	13.001	1	3	1	0.25	5723	185.6001	203.112	69.40263	4.931747	218.7183	165.1147	2.984848	39.02383	1105.03
11/10/2014 4:46:27 PM	16:46:27	0	A	4	64	91.42857	46738.29	66	94.28571	33000	1217.054	44.58157	44.89743	14.07262	55.94	425.8279	55.745	55.58411	10.767	14.47009	12.97	1	3	1	0.25	5719	186.7998	203.8415	69.89263	4.966567	218.7933	166.0589	2.98064	38.96881	1103.472
11/10/2014 4:46:37 PM	16:46:37	0	A	4	64	92.85714	47468.57	66	94.28571	33000	1212.505	44.44685	44.83759	14.07413	56.02499	425.6928	55.575	55.71884	10.91	14.46754	13.101	1	3	1	0.25	5725	186.6001	202.7471	69.19412	4.916407	218.7183	164.6927	2.996346	39.17414	1109.286
11/10/2014 4:46:47 PM	16:46:47	0	A	4	65	92.85714	47468.57	65	92.85714	32500	1213.142	44.58157	44.79483	14.07225	56	425.2426	55.33501	55.67393	10.336	14.45905	12.951	1	3	1	0.25	5722	187.3999	204.3841	69.86725	4.964895	218.4681	166.0174	2.979974	38.9601	1103.225
11/10/2014 4:46:57 PM	16:46:57	0	A	4	65	92.85714	47468.57	66	94.28571	33000	1214.758	44.53667	44.79483	14.07225	56	425.6478	55.355	55.80866	10.916	14.46729	13.135	1	3	1	0.25	5725	186.6001	203.4012	69.39725	4.931496	218.6933	165.1475	3.000795	39.23232	1110.934
11/10/2014 4:47:07 PM	16:47:07	0	A	4	64	92.85714	47468.57	66	94.28571	33000	1214.885	44.67139	44.74356	14.07262	56.065	425.1526	55.03	55.71884	11.003	14.47269	13.076	1	3	1	0.25	5727	187.3999	203.6901	69.06762	4.907942	218.4181	164.6761	2.995573	39.16404	1109
11/10/2014 4:47:17 PM	16:47:17	0	A	4	65	92.85714	47468.57	65	92.85714	32500	1214.375	44.35703	44.70081	14.07225	56.13499	424.6573	55.71001	55.62902	10.907	14.4674	12.922	1	3	1	0.25	5675	188.2002	203.1374	70.21225	4.989412	218.1429	166.429	2.986208	39.0416	1105.533
11/10/2014 4:47:27 PM	16:47:27	0	A	4	65	92.85714	47468.57	65	92.85714	32500	1215.778	44.35703	44.70081	14.07225	56.13499	425.1976	54.66499	55.62902	11.023	14.47036	13.034	1	3	1	0.25	5652	188.7998	202.5296	69.65225	4.949618	218.4431	165.4425	2.990505	39.09779	1107.124
11/10/2014 4:47:37 PM	16:47:37	0	A	4	65	92.85714	47468.57	65	92.85714	32500	1215.311	44.22231	44.6666	14.07375	56.175	425.5578	55.895	55.71884	10.995	14.47157	13.091	1	3	1	0.25	5642	190.2002	204.5342	69.46375	4.935696	218.6432	164.9788	2.994347	39.14802	1108.547
11/10/2014 4:47:47 PM	16:47:47	0	A	4	65	92.85714	47468.57	65	92.85714	32500	1217.181	44.04268	44.64096	14.07413	56.23	425.0175	55.88499	55.58411	10.977	14.47701	13.108	1	3	1	0.25	5647	189	202.9951	69.55412	4.941986	218.3431	164.9791	2.999511	39.21553	1110.458
11/10/2014 4:47:57 PM	16:47:57	0	A	4	65	92.85714	47468.57	65	92.85714	32500	1217.691	43.95286	44.64096	14.07413	56.23	425.0625	55.63	55.62902	11.148	14.48062	13.181	1	3	1	0.25	5649	192.3999	207.3692	69.86412	4.964012	218.3681	165.448	3.017019	39.44443	1116.94
11/10/2014 4:48:07 PM	16:48:07	0	A	4	65	92.85714	47468.57	65	92.85714	32500	1216.586	44.08758	44.6153	14.07187	56.255	424.117	55.91499	55.62902	11.076	14.47292	13.137	1	3	1	0.25	5636	191.2002	204.7459	69.23687	4.920231	217.8428	164.4762	3.002135	39.24984	1111.43
11/10/2014 4:48:17 PM	16:48:17	0	A	4	65	92.85714	47468.57	65	92.85714	32500	1214.673	43.72832	44.58109	14.07375	56.245	423.8018	55.41	55.58411	10.928	14.48014	13.249	1	3	1	0.25	5626	191.3999	205.6682	70.42375	5.003908	217.6677	166.2382	3.015353	39.42265	1116.323
11/10/2014 4:48:27 PM	16:48:27	0	A	4	65	92.85714	47468.57	65	92.85714	32500	1221.05	44.04268	44.58109	14.07375	56.245	424.8824	55.56	55.44939	11.181	14.47804	13.225	1	3	1	0.25	5669	189.6001	204.2181	69.81874	4.96092	218.268	165.4495	3.012882	39.39035	1115.409
11/10/2014 4:48:37 PM	16:48:37	0	A	4	65	92.85714	47468.57	66	94.28571	33000	1223.983	43.99776	44.54691	14.073	56.205	426.053	55.925	55.40448	11.312	14.48055	13.329	1	3	1	0.25	5723	192	209.4324	70.52299	5.011227	218.9184	166.6537	3.024673	39.5445	1119.774
11/10/2014 4:48:47 PM	16:48:47	0	A	4	65	92.85714	47468.57	67	94.28571	33000	1226.024	43.95286	44.50415	14.073	56.25	427.4037	56.27499	55.40448	11.248	14.47661	13.314	1	3	1	0.25	5793	191.6001	210.891	69.92799	4.968947	219.6687	165.5703	3.022712	39.51886	1119.048
11/10/2014 4:48:57 PM	16:48:57	0	A	4	66	92.85714	47468.57	67	95.71428	33500	1231.636	44.13249	44.50415	14.073	56.25	427.6739	56.53	55.44939	11.088	14.47422	13.229	1	3	1	0.25	5819	190.6001	209.6217	71.133	5.054572	219.8188	167.8356	3.012916	39.39079	1115.421
11/10/2014 4:49:07 PM	16:49:07	6	A	5	65	92.85714	47468.57	67	95.71428	33500	1233.294	43.95286	44.45285	14.07225	56.27	428.1241	56.25999	55.40448	11.353	14.48001	13.324	1	3	1	0.25	5820	189.2002	208.9927	70.41725	5.00398	220.0689	166.4359	3.020242	39.48657	1118.133
11/10/2014 4:49:17 PM	16:49:17	16	A	5	66	94.28571	48198.86	67	95.71428	33500	1230.956	43.86304	44.41864	14.07338	56.28	427.944	55.84	55.40448	11.399	14.48577	13.483	1	3	1	0.25	5826	192	212.3139	70.41338	5.003304	219.9689	166.3409	3.042007	39.77112	1126.191
11/10/2014 4:49:27 PM	16:49:27	26	A	5	66	94.28571	48198.86	67	95.71428	33500	1232.656	43.99776	44.41864	14.07338	56.28	428.2592	56.13	55.44939	11.268	14.47633	13.417	1	3	1	0.25	5830	190.7998	212.6819	70.26839	4.993001	220.144	166.2043	3.029325	39.60531	1121.496
11/10/2014 4:49:37 PM	16:49:37	36	A	5	66	92.85714	47468.57	67	95.71428	33500	1234.195	43.90795	44.38443	14.07262	56.33501	428.5293	56.92	55.35957	11.308	14.48635	13.483	1	3	1	0.25	5829	190	210.8695	70.52763	5.01169	220.2941	166.5866	3.042204	39.77369	1126.264
11/10/2014 4:49:47 PM	16:49:47	46	A	5	65	92.85714	47468.57	67	95.71428	33500	1232.869	44.04268	44.35025	14.07338	56.375	429.1146	56.42999	55.35957	11.443	14.48493	13.435	1	3	1	0.25	5829	188.6001	209.7597	70.51839	5.010766	220.6192	166.6815	3.036947	39.70497	1124.318
11/10/2014 4:49:57 PM	16:49:57	56	A	5	66	92.85714	47468.57	67	95.71428	33500	1228.745	43.95286	44.35025	14.07338	56.375	429.2947	56.88	55.40448	11.098	14.47435	13.153	1	3	1	0.25	5832	190.6001	210.9781	70.50838	5.010054	220.7193	166.5856	3.006908	39.31223	1113.197
11/10/2014 4:50:07 PM	16:50:07	66	A	5	65	94.28571	48198.86	67	95.71428	33500	1234.624	43.81813	44.31604	14.07413	56.38	428.8895	56.33501	55.26976	11.268	14.48265	13.428	1	3	1	0.25	5834	188.2002	209.0512	70.72913	5.025472	220.4942	166.8471	3.037178	39.70799	1124.403
11/10/2014 4:50:17 PM	16:50:17	76	A	5	66	94.28571	48198.86	67	95.71428	33500	1232.061	43.77322	44.28183	14.07413	56.465	429.2047	56.33	55.44939	11.033	14.47256	13.382	1	3	1	0.25	5835	191	211.9752	70.52412	5.010906	220.6693	166.4497	3.033155	39.65539	1122.914
11/10/2014 4:50:27 PM	16:50:27	86	A	5	65	92.85714	47468.57	67	95.71428	33500	1231.551	43.77322	44.28183	14.07413	56.465	428.8445	56.435	55.22485	11.332	14.48236	13.457	1	3	1	0.25	5833	190.7998	210.7919	70.55412	5.013038	220.4691	166.5022	3.039348	39.73636	1125.207
11/10/2014 4:50:37 PM	16:50:37	96	A	5	65	94.28571	48198.86	67	95.71428	33500	1230.531	43.77322	44.24765	14.076	56.495	428.5743	56.815	55.22485	11.269	14.4859	13.415	1	3	1	0.25	5836	192.7998	214.6787	70.83101	5.032041	220.3191	166.9692	3.035164	39.68165	1123.657
11/10/2014 4:50:47 PM	16:50:47	106	A	5	65	92.85714	47468.57	67	95.71428	33500	1234.452	43.77322	44.19635	14.0745	56.53	428.3492	55.755	55.26976	11.202	14.48584	13.344	1	3	1	0.25	5836	192.2002	212.4564	70.9995	5.044549	220.2691	167.2758	3.02652	39.56864	1120.457
11/10/2014 4:50:57 PM	16:50:57	116	A	5	65	92.85714	47468.57	67	95.71428	33500	1232.826	43.50377	44.19635	14.0745	56.53	428.3042	56.48	55.22485	11.208	14.47977	13.388	1	3	1	0.25	5834	190.2002	211.4946	70.43951	5.00476	220.169	166.2984	3.035253	39.68281	1123.69
11/10/2014 4:51:07 PM	16:51:07	126	A	5	65	92.85714	47468.57	67	95.71428	33500	1232.444	43.77322	44.18781	14.07487	56.63499	428.4393	56.32001	55.09012	11.097	14.4645	12.974	1	3	1	0.25	5832	190.6001	211.6444	70.04488	4.97659	220.244	165.603	2.984802	39.02322	1105.013
11/10/2014 4:51:20 PM	16:51:20	0	A	5	65	92.85714	47468.57	67	95.71428	33500	1229.51	43.59359	44.13651	14.07487	56.69	429.3397	56.495	55.09012	11.233	14.47606	13.263	1	3	1	0.25	5837	189	211.3814	70.48488	5.007851	220.7443	166.2177	3.017888	39.45579	1117.262
11/10/2014 4:51:30 PM	16:51:30	0	A	5	65	92.85714	47468.57	67	95.71428	33500	1230.02	43.72832	44.09375	14.07525	56.74001	429.7899	56.61501	54.9554	10.996	14.45627	12.896	1	3	1	0.25	5837	192	212.7147	70.66026	5.020177	220.9944	166.6385	2.967408	38.79582	1098.573
11/10/2014 4:51:40 PM	16:51:40	0	A	5	66	94.28571	48198.86	67	95.71428	33500	1226.109	43.77322	44.09375	14.07525	56.74001	430.2482	56.505	55.13503	11.167	14.47597	13.319	1	3	1	0.25	5834	189.3999	210.3838	70.51525	5.009875	221.249	166.4243	3.02387	39.534	1119.476
11/10/2014 4:51:50 PM	16:51:50	0	A	5	66	92.85714	47468.57	67	95.71428	33500	1232.954	43.77322	44.06812	14.076	56.83	430.2482	57.035	55.13503	10.987	14.48087	13.284	1	3	1	0.25	5832	189.6001	211.4221	71.52101	5.081061	221.249	168.1679	3.018932	39.46944	1117.648
11/10/2014 4:52:00 PM	16:52:00	0	A	5	65	92.85714	47468.57	67	95.71428	33500	1235.052	43.81813	44.04245	14.07562	56.89999	430.8708	56.535	55.22485	11.031	14.47887	13.227	1	3	1	0.25	5827	191.2002	212.794	70.70062	5.022912	221.5949	166.7842	3.007375	39.31834	1113.369
11/10/2014 4:52:10 PM	16:52:10	0	A	5	66	92.85714	47468.57	67	95.71428	33500	1240.966	44.67139	44.04245	14.07562	56.89999	431.8047	56.855	55.22485	11.006	14.47518	13.264	1	3	1	0.25	5833	190.7998	211.6807	70.71562	5.023978	222.1137	167.556	3.017509	39.45084	1117.121
11/10/2014 4:52:20 PM	16:52:20	0	A	5	66	92.85714	47468.57	67	95.71428	33500	1230.658	44.22231	44.00824	14.07563	56.89999	430.6484	56.58501	55.26976	11.056	14.48278	13.341	1	3	1	0.25	5833	189.6001	211.0142	70.95062	5.040672	221.4713	167.5736	3.026624	39.57	1120.496
11/10/2014 4:52:30 PM	16:52:30	0	A	5	65	92.85714	47468.57	67	95.71428	33500	1231.041	43.99776	43.99969	14.07675	56.925	430.2482	56.675	55.26976	11.245	14.48072	13.37	1	3	1	0.25	5835	189	211.0866	70.54175	5.011224	221.249	166.6536	3.026832	39.57272	1120.573
11/10/2014 4:52:40 PM	16:52:40	0	A	5	65	92.85714	47468.57	67	95.71428	33500	1228.617	43.86304	43.99969	14.07675	56.925	429.6999	56.36	55.40448	11.073	14.47786	13.188	1	3	1	0.25	5833	191.3999	210.7919	70.57175	5.013355	220.9444	166.5884	3.008934	39.33873	1113.947
11/10/2014 4:52:50 PM	16:52:50	1	A	6	65	92.85714	47468.57	68	95.71428	33500	1232.146	44.35703	43.94839	14.07637	56.99001	430.7818	56.685	55.13503	11.128	14.48042	13.237	1	3	1	0.25	5831	190.2002	211.1642	70.14137	4.982915	221.5455	166.2683	3.015378	39.42298	1116.333
11/10/2014 4:53:00 PM	16:53:00	11	A	6	66	92.85714	47468.57	67	95.71428	33500	1230.743	44.22231	43.93985	14.07675	57.09	430.6484	56.375	55.40448	11.098	14.47739	13.209	1	3	1	0.25	5834	188	209.9396	70.69176	5.021881	221.4713	167.112	3.014263	39.4084	1115.92
11/10/2014 4:53:10 PM	16:53:10	21	A	6	65	92.85714	47468.57	67	95.71428	33500	1230.87	44.04268	43.93985	14.07675	57.09	430.1147	56.67999	55.53921	11.221	14.47595	13.309	1	3	1	0.25	5836	192.3999	212.4564	70.36674	4.998792	221.1749	166.3864	3.020285	39.48713	1118.149
11/10/2014 4:53:20 PM	16:53:20	31	A	6	65	92.85714	47468.57	67	95.71428	33500	1229.213	43.90795	43.91422	14.07637	57.17999	429.3397	56.12	55.44939	11.126	14.4772	13.228	1	3	1	0.25	5834	191.6001	212.1612	70.68137	5.021276	220.7443	166.8225	3.014434	39.41063	1115.983
11/10/2014 4:53:30 PM	16:53:30	41	A	6	65	92.85714	47468.57	68	95.71428	33500	1227.81	43.6385	43.89709	14.07675	57.22501	428.9345	56.565	55.58411	11.216	14.4796	13.367	1	3	1	0.25	5832	186.7998	209.8677	70.25674	4.990978	220.5192	165.841	3.028519	39.59478	1121.197
11/10/2014 4:53:40 PM	16:53:40	51	A	6	66	94.28571	48198.86	67	95.71428	33500	1228.958	43.50377	43.89709	14.07675	57.22501	428.7994	56.17	55.44939	11.069	14.4758	13.328	1	3	1	0.25	5838	189.7998	210.5281	70.17676	4.985295	220.4441	165.5832	3.020641	39.49178	1118.281
11/10/2014 4:53:50 PM	16:53:50	61	A	6	65	92.85714	47468.57	68	97.14286	34000	1228.447	43.45887	43.87143	14.07862	57.285	428.7094	56.77	55.35957	11.138	14.47804	13.338	1	3	1	0.25	5841	191.7998	212.6384	70.43863	5.003232	220.3941	165.9864	3.025512	39.55546	1120.084
11/10/2014 4:54:00 PM	16:54:00	71	A	6	65	92.85714	47468.57	67	95.71428	33500	1228.872	43.59359	43.83725	14.0805	57.36501	429.2497	56.37	55.4943	11.033	14.4802	13.259	1	3	1	0.25	5839	189	210.1196	70.5705	5.011932	220.6943	166.3181	3.016716	39.44047	1116.828
11/10/2014 4:54:10 PM	16:54:10	81	A	6	65	92.85714	47468.57	67	95.71428	33500	1226.959	43.32414	43.83725	14.0805	57.36501	428.8445	56.57001	55.4943	11.227	14.48216	13.306	1	3	1	0.25	5837	189.7998	211.3814	70.2105	4.986364	220.4691	165.453	3.022072	39.51049	1118.811
11/10/2014 4:54:20 PM	16:54:20	91	A	6	65	92.85714	47468.57	67	95.71428	33500	1229.128	43.45887	43.8287	14.07938	57.44501	428.5743	56.7	55.35957	11.153	14.48714	13.356	1	3	1	0.25	5835	190.2002	209.9756	70.22937	4.988102	220.3191	165.6133	3.027812	39.58553	1120.935
11/10/2014 4:54:30 PM	16:54:30	101	A	6	65	91.42857	46738.29	67	95.71428	33500	1228.532	43.6385	43.8287	14.07938	57.44501	428.8445	56.485	55.35957	11.1	14.47774	13.268	1	3	1	0.25	5832	188.7998	210.3117	70.30438	4.99343	220.4691	165.9015	3.018266	39.46074	1117.402
11/10/2014 4:54:40 PM	16:54:40	111	A	6	65	92.85714	47468.57	67	95.71428	33500	1231.168	43.41396	43.79449	14.079	57.41	429.2497	56.39999	55.22485	11.048	14.47585	13.244	1	3	1	0.25	5836	189.2002	210.2341	70.854	5.032601	220.6943	166.6688	3.015386	39.42308	1116.336
11/10/2014 4:54:50 PM	16:54:50	121	A	6	65	92.85714	47468.57	67	97.14286	34000	1227.129	43.59359	43.78595	14.07938	57.38499	428.7544	57.03999	55.13503	11.072	14.47923	13.246	1	3	1	0.25	5837	190.2002	210.9364	70.97438	5.041018	220.4191	167.0322	3.015361	39.42275	1116.326
11/10/2014 4:55:00 PM	16:55:00	131	A	6	65	92.85714	47468.57	67	95.71428	33500	1228.787	43.68341	43.76031	14.07975	57.41499	428.8895	56.515	55.26976	11.166	14.48159	13.281	1	3	1	0.25	5839	190.2002	210.3421	69.92976	4.96669	220.4942	165.2796	3.019928	39.48245	1118.017
11/10/2014 4:55:10 PM	16:55:10	0	A	6	65	92.85714	47468.57	67	95.71428	33500	1229.34	43.54868	43.76031	14.07975	57.41499	428.8895	56.83	55.13503	11.356	14.48954	13.353	1	3	1	0.25	5837	190.3999	210.9364	70.28976	4.992259	220.4942	165.7942	3.031349	39.63178	1122.245
11/10/2014 4:55:20 PM	16:55:20	0	A	6	65	92.85714	47468.57	67	95.71428	33500	1227.555	43.45887	43.74319	14.07938	57.465	427.944	55.87	55.26976	11.148	14.48515	13.278	1	3	1	0.25	5840	190.2002	210.8228	70.01437	4.972832	219.9689	165.2361	3.019988	39.48324	1118.039
11/10/2014 4:55:30 PM	16:55:30	0	A	6	65	92.85714	47468.57	67	95.71428	33500	1227.555	43.14451	43.7261	14.08012	57.505	428.1241	56.12	55.17994	11.027	14.48131	13.285	1	3	1	0.25	5835	189.2002	211.309	70.44513	5.003161	220.0689	165.7102	3.020599	39.49123	1118.265
11/10/2014 4:55:40 PM	16:55:40	0	A	6	65	94.28571	48198.86	67	95.71428	33500	1230.743	43.32414	43.7261	14.08012	57.505	428.3492	56.485	55.13503	11.185	14.48955	13.21	1	3	1	0.25	5832	190	209.8677	70.76512	5.025887	220.194	166.4256	3.013396	39.39706	1115.599
11/10/2014 4:55:50 PM	16:55:50	0	A	6	65	92.85714	47468.57	67	95.71428	33500	1228.447	43.59359	43.71756	14.08088	57.55499	429.4297	56.59	55.00031	11.1	14.48286	13.297	1	3	1	0.25	5834	188.3999	210.162	70.97087	5.040231	220.7943	167.0129	3.022613	39.51756	1119.011
11/10/2014 4:56:00 PM	16:56:00	0	A	6	65	92.85714	47468.57	67	95.71428	33500	1227.682	43.45887	43.6748	14.08162	57.59	428.7094	55.855	55.09012	11.029	14.48512	13.236	1	3	1	0.25	5838	191.6001	214.0853	70.68662	5.019777	220.3941	166.3933	3.015907	39.42989	1116.528
11/10/2014 4:56:10 PM	16:56:10	0	A	6	66	92.85714	47468.57	67	95.71428	33500	1227.937	43.36905	43.6748	14.08162	57.59	428.3042	56.74001	55.09012	11.254	14.49542	13.397	1	3	1	0.25	5833	189	209.9036	70.69163	5.020133	220.169	166.3236	3.034627	39.67463	1123.459
11/10/2014 4:56:20 PM	16:56:20	0	A	6	65	92.85714	47468.57	67	95.71428	33500	1227.172	43.36905	43.68335	14.0805	57.64999	428.3943	56.655	55.04522	11.172	14.48584	13.214	1	3	1	0.25	5834	189.7998	211.717	70.38549	4.998792	220.219	165.7986	3.013701	39.40105	1115.712
11/10/2014 4:56:30 PM	16:56:30	0	A	6	65	92.85714	47468.57	67	95.71428	33500	1228.575	43.14451	43.65771	14.08088	57.565	428.5743	56.64999	54.9554	11.169	14.4869	13.325	1	3	1	0.25	5837	190.2002	210.2701	70.59587	5.013599	220.3191	165.9669	3.024928	39.54783	1119.868
11/10/2014 4:56:40 PM	16:56:40	0	A	6	65	92.85714	47468.57	68	97.14286	34000	1225.301	43.36905	43.65771	14.08088	57.565	428.5293	56.345	55.04522	11.186	14.49236	13.301	1	3	1	0.25	5840	190.6001	211.9348	70.87587	5.033484	220.2941	166.6512	3.024169	39.5379	1119.587
11/10/2014 4:56:50 PM	16:56:50	0	A	6	65	92.85714	47468.57	67	97.14286	34000	1225.174	42.91996	43.65771	14.082	57.55	428.0791	56.42999	55.13503	11.382	14.48684	13.4	1	3	1	0.25	5834	190	210.3838	70.79201	5.027127	219.8939	166.1028	3.03215	39.64225	1122.542
11/10/2014 4:57:00 PM	16:57:00	0	A	6	65	92.85714	47468.57	67	95.71428	33500	1226.364	43.0996	43.6235	14.0805	57.53999	428.0791	57.00999	55.13503	11.287	14.48122	13.225	1	3	1	0.25	5835	190.6001	211.9752	70.4255	5.001634	220.0439	165.6334	3.014145	39.40685	1115.876
11/10/2014 4:57:10 PM	16:57:10	0	A	6	65	92.85714	47468.57	67	95.71428	33500	1230.658	43.27923	43.6235	14.0805	57.53999	427.989	56.745	54.91049	11.278	14.48888	13.399	1	3	1	0.25	5837	190.2002	211.8259	70.63549	5.016547	219.9939	166.157	3.035105	39.68088	1123.635
11/10/2014 4:57:20 PM	16:57:20	0	A	6	66	92.85714	47468.57	67	95.71428	33500	1229.34	43.23433	43.59784	14.079	57.535	427.809	56.71001	54.86558	11.181	14.47878	13.307	1	3	1	0.25	5840	191.3999	211.4901	70.56901	5.012359	219.8939	166.0148	3.023656	39.53119	1119.397
11/10/2014 4:57:30 PM	16:57:30	0	A	6	65	92.85714	47468.57	67	95.71428	33500	1228.49	43.27923	43.58075	14.08125	57.515	428.5743	56.34	54.9554	10.934	14.48287	13.142	1	3	1	0.25	5836	189.3999	211.1228	70.61626	5.014914	220.3191	166.1169	3.005722	39.29673	1112.758
11/10/2014 4:57:40 PM	16:57:40	0	A	6	65	92.85714	47468.57	67	95.71428	33500	1231.636	43.18941	43.58075	14.08125	57.515	428.6194	55.69501	54.86558	11.144	14.48439	13.312	1	3	1	0.25	5839	189.2002	211.0087	70.65625	5.017755	220.3441	166.1082	3.024811	39.5463	1119.825
11/10/2014 4:57:50 PM	16:57:50	0	A	6	65	92.85714	47468.57	67	95.71428	33500	1226.704	43.27923	43.5722	14.0805	57.55	428.7544	56.355	54.86558	11.022	14.47977	13.182	1	3	1	0.25	5834	190.3999	212.8278	70.7055	5.021519	220.4191	166.2792	3.009727	39.34909	1114.24
11/10/2014 4:58:00 PM	16:58:00	7	A	7	66	92.85714	47468.57	67	95.71428	33500	1230.913	43.27923	43.56363	14.08125	57.58	428.8895	56.5	55.00031	11.156	14.48388	13.294	1	3	1	0.25	5835	189	210.6423	70.50626	5.007102	220.4942	165.9248	3.022393	39.51469	1118.929
11/10/2014 4:58:10 PM	16:58:10	17	A	7	65	92.85714	47468.57	67	95.71428	33500	1230.403	43.14451	43.56363	14.08125	57.58	428.8895	56.53999	54.86558	11.133	14.48302	13.233	1	3	1	0.25	5829	190.2002	210.6473	70.55626	5.010653	220.4942	165.8945	3.016011	39.43126	1116.567
11/10/2014 4:58:20 PM	16:58:20	27	A	7	65	92.85714	47468.57	67	95.71428	33500	1227.852	43.54868	43.5209	14.08125	57.655	429.2497	56.745	54.82067	10.94	14.47835	13.227	1	3	1	0.25	5831	191.6001	210.9419	70.14626	4.981536	220.6943	165.5295	3.014984	39.41782	1116.187
11/10/2014 4:58:30 PM	16:58:30	37	A	7	65	92.85714	47468.57	67	95.71428	33500	1228.83	43.99776	43.5209	14.08125	57.655	429.7899	56.565	54.9554	11.043	14.48323	13.179	1	3	1	0.25	5834	188.7998	209.7172	70.41626	5.00071	220.9944	166.3945	3.009835	39.3505	1114.28
11/10/2014 4:58:40 PM	16:58:40	47	A	7	65	92.85714	47468.57	67	95.71428	33500	1228.235	43.81813	43.50381	14.0805	57.625	429.1146	56.7	55.09012	11.032	14.47359	13.2	1	3	1	0.25	5835	191.3999	213.0862	69.8905	4.963637	220.6192	165.3214	3.010712	39.36197	1114.605
11/10/2014 4:58:50 PM	16:58:50	57	A	7	66	94.28571	48198.86	67	95.71428	33500	1230.488	43.54868	43.49524	14.0805	57.62	428.7994	56.47501	55.17994	11.241	14.49462	13.263	1	3	1	0.25	5833	189.6001	209.9036	70.3655	4.997373	220.4441	165.9203	3.02795	39.58733	1120.987
11/10/2014 4:59:00 PM	16:59:00	67	A	7	65	92.85714	47468.57	67	95.71428	33500	1224.111	43.36905	43.45251	14.07975	57.67999	428.3492	56.255	55.00031	11.192	14.48238	13.328	1	3	1	0.25	5832	190.7998	211.2004	70.45475	5.003977	220.194	165.9263	3.025947	39.56115	1120.245
11/10/2014 4:59:10 PM	16:59:10	77	A	7	65	92.85714	47468.57	67	95.71428	33500	1226.662	43.23433	43.45251	14.07975	57.67999	428.0341	56.27499	55.09012	11.044	14.47758	13.177	1	3	1	0.25	5836	189.6001	210.9003	70.04975	4.975213	220.0189	165.0992	3.008609	39.33447	1113.826
11/10/2014 4:59:20 PM	16:59:20	87	A	7	65	92.85714	47468.57	67	95.71428	33500	1225.811	43.0996	43.44397	14.082	57.715	427.7189	56.73	55.04522	11.23	14.48792	13.318	1	3	1	0.25	5835	189.3999	210.198	70.437	5.001917	219.8438	165.6404	3.02631	39.5659	1120.38
11/10/2014 4:59:31 PM	16:59:31	98	A	7	65	92.85714	47468.57	67	95.71428	33500	1225.811	42.83015	43.44397	14.082	57.715	427.0435	56.735	54.91049	10.986	14.49092	13.322	1	3	1	0.25	5835	191.7998	212.8643	70.73199	5.022865	219.4686	166.1553	3.032276	39.6439	1122.588
11/10/2014 4:59:41 PM	16:59:41	108	A	7	66	94.28571	48198.86	67	95.71428	33500	1228.362	42.96487	43.42685	14.08162	57.745	427.6739	56.61	55.00031	11.264	14.48682	13.301	1	3	1	0.25	5836	190.2002	212.2339	70.87162	5.032915	219.8188	166.2839	3.023478	39.52887	1119.331
11/10/2014 4:59:51 PM	16:59:51	118	A	7	65	92.85714	47468.57	67	95.71428	33500	1225.684	43.14451	43.39264	14.082	57.74001	428.1691	56.46001	54.9554	11.409	14.48926	13.361	1	3	1	0.25	5836	189.7998	210.9003	70.617	5.0147	220.094	165.9939	3.030434	39.61982	1121.906
11/10/2014 5:00:01 PM	17:00:01	128	A	7	65	92.85714	47468.57	67	97.14286	34000	1226.874	43.18941	43.40121	14.082	57.75999	428.1691	56.16499	54.9554	11.256	14.49464	13.481	1	3	1	0.25	5834	191	212.3836	70.617	5.014699	220.094	166.0332	3.040502	39.75144	1125.634
11/10/2014 5:00:11 PM	17:00:11	0	A	7	65	92.85714	47468.57	68	95.71428	33500	1228.362	43.14451	43.40121	14.082	57.75999	427.899	56.45	54.9554	11.239	14.4889	13.405	1	3	1	0.25	5836	188.3999	210.0116	70.597	5.013279	219.9439	165.959	3.033669	39.66211	1123.104
11/10/2014 5:00:21 PM	17:00:21	0	A	7	65	94.28571	48198.86	67	95.71428	33500	1226.917	43.0996	43.367	14.082	57.75999	428.2592	56.69	54.91049	11.183	14.48416	13.329	1	3	1	0.25	5833	189	210.126	70.10699	4.978483	220.144	165.0626	3.026513	39.56855	1120.455
11/10/2014 5:00:31 PM	17:00:31	0	A	7	66	94.28571	48198.86	67	94.28571	33000	1227.682	43.05469	43.34991	14.08275	57.73	427.944	57.045	54.86558	11.373	14.49275	13.414	1	3	1	0.25	5833	190.2002	211.2366	70.56274	5.01058	219.9689	165.8143	3.038599	39.72656	1124.929
11/10/2014 5:00:41 PM	17:00:41	0	A	7	65	92.85714	47468.57	67	95.71428	33500	1227.682	43.14451	43.34991	14.08275	57.73	428.4393	56.91499	54.86558	11.188	14.48553	13.269	1	3	1	0.25	5840	190.3999	211.0449	70.31274	4.992827	220.244	165.4557	3.020232	39.48643	1118.129
11/10/2014 5:00:51 PM	17:00:51	0	A	7	66	94.28571	48198.86	67	95.71428	33500	1227.385	43.14451	43.34991	14.0835	57.815	428.3042	56.42999	54.82067	11.062	14.48328	13.301	1	3	1	0.25	5834	191.2002	211.9388	70.8985	5.034153	220.169	166.4712	3.030394	39.61929	1121.891
11/10/2014 5:01:01 PM	17:01:01	0	A	7	65	92.85714	47468.57	67	95.71428	33500	1231.891	43.18941	43.33279	14.08313	57.86501	428.7094	56.82001	54.82067	11.132	14.48139	13.3	1	3	1	0.25	5837	191.3999	212.0478	70.51813	5.007278	220.3941	165.8507	3.023304	39.5266	1119.267
11/10/2014 5:01:11 PM	17:01:11	0	A	7	66	92.85714	47468.57	67	95.71428	33500	1225.004	43.05469	43.33279	14.08313	57.86501	428.9796	56.5	54.82067	11.079	14.48984	13.349	1	3	1	0.25	5831	189.2002	209.3877	70.86313	5.031775	220.5442	166.3345	3.029579	39.60863	1121.59
11/10/2014 5:01:21 PM	17:01:21	0	A	7	65	92.85714	47468.57	67	97.14286	34000	1228.915	42.87506	43.32425	14.08425	57.86	429.2497	56.965	54.82067	11.119	14.48453	13.289	1	3	1	0.25	5837	191	210.7145	70.31425	4.992402	220.6943	165.2102	3.022448	39.51541	1118.95
11/10/2014 5:01:31 PM	17:01:31	0	A	7	65	92.85714	47468.57	68	95.71428	33500	1229.213	43.18941	43.32425	14.085	57.89	429.7449	56.13	54.77576	11.111	14.48402	13.198	1	3	1	0.25	5837	189.6001	211.3814	70.45	5.001775	220.9694	165.7153	3.012534	39.3858	1115.28
11/10/2014 5:01:41 PM	17:01:41	10	A	8	66	94.28571	48198.86	67	95.71428	33500	1224.238	43.05469	43.32425	14.085	57.89	430.0703	57.03999	54.82067	11.126	14.48409	13.33	1	3	1	0.25	5836	189.7998	210.6784	70.895	5.033368	221.1502	166.3735	3.025239	39.55189	1119.983
11/10/2014 5:01:51 PM	17:01:51	20	A	8	65	92.85714	47468.57	67	95.71428	33500	1226.917	43.0996	43.28149	14.085	57.955	430.2037	55.935	54.82067	11.06	14.4876	13.225	1	3	1	0.25	5837	191.7998	211.1589	70.48	5.003905	221.2243	165.6501	3.017185	39.44659	1117.001
11/10/2014 5:02:01 PM	17:02:01	30	A	8	65	92.85714	47468.57	67	97.14286	34000	1226.534	43.00978	43.28149	14.08537	57.985	430.3371	56.89999	54.82067	11.13	14.48909	13.24	1	3	1	0.25	5833	189.6001	213.0131	70.77538	5.024742	221.2984	166.1228	3.019104	39.47168	1117.712
11/10/2014 5:02:11 PM	17:02:11	40	A	8	65	92.85714	47468.57	67	95.71428	33500	1225.386	43.00978	43.28149	14.08537	57.985	430.1147	55.95	54.86558	11.352	14.48927	13.27	1	3	1	0.25	5832	189.2002	210.9781	70.55537	5.009123	221.1749	165.7393	3.012954	39.39128	1115.435
11/10/2014 5:02:21 PM	17:02:21	50	A	8	65	92.85714	47468.57	67	95.71428	33500	1224.238	43.00978	43.28149	14.0865	58.02499	430.1592	56.31	54.91049	11.088	14.49401	13.325	1	3	1	0.25	5836	192.2002	213.7895	70.26649	4.988215	221.1996	165.2245	3.028239	39.59111	1121.094
11/10/2014 5:02:31 PM	17:02:31	60	A	8	65	92.85714	47468.57	67	95.71428	33500	1224.366	42.91996	43.2644	14.08612	58.06	429.835	56.495	54.86558	11.308	14.48836	13.356	1	3	1	0.25	5833	190.2002	212.1248	70.54112	5.007844	221.0195	165.6294	3.030057	39.61488	1121.767
11/10/2014 5:02:41 PM	17:02:41	70	A	8	65	92.85714	47468.57	67	95.71428	33500	1226.789	42.96487	43.2644	14.08612	58.06	429.5198	55.925	54.82067	11.03	14.48814	13.238	1	3	1	0.25	5833	188.3999	209.0154	70.80612	5.026658	220.8444	166.1305	3.018673	39.46605	1117.552
11/10/2014 5:02:51 PM	17:02:51	80	A	8	65	92.85714	47468.57	68	95.71428	33500	1225.386	43.05469	43.25583	14.08688	58.03	429.6549	56.44501	54.82067	11.06	14.48972	13.237	1	3	1	0.25	5831	188.6001	210.7197	71.08187	5.045964	220.9194	166.6818	3.017306	39.44818	1117.046
11/10/2014 5:03:01 PM	17:03:01	90	A	8	65	92.85714	47468.57	67	95.71428	33500	1226.662	42.91996	43.25583	14.08688	58.03999	429.3397	56.16	54.77576	11.012	14.48365	13.169	1	3	1	0.25	5835	191.2002	211.7533	70.40188	4.997693	220.7443	165.3797	3.009966	39.35222	1114.329
11/10/2014 5:03:11 PM	17:03:11	100	A	8	65	92.85714	47468.57	67	95.71428	33500	1228.575	42.91996	43.25583	14.08688	58.03999	429.3847	56.2	54.82067	11.178	14.49131	13.153	1	3	1	0.25	5837	191.3999	212.9372	70.95687	5.037091	220.7693	166.3469	3.00824	39.32965	1113.69
11/10/2014 5:03:21 PM	17:03:21	110	A	8	65	92.85714	47468.57	67	95.71428	33500	1228.83	43.05469	43.24731	14.08688	58.03	429.5198	56.395	54.91049	10.994	14.48004	13.149	1	3	1	0.25	5837	190.7998	211.6034	70.07188	4.974267	220.8444	164.9193	3.00632	39.30454	1112.979
11/10/2014 5:03:31 PM	17:03:31	120	A	8	65	92.85714	47468.57	67	95.71428	33500	1226.024	42.74033	43.23877	14.0865	58.005	429.2497	56.61501	54.9554	11.15	14.49181	13.333	1	3	1	0.25	5835	189.7998	211.0866	71.0515	5.043942	220.6943	166.3574	3.027651	39.58343	1120.876
11/10/2014 5:03:41 PM	17:03:41	130	A	8	65	92.85714	47468.57	67	95.71428	33500	1225.004	42.91996	43.23877	14.0865	58.005	428.8445	56.155	54.9554	11.246	14.4866	13.315	1	3	1	0.25	5837	189.7998	211.3814	70.67151	5.016967	220.4691	165.8535	3.021391	39.50159	1118.559
11/10/2014 5:03:51 PM	17:03:51	0	A	8	65	92.85714	47468.57	67	95.71428	33500	1225.344	42.91996	43.2131	14.0865	57.97	428.5293	56.66	54.77576	11.115	14.48975	13.276	1	3	1	0.25	5835	191.3999	212.6419	70.8965	5.032939	220.2941	166.2452	3.02172	39.50589	1118.68
11/10/2014 5:04:01 PM	17:04:01	0	A	8	65	92.85714	47468.57	67	95.71428	33500	1227.512	42.87506	43.20456	14.0865	57.995	429.0696	56.33	54.77576	11.175	14.48924	13.171	1	3	1	0.25	5833	189.7998	212.1248	69.9465	4.965499	220.5942	164.5461	3.013757	39.40178	1115.732
11/10/2014 5:04:11 PM	17:04:11	0	A	8	65	92.85714	47468.57	67	95.71428	33500	1225.854	43.14451	43.20456	14.0865	57.995	429.2497	56.53	54.82067	11.162	14.48559	13.22	1	3	1	0.25	5834	190.2002	211.0504	70.3315	4.99283	220.6943	165.4557	3.014988	39.41788	1116.188
11/10/2014 5:04:21 PM	17:04:21	0	A	8	66	92.85714	47468.57	67	95.71428	33500	1228.702	43.05469	43.17889	14.08688	57.98	429.2497	56.595	54.82067	11.185	14.49312	13.238	1	3	1	0.25	5835	188.6001	209.5313	70.34687	4.993788	220.6943	165.401	3.017781	39.45439	1117.222
11/10/2014 5:04:31 PM	17:04:31	0	A	8	66	94.28571	48198.86	67	95.71428	33500	1227.129	42.87506	43.18744	14.08838	58.015	429.0246	56.38499	54.86558	11.077	14.4883	13.236	1	3	1	0.25	5838	190	212.5292	70.74838	5.021756	220.5692	165.9318	3.013174	39.39415	1115.516
11/10/2014 5:04:41 PM	17:04:41	0	A	8	65	92.85714	47468.57	67	97.14286	34000	1224.494	42.74033	43.18744	14.08838	58.015	428.5743	56.50999	54.82067	11.46	14.49719	13.399	1	3	1	0.25	5837	190	212.0478	70.60838	5.011819	220.3191	165.5702	3.035834	39.69041	1123.905
11/10/2014 5:04:51 PM	17:04:51	0	A	8	65	92.85714	47468.57	67	95.71428	33500	1225.344	42.60561	43.15323	14.088	57.955	428.1691	56.895	54.82067	11.246	14.49237	13.409	1	3	1	0.25	5838	190.6001	212.7512	70.64799	5.014764	220.094	165.5249	3.037387	39.71072	1124.48
11/10/2014 5:05:01 PM	17:05:01	0	A	8	65	92.85714	47468.57	67	95.71428	33500	1223.601	42.51579	43.1618	14.08575	57.825	427.6288	55.935	54.82067	11.232	14.4908	13.397	1	3	1	0.25	5838	190	210.7506	70.48574	5.004046	219.7938	165.1832	3.03667	39.70134	1124.215
11/10/2014 5:05:11 PM	17:05:11	0	A	8	65	94.28571	48198.86	67	95.71428	33500	1224.451	42.33616	43.1618	14.08575	57.825	427.0435	55.715	54.77576	11.107	14.49012	13.33	1	3	1	0.25	5838	188.6001	209.1945	70.90075	5.033509	219.4686	165.7487	3.027668	39.58365	1120.882
11/10/2014 5:05:21 PM	17:05:21	6	A	9	65	92.85714	47468.57	67	97.14286	34000	1225.471	42.42597	43.11905	14.08838	57.66	426.9535	57.05499	54.68595	11.378	14.50084	13.415	1	3	1	0.25	5838	190.2002	212.0842	71.06339	5.044115	219.4186	166.0866	3.035871	39.6909	1123.919
11/10/2014 5:05:31 PM	17:05:31	16	A	9	65	92.85714	47468.57	68	95.71428	33500	1224.961	42.5607	43.10196	14.088	57.57001	427.0435	56.145	54.50632	11.226	14.49876	13.311	1	3	1	0.25	5842	189.6001	210.6723	70.933	5.034995	219.4686	165.9814	3.027319	39.57909	1120.753
11/10/2014 5:05:41 PM	17:05:41	26	A	9	65	92.85714	47468.57	67	95.71428	33500	1224.791	42.42597	43.10196	14.088	57.57001	426.9084	56.535	54.50632	11.254	14.495	13.43	1	3	1	0.25	5847	191.6001	213.3021	70.283	4.988856	219.3936	164.7312	3.039903	39.74361	1125.412
11/10/2014 5:05:51 PM	17:05:51	36	A	9	65	92.85714	47468.57	67	95.71428	33500	1223.771	42.42597	43.04211	14.08875	57.59	426.6833	56.56	54.55122	11.347	14.50006	13.448	1	3	1	0.25	5844	189	209.1868	70.52876	5.006033	219.2685	165.1536	3.040868	39.75622	1125.769
11/10/2014 5:06:01 PM	17:06:01	46	A	9	64	92.85714	47468.57	68	97.14286	34000	1226.449	42.38107	43.04211	14.08763	57.61501	427.2236	56.175	54.55122	11.214	14.49832	13.273	1	3	1	0.25	5841	190.6001	212.1931	69.92263	4.963408	219.5687	164.0642	3.022313	39.51364	1118.9
11/10/2014 5:06:11 PM	17:06:11	56	A	9	65	92.85714	47468.57	68	97.14286	34000	1223.516	42.06671	43.04211	14.08763	57.61501	426.4582	56.7	54.46141	11.219	14.49673	13.391	1	3	1	0.25	5844	191.6001	212.3021	70.71763	5.01984	219.1435	165.1786	3.035979	39.6923	1123.959
11/10/2014 5:06:21 PM	17:06:21	66	A	9	66	94.28571	48198.86	67	95.71428	33500	1222.878	42.29125	42.99936	14.0895	57.535	425.8729	56.645	54.4165	11.182	14.49195	13.397	1	3	1	0.25	5840	188.7998	210.6002	70.62949	5.012918	218.8183	165.205	3.036244	39.69577	1124.057
11/10/2014 5:06:31 PM	17:06:31	76	A	9	65	92.85714	47468.57	67	95.71428	33500	1224.536	42.38107	42.98224	14.08688	57.535	426.053	57.075	54.19196	11.332	14.4993	13.592	1	3	1	0.25	5841	189	210.8589	70.71188	5.019699	218.9184	165.4498	3.056196	39.95662	1131.444
11/10/2014 5:06:41 PM	17:06:41	86	A	9	65	92.85714	47468.57	67	95.71428	33500	1227.087	42.06671	42.98224	14.08688	57.535	424.0269	56.375	54.19196	11.319	14.50107	13.508	1	3	1	0.25	5847	191.7998	211.9659	70.94688	5.036381	217.7928	165.5834	3.04998	39.87535	1129.142
11/10/2014 5:06:51 PM	17:06:51	96	A	9	66	94.28571	48198.86	67	95.71428	33500	1222.58	42.47088	42.92239	14.08763	57.49001	424.4772	56.33	54.10214	11.455	14.50258	13.602	1	3	1	0.25	5836	189.2002	211.1228	70.43763	4.999965	218.0429	165.0437	3.060608	40.01431	1133.077
11/10/2014 5:07:01 PM	17:07:01	106	A	9	65	94.28571	48198.86	67	95.71428	33500	1226.407	42.29125	42.88821	14.08912	57.47	424.7473	56.825	54.10214	11.292	14.49768	13.387	1	3	1	0.25	5845	192.2002	213.6741	70.36913	4.99457	218.193	164.7543	3.0367	39.70173	1124.226
11/10/2014 5:07:11 PM	17:07:11	116	A	9	65	92.85714	47468.57	68	97.14286	34000	1223.643	42.24634	42.88821	14.08912	57.47	424.8824	56.21001	53.96741	11.09	14.50014	13.408	1	3	1	0.25	5845	190.3999	211.6711	70.65913	5.015154	218.268	165.2207	3.041294	39.7618	1125.927
11/10/2014 5:07:21 PM	17:07:21	126	A	9	65	92.85714	47468.57	67	95.71428	33500	1223.728	42.29125	42.84543	14.0895	57.48	424.8374	56.16499	54.05723	11.311	14.50232	13.451	1	3	1	0.25	5843	191.2002	214.2686	70.4345	4.999078	218.243	164.8651	3.044315	39.8013	1127.045
11/10/2014 5:08:40 PM	17:08:40	0	A	9	65	92.85714	47468.57	67	95.71428	33500	1224.451	42.11161	42.68301	14.08912	57.675	425.7829	56.91499	53.78778	11.378	14.50086	13.444	1	3	1	0.25	5844	189.6001	210.7444	71.01413	5.040351	218.7683	165.7196	3.047246	39.83961	1128.13
11/10/2014 5:08:50 PM	17:08:50	8	A	10	65	92.85714	47468.57	67	95.71428	33500	1223.771	41.79726	42.62317	14.08912	57.75	425.963	56.705	53.83269	11.092	14.49689	13.371	1	3	1	0.25	5844	189.3999	209.8545	70.82413	5.026865	218.8683	165.1152	3.035666	39.68822	1123.843
11/10/2014 5:09:00 PM	17:09:00	18	A	10	65	92.85714	47468.57	67	95.71428	33500	1227.044	42.20143	42.62317	14.08912	57.75	426.4132	56.17999	53.74287	11.187	14.49013	13.243	1	3	1	0.25	5839	189	210.5642	70.31912	4.991021	219.1185	164.5887	3.021173	39.49874	1118.478
11/10/2014 5:09:10 PM	17:09:10	28	A	10	65	92.85714	47468.57	68	95.71428	33500	1226.534	41.88707	42.58896	14.08875	57.81	426.1881	56.765	53.65306	11.137	14.49149	13.275	1	3	1	0.25	5845	189.2002	210.1127	71.03376	5.041878	218.9934	165.5606	3.03058	39.62172	1121.96
11/10/2014 5:09:20 PM	17:09:20	38	A	10	65	94.28571	48198.86	68	97.14286	34000	1223.728	41.93198	42.55475	14.08988	57.88	426.3232	56.745	53.65306	11.378	14.49717	13.398	1	3	1	0.25	5844	188.7998	210.2995	70.79488	5.024521	219.0684	165.1755	3.036887	39.70419	1124.295
11/10/2014 5:09:30 PM	17:09:30	48	A	10	65	92.85714	47468.57	67	95.71428	33500	1223.686	41.93198	42.52057	14.09063	58.015	426.053	56.13	53.65306	11.257	14.49922	13.41	1	3	1	0.25	5841	189	210.8589	70.62062	5.011887	218.9184	164.866	3.040711	39.75418	1125.711
11/10/2014 5:09:40 PM	17:09:40	58	A	10	65	92.85714	47468.57	68	97.14286	34000	1223.686	41.88707	42.52057	14.09063	58.015	426.008	56.095	53.60815	11.359	14.49409	13.518	1	3	1	0.25	5846	189.6001	210.5943	70.99562	5.0385	219.0434	165.4781	3.052043	39.90233	1129.906
11/10/2014 5:09:50 PM	17:09:50	68	A	10	64	92.85714	47468.57	68	97.14286	34000	1223.431	41.93198	42.48636	14.091	58.09	425.5128	56.56	53.65306	11.161	14.49454	13.431	1	3	1	0.25	5844	189.3999	210.2995	69.791	4.952877	218.6182	163.4128	3.042492	39.77746	1126.37
11/10/2014 5:10:00 PM	17:10:00	78	A	10	65	92.85714	47468.57	67	95.71428	33500	1223.005	41.93198	42.43503	14.09063	58.12	425.6028	56.33	53.74287	11.262	14.49524	13.498	1	3	1	0.25	5841	189	211.5263	70.85562	5.028564	218.6682	165.2744	3.046439	39.82906	1127.832
11/10/2014 5:10:10 PM	17:10:10	88	A	10	65	92.85714	47468.57	67	97.14286	34000	1225.429	42.11161	42.43503	14.09063	58.12	425.963	55.77499	53.56324	11.096	14.50161	13.438	1	3	1	0.25	5846	191.6001	212.1525	70.32062	4.990596	218.8683	164.4998	3.04385	39.79522	1126.873
11/10/2014 5:10:20 PM	17:10:20	98	A	10	65	92.85714	47468.57	68	97.14286	34000	1224.323	42.15652	42.41797	14.08987	58.145	425.8729	56.155	53.60815	11.316	14.49536	13.403	1	3	1	0.25	5845	191.3999	213.0063	70.49487	5.00323	218.8183	164.8496	3.039659	39.74042	1125.321
11/10/2014 5:10:30 PM	17:10:30	108	A	10	65	92.85714	47468.57	67	95.71428	33500	1223.643	41.97689	42.41797	14.08987	58.145	426.008	56.605	53.60815	11.329	14.50064	13.457	1	3	1	0.25	5840	190.2002	211.4901	71.23987	5.056104	218.8934	165.9861	3.046118	39.82486	1127.713
11/10/2014 5:10:40 PM	17:10:40	118	A	10	65	92.85714	47468.57	68	97.14286	34000	1226.534	42.0218	42.38376	14.08987	58.21001	426.008	56.145	53.60815	11.346	14.50212	13.333	1	3	1	0.25	5847	191.3999	212.8569	70.78488	5.023812	218.8934	165.2367	3.032745	39.65003	1122.762
11/10/2014 5:10:50 PM	17:10:50	128	A	10	65	92.85714	47468.57	67	95.71428	33500	1224.664	41.93198	42.34955	14.09025	58.25999	425.7379	56.255	53.60815	11.343	14.49397	13.368	1	3	1	0.25	5845	190.2002	211.0033	71.01025	5.039672	218.7433	165.546	3.035685	39.68847	1123.85
11/10/2014 5:11:35 PM	17:11:35	0	A	10	65	92.85714	47468.57	67	95.71428	33500	1224.961	42.24634	42.29825	14.09138	58.45	426.7284	56.38	53.51833	11.331	14.49372	13.467	1	3	1	0.25	5842	190.7998	211.5625	70.68137	5.015932	219.2936	165.2397	3.046719	39.83272	1127.935
11/10/2014 5:11:45 PM	17:11:45	0	A	10	65	92.85714	47468.57	67	95.71428	33500	1226.109	41.70744	42.2384	14.09175	58.495	426.5032	57.3	53.56324	11.337	14.50049	13.539	1	3	1	0.25	5840	191.6001	212.8241	70.72176	5.018664	219.1685	164.8359	3.052987	39.91467	1130.256
11/10/2014 5:11:55 PM	17:11:55	0	A	10	65	92.85714	47468.57	67	97.14286	34000	1226.874	42.20143	42.2384	14.09175	58.495	426.2781	57.47	53.47342	11.104	14.50399	13.417	1	3	1	0.25	5842	190.6001	212.4521	70.77174	5.022212	219.0434	165.3544	3.042529	39.77794	1126.384
11/10/2014 5:12:05 PM	17:12:05	0	A	10	66	92.85714	47468.57	67	95.71428	33500	1227.087	42.0218	42.22983	14.09212	58.565	426.9985	56.88	53.38361	11.158	14.49259	13.364	1	3	1	0.25	5843	191.2002	212.9334	70.69213	5.016428	219.4436	165.0558	3.035765	39.68951	1123.88
11/10/2014 5:12:15 PM	17:12:15	0	A	10	66	94.28571	48198.86	67	95.71428	33500	1226.832	42.11161	42.21277	14.09212	58.645	427.4488	56.72	53.42852	11.185	14.49154	13.39	1	3	1	0.25	5840	190.3999	212.1568	70.67713	5.015364	219.6938	165.1081	3.035076	39.68051	1123.625
11/10/2014 5:12:25 PM	17:12:25	0	A	10	65	92.85714	47468.57	67	95.71428	33500	1229.128	42.51579	42.21277	14.09212	58.645	428.0791	57.11501	53.51833	11.225	14.49411	13.399	1	3	1	0.25	5839	190	211.6759	71.04212	5.041264	220.0439	166.0955	3.039351	39.73639	1125.208
11/10/2014 5:12:35 PM	17:12:35	0	A	10	65	92.85714	47468.57	68	97.14286	34000	1227.682	42.33616	42.17001	14.09287	58.73	428.1241	57.185	53.56324	11.184	14.49518	13.266	1	3	1	0.25	5837	191	212.0478	70.72787	5.018697	220.0689	165.386	3.024772	39.54578	1119.81
11/10/2014 5:12:45 PM	17:12:45	0	A	10	65	92.85714	47468.57	67	97.14286	34000	1227.852	42.06671	42.17001	14.0925	58.75	428.1691	57.17	53.60815	11.106	14.49238	13.357	1	3	1	0.25	5845	190.7998	211.2255	70.3125	4.989357	220.094	164.4302	3.034306	39.67044	1123.34
11/10/2014 5:12:55 PM	17:12:55	0	A	10	65	94.28571	48198.86	67	95.71428	33500	1227.937	42.0218	42.17001	14.0925	58.75	428.7094	56.44501	53.74287	11.189	14.49329	13.35	1	3	1	0.25	5844	189.3999	211.6349	70.94749	5.034416	220.3941	165.4961	3.033247	39.65659	1122.948
11/10/2014 5:13:05 PM	17:13:05	3	A	11	65	92.85714	47468.57	67	97.14286	34000	1225.344	41.61762	42.16144	14.0925	58.78999	428.7544	56.855	53.65306	11.019	14.49011	13.223	1	3	1	0.25	5845	190.7998	211.6711	70.82249	5.025545	220.4191	164.9259	3.01924	39.47346	1117.762
11/10/2014 5:13:15 PM	17:13:15	13	A	11	65	94.28571	48198.86	67	95.71428	33500	1224.451	42.0218	42.12723	14.09212	58.82001	428.7994	56.325	53.56324	11.312	14.50188	13.249	1	3	1	0.25	5841	191.6001	213.3053	70.95213	5.034878	220.4441	165.5074	3.02363	39.53086	1119.387
11/10/2014 5:13:25 PM	17:13:25	23	A	11	66	94.28571	48198.86	68	95.71428	33500	1225.769	41.79726	42.12723	14.09212	58.82001	428.7094	57.185	53.74287	11.056	14.49768	13.37	1	3	1	0.25	5842	191.2002	211.7847	70.41213	4.996559	220.3941	164.3722	3.035913	39.69145	1123.935
11/10/2014 5:13:35 PM	17:13:35	33	A	11	65	92.85714	47468.57	67	95.71428	33500	1223.218	41.70744	42.10159	14.09325	58.88499	428.2592	56.47	53.56324	11.239	14.50195	13.37	1	3	1	0.25	5843	192.3999	213.1561	70.44824	4.998723	220.144	164.347	3.037995	39.71867	1124.706
11/10/2014 5:13:45 PM	17:13:45	43	A	11	66	92.85714	47468.57	67	95.71428	33500	1225.259	41.70744	42.10159	14.09325	58.88499	427.5388	56.685	53.78778	11.498	14.50206	13.364	1	3	1	0.25	5841	191.3999	213.3053	70.74324	5.019655	219.7438	164.8602	3.032316	39.64442	1122.603
11/10/2014 5:13:55 PM	17:13:55	53	A	11	65	92.85714	47468.57	67	95.71428	33500	1225.216	41.30326	42.07596	14.09175	58.96001	427.1336	57.145	53.65306	11.373	14.50447	13.498	1	3	1	0.25	5841	191.3999	213.7505	71.05176	5.042081	219.5187	165.0549	3.050328	39.87992	1129.272
11/10/2014 5:14:05 PM	17:14:05	63	A	11	65	92.85714	47468.57	67	97.14286	34000	1225.216	41.57272	42.07596	14.09325	58.96001	426.8634	56.455	53.51833	11.207	14.49671	13.243	1	3	1	0.25	5842	192.2002	213.3418	70.57324	5.007592	219.3686	164.4471	3.022548	39.51671	1118.987
11/10/2014 5:14:15 PM	17:14:15	73	A	11	65	92.85714	47468.57	67	95.71428	33500	1225.429	41.52781	42.04175	14.09362	58.96001	426.5032	57.045	53.69796	11.313	14.50992	13.564	1	3	1	0.25	5842	192.3999	213.5645	70.17363	4.979105	219.1685	163.7079	3.058502	39.98678	1132.298
11/10/2014 5:14:25 PM	17:14:25	83	A	11	65	92.85714	47468.57	67	95.71428	33500	1224.791	41.34818	42.04175	14.09362	58.96001	426.7284	56.63	53.65306	11.361	14.50283	13.505	1	3	1	0.25	5841	192	213.3053	71.05862	5.041899	219.2936	165.0897	3.046555	39.83057	1127.874
11/10/2014 5:14:35 PM	17:14:35	93	A	11	65	94.28571	48198.86	67	95.71428	33500	1226.024	41.66253	42.05029	14.09438	58.97501	426.2781	56.69501	53.47342	11.397	14.50424	13.505	1	3	1	0.25	5841	191	213.5279	70.63437	5.011529	219.0434	164.6219	3.05214	39.9036	1129.942
11/10/2014 5:14:45 PM	17:14:45	103	A	11	65	92.85714	47468.57	67	95.71428	33500	1223.813	41.66253	42.05029	14.09438	58.97501	426.008	56.52	53.47342	11.511	14.50232	13.561	1	3	1	0.25	5842	191.3999	211.5625	71.56938	5.077868	219.0434	166.2402	3.058014	39.9804	1132.117
11/10/2014 5:14:55 PM	17:14:55	113	A	11	65	92.85714	47468.57	68	95.71428	33500	1226.747	41.52781	42.02463	14.09362	59.00999	426.008	56.08501	53.3387	11.133	14.49998	13.39	1	3	1	0.25	5843	191.3999	211.376	70.84363	5.026644	218.8934	164.8743	3.039541	39.73887	1125.278
11/10/2014 5:15:05 PM	17:15:05	123	A	11	65	92.85714	47468.57	67	95.71428	33500	1223.898	41.52781	41.9819	14.09362	58.99001	425.4677	56.77499	53.3387	11.202	14.50692	13.369	1	3	1	0.25	5846	192.3999	213.0427	70.56363	5.006777	218.5932	164.3878	3.039747	39.74157	1125.354
11/10/2014 5:15:15 PM	17:15:15	133	A	11	66	92.85714	47468.57	67	95.71428	33500	1225.599	41.61762	41.9819	14.09362	58.99001	425.1526	56.735	53.24888	11.279	14.49752	13.274	1	3	1	0.25	5844	190.2002	212.0799	70.69862	5.016355	218.4181	164.701	3.0253	39.55269	1120.005
11/10/2014 5:15:53 PM	17:15:53	0	A	11	65	92.85714	47468.57	67	95.71428	33500	1225.259	41.61762	41.91351	14.094	59.11	425.4227	56.925	53.02434	11.174	14.49844	13.414	1	3	1	0.25	5842	192.6001	213.7871	69.92901	4.961616	218.5682	163.3551	3.045439	39.81598	1127.461
11/10/2014 5:16:03 PM	17:16:03	0	A	11	65	92.85714	47468.57	67	95.71428	33500	1222.963	41.4829	41.8793	14.09663	59.14	425.6478	56.25	53.11416	11.374	14.5011	13.417	1	3	1	0.25	5843	192.7998	213.1561	70.89162	5.028978	218.6933	164.8921	3.039671	39.74058	1125.326
11/10/2014 5:16:13 PM	17:16:13	0	A	11	65	92.85714	47468.57	67	97.14286	34000	1227.937	41.30326	41.8793	14.09663	59.14	425.3777	56.8	53.11416	11.229	14.50161	13.36	1	3	1	0.25	5839	189.2002	209.897	70.71163	5.01621	218.5432	164.4228	3.037104	39.70702	1124.376
11/10/2014 5:16:23 PM	17:16:23	0	A	11	64	92.85714	47468.57	68	97.14286	34000	1224.706	41.43799	41.84509	14.09475	59.16499	425.6478	56.315	53.11416	11.37	14.5006	13.452	1	3	1	0.25	5842	192.6001	214.0093	70.54475	5.005037	218.6933	164.2668	3.047037	39.83688	1128.053
11/10/2014 5:16:33 PM	17:16:33	7	A	12	65	92.85714	47468.57	67	97.14286	34000	1223.048	41.12363	41.81091	14.09738	59.21001	425.4677	56.88	53.06925	11.312	14.50387	13.464	1	3	1	0.25	5839	190.7998	211.8985	70.26737	4.984429	218.5932	163.4866	3.048841	39.86047	1128.721
11/10/2014 5:16:43 PM	17:16:43	17	A	12	65	94.28571	48198.86	67	95.71428	33500	1233.251	42.11161	41.81091	14.09738	59.21001	427.4037	56.82001	52.97943	11.059	14.50066	13.279	1	3	1	0.25	5836	191	212.6783	70.41738	4.99507	219.6687	164.6098	3.02852	39.5948	1121.198
11/10/2014 5:16:53 PM	17:16:53	27	A	12	65	92.85714	47468.57	67	95.71428	33500	1226.109	42.20143	41.80237	14.09625	59.235	427.4488	56.37	53.15907	11.156	14.49747	13.326	1	3	1	0.25	5840	191.2002	214.8259	70.42625	4.996099	219.6938	164.7135	3.033562	39.66072	1123.065
11/10/2014 5:17:03 PM	17:17:03	37	A	12	65	92.85714	47468.57	68	95.71428	33500	1224.706	42.20143	41.75961	14.0955	59.25	427.3587	56.74001	53.06925	11.105	14.49838	13.275	1	3	1	0.25	5840	192.7998	214.8259	70.7655	5.020432	219.6437	165.3108	3.027565	39.58231	1120.844
11/10/2014 5:17:13 PM	17:17:13	47	A	12	65	92.85714	47468.57	67	95.71428	33500	1224.919	41.79726	41.75961	14.0955	59.25	426.8184	56.53	53.20397	11.296	14.50276	13.387	1	3	1	0.25	5843	192.6001	213.8238	71.1805	5.049875	219.3436	165.6771	3.039913	39.74375	1125.416
11/10/2014 5:17:23 PM	17:17:23	57	A	12	65	92.85714	47468.57	68	97.14286	34000	1223.005	41.57272	41.73395	14.09662	59.3	427.2236	56.765	53.3387	11.042	14.49871	13.265	1	3	1	0.25	5843	193.2002	213.3783	70.26662	4.984642	219.5687	163.8834	3.025382	39.55376	1120.036
11/10/2014 5:17:33 PM	17:17:33	67	A	12	65	92.85714	47468.57	67	95.71428	33500	1224.026	41.34818	41.71683	14.097	59.39	427.1786	56.49001	53.29379	11.12	14.50166	13.331	1	3	1	0.25	5841	192	213.9726	71.017	5.037738	219.5437	164.9882	3.033403	39.65863	1123.006
11/10/2014 5:17:43 PM	17:17:43	77	A	12	65	92.85714	47468.57	68	97.14286	34000	1223.898	41.34818	41.71683	14.097	59.39	427.2686	56.355	53.38361	11.159	14.49927	13.358	1	3	1	0.25	5840	191.2002	213.4913	71.067	5.041286	219.5937	165.0748	3.035827	39.69033	1123.903
11/10/2014 5:17:53 PM	17:17:53	87	A	12	65	92.85714	47468.57	68	95.71428	33500	1224.281	41.34818	41.70831	14.09775	59.485	426.9535	56.78	53.3387	11.3	14.5066	13.431	1	3	1	0.25	5840	191.3999	212.1568	70.86275	5.026529	219.4186	164.7144	3.044741	39.80687	1127.203
11/10/2014 5:18:03 PM	17:18:03	97	A	12	65	92.85714	47468.57	67	97.14286	34000	1223.261	41.34818	41.6741	14.09663	59.565	426.8184	56.86	53.3387	11.112	14.50464	13.442	1	3	1	0.25	5844	192.2002	212.9698	71.26162	5.055225	219.3436	165.4144	3.045727	39.81975	1127.568
11/10/2014 5:18:13 PM	17:18:13	107	A	12	65	92.85714	47468.57	67	95.71428	33500	1223.771	41.16854	41.6741	14.09663	59.565	427.0435	56.62	53.42852	11.177	14.49944	13.314	1	3	1	0.25	5843	190.6001	212.2658	70.41663	4.995283	219.4686	163.7923	3.030895	39.62584	1122.077
11/10/2014 5:18:23 PM	17:18:23	117	A	12	65	92.85714	47468.57	67	95.71428	33500	1225.046	41.16854	41.63135	14.09662	59.55	426.9535	57.28	53.06925	11.328	14.50095	13.374	1	3	1	0.25	5839	190.6001	212.3431	71.10662	5.04423	219.4186	164.9894	3.0387	39.72789	1124.967
11/10/2014 5:18:33 PM	17:18:33	127	A	12	65	92.85714	47468.57	67	95.71428	33500	1227.129	41.21345	41.60571	14.09738	59.66	426.9535	56.58501	53.20397	11.437	14.50489	13.385	1	3	1	0.25	5840	190.2002	211.2675	70.93238	5.031602	219.4186	164.7206	3.03993	39.74397	1125.422
11/10/2014 5:18:53 PM	17:18:53	0	A	12	65	92.85714	47468.57	67	95.71428	33500	1225.301	41.21345	41.60571	14.09813	59.69501	426.2331	57.095	53.15907	11.216	14.50347	13.394	1	3	1	0.25	5838	191	212.9737	70.77313	5.020039	219.0184	164.438	3.0422	39.77364	1126.262
11/10/2014 5:19:03 PM	17:19:03	0	A	12	65	92.85714	47468.57	67	95.71428	33500	1222.878	41.03382	41.54584	14.097	59.74001	425.4677	56.30499	53.20397	11.311	14.50213	13.461	1	3	1	0.25	5841	191.2002	213.3053	71.077	5.041995	218.5932	164.8171	3.047926	39.8485	1128.382
11/10/2014 5:19:13 PM	17:19:13	0	A	12	64	91.42857	46738.29	67	97.14286	34000	1224.026	40.89909	41.54584	14.097	59.74001	425.5578	57.12	53.15907	11.278	14.50361	13.505	1	3	1	0.25	5841	190.3999	212.8605	70.76199	5.019649	218.6432	164.1539	3.051372	39.89356	1129.658
11/10/2014 5:19:23 PM	17:19:23	0	A	12	65	92.85714	47468.57	67	95.71428	33500	1225.429	41.03382	41.52875	14.0985	59.785	426.1431	56.81	53.06925	11.393	14.51103	13.528	1	3	1	0.25	5840	191	213.0467	70.4435	4.996524	218.9684	163.7052	3.056586	39.96172	1131.588
11/10/2014 5:19:33 PM	17:19:33	0	A	12	65	92.85714	47468.57	67	95.71428	33500	1223.388	41.16854	41.5202	14.09813	59.845	426.1431	56.53	52.93452	11.129	14.50957	13.448	1	3	1	0.25	5843	191.3999	211.8209	70.36813	4.991312	218.9684	163.6949	3.048117	39.851	1128.453
11/10/2014 5:19:43 PM	17:19:43	0	A	12	65	92.85714	47468.57	67	97.14286	34000	1224.366	41.16854	41.5202	14.09813	59.845	426.4582	56.565	52.97943	11.294	14.50148	13.439	1	3	1	0.25	5841	191.6001	213.0831	71.04314	5.03919	219.1435	164.8665	3.04612	39.82489	1127.714
11/10/2014 5:19:53 PM	17:19:53	3	A	13	65	92.85714	47468.57	67	95.71428	33500	1222.878	41.16854	41.48599	14.0985	59.88	426.4582	56.46001	52.97943	11.29	14.50186	13.492	1	3	1	0.25	5838	191.3999	212.0842	70.9435	5.031989	219.1435	164.6908	3.05074	39.8853	1129.424
11/10/2014 5:20:03 PM	17:20:03	13	A	13	65	92.85714	47468.57	67	95.71428	33500	1223.643	41.16854	41.47745	14.09925	59.96001	425.6928	56.515	53.02434	11.341	14.50391	13.541	1	3	1	0.25	5841	191.6001	213.3053	71.02425	5.037449	218.7183	164.8241	3.057357	39.9718	1131.874
11/10/2014 5:20:13 PM	17:20:13	23	A	13	65	92.85714	47468.57	67	95.71428	33500	1224.111	41.30326	41.47745	14.09925	59.96001	425.5578	56.85001	52.75489	11.306	14.50579	13.456	1	3	1	0.25	5840	190.6001	211.9348	70.96925	5.033547	218.6432	164.8467	3.049109	39.86398	1128.82
11/10/2014 5:20:23 PM	17:20:23	33	A	13	64	91.42857	46738.29	67	95.71428	33500	1223.091	41.39308	41.44324	14.10113	60.035	426.4132	56.39999	52.93452	11.154	14.50618	13.41	1	3	1	0.25	5841	190.6001	211.971	70.48113	4.998263	219.1185	164.0614	3.042944	39.78337	1126.538
11/10/2014 5:20:33 PM	17:20:33	43	A	13	65	92.85714	47468.57	67	95.71428	33500	1227.129	41.34818	41.40903	14.09888	60.02499	426.4582	56.61501	52.97943	11.221	14.50342	13.458	1	3	1	0.25	5840	189.3999	211.2675	70.73387	5.016987	219.1435	164.4811	3.0484	39.8547	1128.558
11/10/2014 5:20:43 PM	17:20:43	53	A	13	65	92.85714	47468.57	67	95.71428	33500	1223.686	41.21345	41.40903	14.09888	60.02499	425.7379	56.82001	53.20397	11.229	14.5057	13.44	1	3	1	0.25	5840	191	212.602	71.12888	5.045003	218.7433	165.0475	3.046025	39.82365	1127.678
11/10/2014 5:20:53 PM	17:20:53	63	A	13	65	92.85714	47468.57	68	97.14286	34000	1222.368	41.07872	41.37485	14.09962	59.97501	426.008	56.605	52.93452	11.202	14.50804	13.425	1	3	1	0.25	5840	189.7998	210.6002	70.75462	5.018192	218.8934	164.2752	3.04719	39.83888	1128.11
11/10/2014 5:21:03 PM	17:21:03	73	A	13	65	92.85714	47468.57	67	97.14286	34000	1222.623	41.21345	41.3663	14.1	60.065	426.008	56.7	52.93452	11.162	14.4958	13.278	1	3	1	0.25	5843	190.7998	211.5988	71.07999	5.041134	218.8934	164.9532	3.026035	39.56231	1120.278
11/10/2014 5:21:13 PM	17:21:13	83	A	13	65	92.85714	47468.57	67	95.71428	33500	1225.216	41.21345	41.3663	14.1	60.065	426.7734	56.985	53.15907	11.187	14.50404	13.384	1	3	1	0.25	5840	189.7998	211.7121	70.79501	5.020922	219.3186	164.4597	3.037889	39.71728	1124.666
11/10/2014 5:21:23 PM	17:21:23	93	A	13	65	92.85714	47468.57	67	95.71428	33500	1225.981	41.16854	41.35776	14.1	60.145	426.9084	57.325	53.15907	11.182	14.50715	13.305	1	3	1	0.25	5844	191.6001	212.0799	70.085	4.970567	219.3936	162.9499	3.031544	39.63433	1122.317
11/10/2014 5:21:33 PM	17:21:33	103	A	13	65	92.85714	47468.57	67	95.71428	33500	1225.429	41.03382	41.32355	14.09962	60.2	426.9084	55.905	53.02434	11.109	14.50016	13.164	1	3	1	0.25	5838	191.7998	213.1957	70.55463	5.004007	219.3936	163.8887	3.015676	39.42687	1116.443
11/10/2014 5:21:43 PM	17:21:43	113	A	13	65	92.85714	47468.57	67	95.71428	33500	1224.451	41.03382	41.32355	14.09962	60.2	427.0886	56.545	53.06925	11.125	14.50352	13.398	1	3	1	0.25	5839	190	211.6759	70.54962	5.003653	219.4937	163.88	3.041596	39.76574	1126.039
11/10/2014 5:21:53 PM	17:21:53	123	A	13	65	92.85714	47468.57	67	95.71428	33500	1221.518	41.07872	41.28937	14.10113	60.27	426.2781	56.785	52.93452	11.083	14.50336	13.482	1	3	1	0.25	5838	191.7998	212.7512	70.95612	5.031948	219.0434	164.6113	3.051142	39.89055	1129.573
11/10/2014 5:22:03 PM	17:22:03	133	A	13	66	94.28571	48198.86	67	95.71428	33500	1228.872	41.57272	41.28079	14.10037	60.295	426.6833	56.17	52.7998	11.026	14.50214	13.335	1	3	1	0.25	5833	191.7998	212.569	70.55037	5.003439	219.2685	164.3452	3.034693	39.6755	1123.483
11/10/2014 5:22:13 PM	17:22:13	0	A	13	65	92.85714	47468.57	67	95.71428	33500	1221.56	41.75235	41.28079	14.10037	60.295	427.6739	56.755	53.11416	11.162	14.50463	13.328	1	3	1	0.25	5837	189.6001	211.3814	70.30537	4.986064	219.8188	164.075	3.033925	39.66545	1123.199
11/10/2014 5:22:23 PM	17:22:23	0	A	13	65	92.85714	47468.57	67	95.71428	33500	1233.938	42.06671	41.25516	14.09962	60.30499	427.2236	56.86501	53.06925	11.001	14.5032	13.257	1	3	1	0.25	5833	192.3999	212.1248	71.31963	5.058264	219.5687	166.1174	3.028525	39.59486	1121.2
11/10/2014 5:22:33 PM	17:22:33	0	A	13	65	92.85714	47468.57	67	95.71428	33500	1227.512	42.65052	41.23804	14.1	60.295	429.1596	57.14999	53.3387	10.973	14.50834	13.381	1	3	1	0.25	5838	190.7998	212.5292	70.755	5.018085	220.6443	165.6456	3.03947	39.73795	1125.252
11/10/2014 5:22:43 PM	17:22:43	0	A	13	65	92.85714	47468.57	68	97.14286	34000	1230.7	42.5607	41.23804	14.1	60.295	429.5648	56.55499	53.38361	11.119	14.49718	13.212	1	3	1	0.25	5839	191.2002	212.1205	70.695	5.01383	220.8694	165.4627	3.019581	39.47792	1117.888
11/10/2014 5:22:53 PM	17:22:53	0	A	13	65	92.85714	47468.57	67	95.71428	33500	1235.652	43.41396	41.22095	14.10113	60.36	431.3155	56.795	53.51833	11.012	14.50115	13.194	1	3	1	0.25	5840	191.6001	212.602	70.27613	4.983725	221.8419	165.4661	3.017633	39.45245	1117.167
11/10/2014 5:23:03 PM	17:23:03	0	A	13	65	92.85714	47468.57	67	95.71428	33500	1227.597	42.20143	41.2124	14.10188	60.395	428.5743	56.89999	53.8776	11.234	14.50754	13.322	1	3	1	0.25	5840	190	211.4901	70.81687	5.021805	220.3191	165.3445	3.031879	39.63871	1122.441
11/10/2014 5:23:13 PM	17:23:13	0	A	13	65	92.85714	47468.57	67	95.71428	33500	1223.388	41.25836	41.2124	14.10188	60.395	427.5388	56.05499	53.78778	11.015	14.50317	13.245	1	3	1	0.25	5842	192	213.1196	71.14187	5.044852	219.7438	165.0831	3.022126	39.5112	1118.831
11/10/2014 5:23:23 PM	17:23:23	0	A	13	65	92.85714	47468.57	67	95.71428	33500	1224.153	41.30326	41.20383	14.1015	60.455	427.1336	56.85001	53.65306	11.109	14.50475	13.27	1	3	1	0.25	5840	191.7998	213.4913	70.7215	5.015175	219.5187	164.3975	3.025989	39.5617	1120.261
11/10/2014 5:23:33 PM	17:23:33	1	A	14	65	94.28571	48198.86	67	95.71428	33500	1225.046	40.98891	41.17819	14.10225	60.515	426.5933	56.17	53.65306	11.22	14.50904	13.29	1	3	1	0.25	5838	190.2002	212.3067	71.02225	5.036235	219.2185	164.6374	3.030618	39.62222	1121.974
11/10/2014 5:23:43 PM	17:23:43	11	A	14	65	92.85714	47468.57	67	95.71428	33500	1226.067	40.89909	41.17819	14.10225	60.515	426.7284	57.045	53.51833	11.433	14.50633	13.363	1	3	1	0.25	5838	189.7998	212.3067	70.60225	5.006453	219.2936	163.831	3.036742	39.70229	1124.242
11/10/2014 5:23:53 PM	17:23:53	21	A	14	64	91.42857	46738.29	67	97.14286	34000	1220.327	40.76437	41.17819	14.10225	60.58501	426.3232	57.095	53.51833	11.436	14.51063	13.374	1	3	1	0.25	5840	192.7998	213.2687	70.97725	5.033045	219.0684	164.3633	3.038418	39.7242	1124.862
11/10/2014 5:24:03 PM	17:24:03	31	A	14	65	92.85714	47468.57	67	95.71428	33500	1222.368	40.4051	41.15256	14.10225	60.64999	426.1431	56.97501	53.47342	11.356	14.5137	13.453	1	3	1	0.25	5839	190.7998	213.2322	70.48724	4.998297	218.9684	163.2001	3.039207	39.73452	1125.154
11/10/2014 5:24:13 PM	17:24:13	41	A	14	65	92.85714	47468.57	67	95.71428	33500	1222.495	40.89909	41.15256	14.10225	60.64999	425.963	56.47	53.29379	11.221	14.50908	13.461	1	3	1	0.25	5841	190.7998	211.081	70.53725	5.001843	218.8683	163.7181	3.04492	39.80921	1127.269
11/10/2014 5:24:23 PM	17:24:23	51	A	14	65	92.85714	47468.57	67	95.71428	33500	1224.579	40.85418	41.13544	14.10262	60.64	426.1881	57.03999	53.38361	11.233	14.50876	13.384	1	3	1	0.25	5840	191.7998	212.8241	71.20263	5.048892	218.9934	164.8279	3.039703	39.74099	1125.338
11/10/2014 5:24:33 PM	17:24:33	61	A	14	65	92.85714	47468.57	67	95.71428	33500	1225.344	40.62964	41.10123	14.10412	60.685	426.053	56.86	53.38361	11.15	14.512	13.368	1	3	1	0.25	5840	193.2002	214.3807	70.94913	5.030382	218.9184	164.1805	3.038305	39.72271	1124.82
11/10/2014 5:24:43 PM	17:24:43	71	A	14	65	92.85714	47468.57	67	95.71428	33500	1224.196	40.85418	41.10123	14.10412	60.685	425.963	57.265	53.15907	11.332	14.51637	13.437	1	3	1	0.25	5836	189.2002	210.0116	71.24413	5.051297	218.8683	164.8864	3.048623	39.85762	1128.64
11/10/2014 5:24:53 PM	17:24:53	81	A	14	65	92.85714	47468.57	68	97.14286	34000	1227.895	41.07872	41.11835	14.10563	60.735	426.053	56.925	53.38361	11.233	14.51053	13.408	1	3	1	0.25	5838	189.3999	212.0842	70.93562	5.028889	218.9184	164.5366	3.042523	39.77786	1126.382
11/10/2014 5:25:03 PM	17:25:03	91	A	14	65	92.85714	47468.57	67	95.71428	33500	1223.303	40.944	41.09271	14.10412	60.82001	425.6478	56.435	53.24888	11.179	14.50802	13.338	1	3	1	0.25	5837	188.2002	209.3806	71.34413	5.058388	218.6933	165.1375	3.034989	39.67936	1123.592
11/10/2014 5:25:13 PM	17:25:13	101	A	14	64	91.42857	46738.29	67	95.71428	33500	1224.791	40.89909	41.09271	14.10412	60.82001	425.7379	56.97	53.20397	11.225	14.50809	13.28	1	3	1	0.25	5838	189.2002	211.1951	70.54413	5.001667	218.7433	163.7138	3.031076	39.62821	1122.144
11/10/2014 5:25:23 PM	17:25:23	111	A	14	65	92.85714	47468.57	67	95.71428	33500	1222.878	40.62964	41.08417	14.10412	60.82001	425.6478	56.83501	53.11416	11.127	14.50632	13.36	1	3	1	0.25	5842	191	212.2295	70.81413	5.020811	218.6933	163.9469	3.037612	39.71366	1124.564
11/10/2014 5:25:33 PM	17:25:33	121	A	14	65	92.85714	47468.57	68	95.71428	33500	1220.2	40.89909	41.08417	14.10488	60.81	426.0981	56.82001	53.02434	11.187	14.51206	13.441	1	3	1	0.25	5836	189.3999	211.3452	70.48488	4.9972	218.9434	163.6042	3.04736	39.84111	1128.173
11/10/2014 5:25:43 PM	17:25:43	131	A	14	65	92.85714	47468.57	68	95.71428	33500	1227.087	40.89909	41.08417	14.10488	60.81	425.5578	57.02499	53.02434	11.272	14.51401	13.362	1	3	1	0.25	5840	190.3999	211.4901	71.01987	5.035129	218.6432	164.5318	3.042439	39.77677	1126.351
11/10/2014 5:25:53 PM	17:25:53	0	A	14	66	92.85714	47468.57	67	95.71428	33500	1224.919	40.58473	41.0585	14.10412	60.855	425.7379	57.325	52.93452	11.051	14.50574	13.358	1	3	1	0.25	5842	191.2002	213.3418	70.97913	5.032509	218.7433	164.1931	3.036987	39.70549	1124.332
11/10/2014 5:26:03 PM	17:26:03	0	A	14	65	92.85714	47468.57	67	97.14286	34000	1224.408	40.85418	41.08417	14.10375	60.92	426.008	57.06	52.93452	11.128	14.51267	13.464	1	3	1	0.25	5841	192.2002	212.4158	71.38375	5.061331	218.8934	165.1304	3.050198	39.87821	1129.223
11/10/2014 5:26:13 PM	17:26:13	0	A	14	65	92.85714	47468.57	67	95.71428	33500	1220.072	40.89909	41.08417	14.10375	60.92	425.7829	57.325	52.84471	11.296	14.50953	13.471	1	3	1	0.25	5841	191.7998	213.0831	70.86875	5.024816	218.7683	164.2801	3.047181	39.83877	1128.106
11/10/2014 5:26:23 PM	17:26:23	0	A	14	65	92.85714	47468.57	67	95.71428	33500	1223.133	40.85418	41.06705	14.10525	60.96001	425.6028	56.97501	52.7998	11.394	14.52198	13.44	1	3	1	0.25	5839	191.7998	213.0102	70.62025	5.006664	218.6682	163.797	3.048993	39.86245	1128.777
11/10/2014 5:26:33 PM	17:26:33	0	A	14	65	92.85714	47468.57	67	95.71428	33500	1224.026	40.80927	41.06705	14.10525	60.97501	426.008	56.645	52.84471	11.34	14.51366	13.489	1	3	1	0.25	5842	191.2002	212.2295	71.06525	5.038213	218.8934	164.5285	3.053303	39.9188	1130.373
11/10/2014 5:26:43 PM	17:26:43	0	A	14	66	92.85714	47468.57	67	95.71428	33500	1223.516	40.85418	41.06705	14.10525	60.97501	425.8279	56.44	52.75489	11.202	14.50922	13.283	1	3	1	0.25	5840	189.6001	211.2675	70.63525	5.007728	218.7933	163.8231	3.030662	39.6228	1121.991
11/10/2014 5:26:53 PM	17:26:53	0	A	14	65	92.85714	47468.57	67	95.71428	33500	1223.005	40.76437	41.04996	14.10375	60.91	426.1881	56.09	52.70998	11.218	14.51235	13.412	1	3	1	0.25	5838	191.2002	211.8622	70.79375	5.019499	218.9934	164.0325	3.045158	39.81231	1127.357
11/10/2014 5:27:03 PM	17:27:03	0	A	14	65	92.85714	47468.57	67	95.71428	33500	1222.921	40.80927	41.03284	14.10412	60.905	425.6928	57	52.62017	11.045	14.50683	13.41	1	3	1	0.25	5839	192.6001	213.0102	70.77412	5.017974	218.7183	164.0345	3.044601	39.80503	1127.151
11/10/2014 5:27:13 PM	17:27:13	0	A	14	66	94.28571	48198.86	67	95.71428	33500	1225.981	40.45001	41.03284	14.10412	60.905	425.7379	56.485	52.66507	11.043	14.50224	13.268	1	3	1	0.25	5840	190.3999	213.0467	70.64412	5.008756	218.7433	163.4953	3.03368	39.66225	1123.108
11/10/2014 5:27:23 PM	17:27:23	0	A	14	65	92.85714	47468.57	67	95.71428	33500	1221.688	40.944	41.04141	14.10525	60.92999	426.008	56.505	52.66507	11.117	14.51041	13.359	1	3	1	0.25	5840	191	213.2687	70.59526	5.004892	218.8934	163.832	3.043221	39.78699	1126.64
11/10/2014 5:27:33 PM	17:27:33	0	A	14	65	92.85714	47468.57	67	95.71428	33500	1219.009	40.85418	41.04141	14.10637	61.005	425.8729	56.855	52.66507	11.145	14.50608	13.384	1	3	1	0.25	5838	192.7998	214.7523	71.58637	5.074753	218.8183	165.4562	3.036178	39.69491	1124.033
11/10/2014 5:27:43 PM	17:27:43	0	A	14	65	92.85714	47468.57	67	95.71428	33500	1223.346	40.80927	41.04141	14.10637	61.005	425.918	56.23	52.57526	11.221	14.50348	13.334	1	3	1	0.25	5841	190.7998	211.081	70.95138	5.029738	218.8433	164.3218	3.036052	39.69326	1123.986
11/10/2014 5:27:53 PM	17:27:53	0	A	14	65	92.85714	47468.57	67	95.71428	33500	1220.667	40.85418	41.04141	14.10675	61.05499	425.4677	56.25999	52.66507	11.184	14.51039	13.277	1	3	1	0.25	5838	189.6001	210.3061	70.46175	4.994895	218.5932	163.5086	3.030289	39.61792	1121.853
11/10/2014 5:28:03 PM	17:28:03	0	A	14	65	92.85714	47468.57	68	95.71428	33500	1214.333	40.71946	41.03284	14.10563	61.12	425.3326	56.39	52.7998	10.949	14.50417	13.168	1	3	1	0.25	5850	186	205.8371	70.09062	4.968984	218.5181	162.7544	3.012237	39.3819	1115.169
11/10/2014 5:28:13 PM	17:28:13	0	A	14	64	92.85714	47468.57	67	95.71428	33500	1209.741	40.76437	41.03284	14.10563	61.12	422.6313	55.61	52.53035	11.137	14.50222	13.169	1	3	1	0.25	5813	180.3999	199.6654	69.53062	4.929284	217.3175	161.8136	3.017576	39.45171	1117.146
11/10/2014 5:28:23 PM	17:28:23	0	A	14	64	91.42857	46738.29	67	95.71428	33500	1185.509	40.71946	41.0072	14.106	61.17	419.9299	53.5	52.66507	10.228	14.47845	12.389	1	3	1	0.25	5847	173.2002	193.4856	67.69101	4.798739	215.5166	158.6277	2.926226	38.2574	1083.327
11/10/2014 5:28:33 PM	17:28:33	0	A	14	63	90	46008	67	95.71428	33500	1152.475	40.49492	40.99863	14.10563	61.205	413.8967	52.34	52.44053	9.735001	14.45871	11.875	1	3	1	0.25	5812	161.7998	179.7122	66.39561	4.707031	212.1649	155.9881	2.865131	37.45866	1060.709
11/10/2014 5:28:43 PM	17:28:43	0	A	14	62	88.57143	45277.71	66	94.28571	33000	1112.065	40.76437	40.99863	14.10563	61.205	406.2428	50.42	52.48544	9.201	14.44476	11.298	1	3	1	0.25	5816	150.3999	166.9904	64.31062	4.559218	207.9127	152.3927	2.796989	36.56776	1035.482
11/10/2014 5:28:53 PM	17:28:53	0	A	14	61	87.14285	44547.43	67	94.28571	33000	1102.432	40.62964	41.0072	14.1045	61.2	400.0746	49.13	52.39562	8.831001	14.42813	10.882	1	3	1	0.25	5797	140.3999	155.4073	63.0595	4.470878	204.4859	149.949	2.745208	35.89077	1016.312
11/10/2014 5:29:03 PM	17:29:03	0	A	14	60	87.14285	44547.43	66	94.28571	33000	1060.984	40.89909	40.99011	14.10637	61.19501	393.9063	47.35001	52.03636	8.581001	14.4175	10.418	1	3	1	0.25	5726	135	147.8351	61.88137	4.386766	201.0591	147.927	2.685577	35.11116	994.2358
11/10/2014 5:29:13 PM	17:29:13	0	A	14	60	85.71429	43817.14	66	94.28571	33000	1028.493	40.76437	40.99011	14.10637	61.19501	384.9017	46.38499	51.94654	8.084	14.40117	10.087	1	3	1	0.25	5729	126.7998	137.877	60.27137	4.272634	196.0565	144.7116	2.644958	34.58012	979.1982
11/10/2014 5:29:23 PM	17:29:23	0	A	14	58	82.85715	42356.57	65	92.85714	32500	1026	40.67455	40.98157	14.10675	61.205	378.0581	43.35001	51.85672	7.372002	14.37415	9.222	1	3	1	0.25	5701	121.2002	131.1244	57.89674	4.104187	192.2545	139.9481	2.529476	33.0703	936.4452
11/10/2014 5:29:33 PM	17:29:33	0	A	14	58	82.85715	42356.57	65	92.85714	32500	995.9594	40.62964	40.99863	14.10637	61.205	372.5653	43.075	51.76691	7.335999	14.372	9.168999	1	3	1	0.25	5681	112.3999	121.3625	57.21137	4.05571	189.203	138.5363	2.522408	32.9779	933.8285
11/10/2014 5:29:43 PM	17:29:43	0	A	14	58	82.85715	42356.57	65	92.85714	32500	990.5089	40.67455	40.99863	14.10637	61.205	364.236	42.07001	51.54237	7.209	14.36485	9.006001	1	3	1	0.25	5659	105.2002	113.5654	56.44637	4.00148	184.5755	137.0211	2.500365	32.68971	925.668
11/10/2014 5:29:53 PM	17:29:53	0	A	14	57	81.42857	41626.28	65	92.85714	32500	969.0876	40.31528	40.98157	14.106	61.215	361.5796	40.64999	51.31783	6.583	14.35139	8.483002	1	3	1	0.25	5670	98.3999	105.3658	54.131	3.837445	183.0998	131.941	2.428102	31.74493	898.9149
11/10/2014 5:30:03 PM	17:30:03	0	A	14	56	80	40896	65	92.85714	32500	955.5251	40.67455	40.97299	14.10675	61.19501	353.7455	38.12	51.1831	6.125	14.3306	7.896999	1	3	1	0.25	5666	92.6001	99.46599	52.60675	3.72919	178.7475	128.9904	2.349607	30.7187	869.8553
11/10/2014 5:30:13 PM	17:30:13	0	A	14	55	78.57143	40165.71	63	91.42857	32000	940.0612	40.67455	40.97299	14.10675	61.19501	346.0916	35.965	51.09328	5.588001	14.30787	7.233002	1	3	1	0.25	5545	87.6001	92.27385	50.26175	3.562957	174.4953	123.8781	2.244402	29.34325	830.9069
11/10/2014 5:30:23 PM	17:30:23	0	A	14	55	78.57143	40165.71	63	90	31500	935.1601	40.67455	40.99011	14.10637	61.17999	338.1674	36.28	50.86874	5.674999	14.31443	7.435001	1	3	1	0.25	5478	82.7998	87.40398	50.57137	3.585001	170.093	124.5658	2.274833	29.74111	842.1731
11/10/2014 5:30:33 PM	17:30:33	0	A	14	55	78.57143	40165.71	62	88.57143	31000	940.357	40.71946	40.98157	14.10713	61.19501	330.7751	37.80499	50.95856	6.063999	14.32873	7.764999	1	3	1	0.25	5412	83.2002	86.96929	51.40713	3.644054	165.9862	126.429	2.324065	30.38477	860.3994
11/10/2014 5:30:43 PM	17:30:43	0	A	14	55	78.57143	40165.71	62	88.57143	31000	943.6525	40.76437	40.98157	14.10713	61.19501	329.1185	36.905	50.68911	5.880001	14.31869	7.633999	1	3	1	0.25	5415	85	87.01751	50.54713	3.583092	165.0658	124.5777	2.303395	30.11452	852.7468
11/10/2014 5:30:53 PM	17:30:53	0	A	14	54	78.57143	40165.71	62	88.57143	31000	943.2723	40.67455	40.97299	14.10637	61.23	327.1036	32.155	50.55438	4.720001	14.27909	6.368	1	3	1	0.25	5412	82.6001	85.52677	46.71638	3.311721	163.9465	115.8155	2.105843	27.53174	779.6107
11/10/2014 5:31:03 PM	17:31:03	0	A	14	28	40	20448	29	41.42857	14500	368.3781	40.53983	40.96445	14.10712	61.23	283.5829	0.2250061	50.41966	-0.9279995	14.07254	0.1469994	1	3	1	0.25	2558	45.2002	21.91691	14.33213	1.01595	139.7683	5.980903	0.3247225	4.245414	120.2165
11/10/2014 5:31:13 PM	17:31:13	0	A	14	14	20	10224	14	18.57143	6500	379.3188	40.49492	40.96445	14.10712	61.23	263.7674	-0.1649933	50.19511	-1.025999	14.07106	0.1060009	1	3	1	0.25	1197	21.2002	4.877218	13.94213	0.9883043	128.7597	3.803694	0.2721901	3.558606	100.7683
11/10/2014 5:31:23 PM	17:31:23	0	A	14	5	7.142858	3651.429	5	7.142858	2500	462.2225	40.944	40.98157	14.106	61.21001	263.2823	-0.2149963	50.24002	-1.066	14.06935	0.1019993	0	1	1	0.25	593	11.7998	1.332281	13.89599	0.9851122	128.4902	3.80088	0.2682124	3.506602	99.29573
11/10/2014 5:31:33 PM	17:31:33	0	A	14	0	0	0	2	2.857143	1000	531.6217	40.98891	40.97299	14.10713	61.215	265.6197	-0.2350006	50.19511	-0.9780006	14.06925	0.1079998	0	1	1	0.25	304	8.200195	0.463052	13.87213	0.9833417	129.7887	3.685947	0.2746848	3.591222	101.6919
11/10/2014 5:31:43 PM	17:31:43	0	A	14	-1	0	0	-1	0	0	569.4494	41.07872	40.97299	14.10713	61.215	266.2371	-0.25	50.28493	-1.016001	14.07503	0.1000004	0	1	1	0.25	170	5.399902	0.1747837	13.86213	0.9826332	130.1317	3.67964	0.2643833	3.456541	97.87817
11/10/2014 5:31:53 PM	17:31:53	0	A	14	-1	0	0	-1	0	0	587.5427	41.07872	40.93881	14.10863	61.265	265.355	-0.2700043	50.19511	-0.9979992	14.07227	0.1070004	0	1	1	0.25	89	5	8.472785E-02	13.83862	0.9808624	129.6417	3.539565	0.2785003	3.641106	103.1045
11/10/2014 5:32:03 PM	17:32:03	0	A	14	-1	0	0	-1	0	0	596.9147	41.12363	40.94736	14.1075	61.33501	264.032	-0.2799988	50.32984	-0.9890003	14.0715	0.1049995	0	1	1	0.25	-1	5	-9.519983E-04	13.8225	0.9797977	128.9067	3.480072	0.2708332	3.540866	100.266
11/10/2014 5:32:13 PM	17:32:13	0	A	14	-1	0	0	-1	0	0	602.0781	40.944	40.94736	14.1075	61.33501	262.1797	-0.2850037	50.32984	-1	14.06988	0.1049995	0	1	1	0.25	-1	4.799805	-9.138812E-04	13.81751	0.979444	127.8776	3.352831	0.2707875	3.540269	100.2491
11/10/2014 5:32:23 PM	17:32:23	0	A	14	-1	0	0	-1	0	0	606.8075	41.12363	40.93024	14.10863	61.38499	259.3572	-0.3049927	50.28493	-0.9960003	14.07216	0.1070004	0	1	1	0.25	-1	4.200195	-7.997158E-04	13.80862	0.9787362	126.3096	3.395945	0.2733778	3.574134	101.208
11/10/2014 5:32:33 PM	17:32:33	0	A	14	0	0	0	-1	0	0	606.1566	40.71946	40.92169	14.10788	61.39	256.7994	-0.3150024	50.24002	-0.9750004	14.07163	0.1060009	0	1	1	0.25	-1	4.200195	-7.997158E-04	13.79287	0.9776719	124.8885	3.088413	0.2696013	3.524761	99.80994
11/10/2014 5:32:43 PM	17:32:43	0	A	14	-1	0	0	-1	0	0	605.202	41.21345	40.92169	14.10788	61.39	253.4476	-0.3249969	50.32984	-0.9720001	14.07239	0.1070004	0	1	1	0.25	-1	4	-7.615987E-04	13.77787	0.9766087	123.0265	3.276723	0.2733684	3.574011	101.2045
11/10/2014 5:32:53 PM	17:32:53	0	A	14	-1	0	0	-1	0	0	597.1317	40.89909	40.91315	14.10863	61.355	250.3605	-0.3300018	50.28493	-1.01	14.07267	0.1060009	0	1	1	0.25	-1	4.200195	-7.997158E-04	13.78363	0.9769647	121.3114	3.131477	0.2721086	3.55754	100.7382
11/10/2014 5:33:03 PM	17:33:03	0	A	14	0	0	0	-1	0	0	590.363	40.67455	40.93881	14.10938	61.37	247.1411	-0.3249969	50.24002	-1.009001	14.07801	0.1089993	0	1	1	0.25	-1	4	-7.615987E-04	13.78438	0.9769659	119.5229	3.00766	0.2760504	3.609076	102.1975
11/10/2014 5:33:13 PM	17:33:13	0	A	14	-1	0	0	-1	0	0	588.4105	40.89909	40.93881	14.10938	61.37	243.1279	-0.3300018	50.19511	-0.9680004	14.07826	0.1089993	0	1	1	0.25	-1	4.200195	-7.997158E-04	13.77937	0.9766111	117.2933	3.103417	0.2760646	3.609261	102.2027
11/10/2014 5:33:23 PM	17:33:23	0	A	14	-1	0	0	-1	0	0	584.7658	40.71946	40.9046	14.10975	61.39	239.688	-0.3399963	50.32984	-1.027	14.07292	0.1049995	0	1	1	0.25	-1	4.200195	-7.615987E-04	13.76975	0.9759035	115.3822	2.948134	0.2708468	3.541044	100.271
11/10/2014 5:33:33 PM	17:33:33	0	A	14	-1	0	0	-1	0	0	574.6127	40.62964	40.91315	14.109	61.42	236.1598	-0.3450012	50.24002	-0.9699993	14.07387	0.1089993	0	1	1	0.25	-1	4.399902	-8.3774E-04	13.769	0.9759021	113.4221	2.898475	0.2759805	3.608162	102.1716
11/10/2014 5:33:43 PM	17:33:43	0	A	14	-1	0	0	-1	0	0	570.4474	40.62964	40.91315	14.109	61.42	231.858	-0.3399963	50.1053	-1.042	14.07257	0.1070004	0	1	1	0.25	-1	4.200195	-7.615987E-04	13.769	0.9759021	111.0323	2.898475	0.2734282	3.574793	101.2267
11/10/2014 5:33:53 PM	17:33:53	0	A	14	-1	0	0	-1	0	0	563.6787	40.27037	40.89603	14.10975	61.37	228.3802	-0.3500061	50.15021	-0.9780006	14.07281	0.1060009	0	1	1	0.25	-1	4.399902	-7.997158E-04	13.75974	0.975194	109.1001	2.64406	0.2721446	3.558012	100.7515
11/10/2014 5:34:03 PM	17:34:03	0	A	14	-1	0	0	-1	0	0	555.4781	40.80927	40.93024	14.11012	61.37	224.3806	-0.3500061	50.19511	-1.006001	14.07511	0.1100006	0	1	1	0.25	-1	4.200195	-8.3774E-04	13.76012	0.9751947	106.8781	2.941403	0.277234	3.624551	102.6357
11/10/2014 5:34:13 PM	17:34:13	0	A	14	-1	0	0	-1	0	0	550.8789	40.67455	40.93024	14.11012	61.37	220.9028	-0.3650055	50.24002	-0.9920006	14.07471	0.1079998	0	1	1	0.25	-1	4.399902	-7.997158E-04	13.75012	0.9744864	104.946	2.810822	0.2747559	3.592151	101.7182
11/10/2014 5:34:23 PM	17:34:23	0	A	14	-1	0	0	-1	0	0	548.4925	40.62964	40.91315	14.1105	61.36	217.4684	-0.3650055	50.06039	-1.056	14.07599	0.1079998	0	1	1	0.25	-1	4.200195	-7.997158E-04	13.74051	0.9737787	103.038	2.729815	0.2747416	3.591965	101.713
11/10/2014 5:34:33 PM	17:34:33	0	A	14	0	0	0	-1	0	0	542.7651	40.49492	40.89603	14.11012	61.39	213.0776	-0.3699951	50.15021	-0.9939995	14.07449	0.1060009	0	1	1	0.25	-1	4.399902	-7.997158E-04	13.73512	0.9734234	100.5987	2.627275	0.2734649	3.575273	101.2403
